<?xml version="1.0" encoding="UTF-8" standalone="no" ?>
<gpx xmlns="http://www.topografix.com/GPX/1/1" xmlns:xsi="http://www.w3.org/2001/XMLSchema-instance" xsi:schemaLocation="http://www.topografix.com/GPX/1/1 http://www.topografix.com/GPX/1/1/gpx.xsd" version="1.1" creator="VisuGPX - https://www.visugpx.com">
  <metadata>
    <name>Saint-Léons</name>
    <desc><![CDATA[J6 Boucle st Leon]]></desc>
  </metadata>
  <wpt lat="44.22398" lon="2.96073">
    <ele>839.3</ele>
    <name><![CDATA[Gite de Monplo]]></name>
    <type><![CDATA[hotel]]></type>
  </wpt>
  <wpt lat="44.22488" lon="2.95994">
    <ele>848.8</ele>
    <name><![CDATA[Les Ecuries de Monplo]]></name>
    <cmt><![CDATA[06 79 75 16 07]]></cmt>
    <type><![CDATA[hotel]]></type>
  </wpt>
  <trk>
    <name><![CDATA[J6 boucle Monplo]]></name>
    <trkseg>
      <trkpt lat="44.22484" lon="2.96162">
        <ele>847.06</ele>
        <time>2025-09-20T08:36:14Z</time>
      </trkpt>
      <trkpt lat="44.22484" lon="2.96163">
        <ele>848.98</ele>
        <time>2025-09-20T08:36:39Z</time>
      </trkpt>
      <trkpt lat="44.22484" lon="2.96161">
        <ele>849.94</ele>
        <time>2025-09-20T08:36:56Z</time>
      </trkpt>
      <trkpt lat="44.22486" lon="2.96157">
        <ele>849.94</ele>
        <time>2025-09-20T08:37:23Z</time>
      </trkpt>
      <trkpt lat="44.22487" lon="2.96158">
        <ele>851.38</ele>
        <time>2025-09-20T08:37:40Z</time>
      </trkpt>
      <trkpt lat="44.22487" lon="2.96161">
        <ele>853.79</ele>
        <time>2025-09-20T08:38:12Z</time>
      </trkpt>
      <trkpt lat="44.22488" lon="2.96159">
        <ele>853.31</ele>
        <time>2025-09-20T08:38:32Z</time>
      </trkpt>
      <trkpt lat="44.22487" lon="2.96158">
        <ele>853.79</ele>
        <time>2025-09-20T08:38:53Z</time>
      </trkpt>
      <trkpt lat="44.22486" lon="2.96159">
        <ele>851.87</ele>
        <time>2025-09-20T08:39:12Z</time>
      </trkpt>
      <trkpt lat="44.22486" lon="2.96162">
        <ele>851.38</ele>
        <time>2025-09-20T08:39:32Z</time>
      </trkpt>
      <trkpt lat="44.22487" lon="2.96163">
        <ele>850.42</ele>
        <time>2025-09-20T08:39:51Z</time>
      </trkpt>
      <trkpt lat="44.22485" lon="2.96164">
        <ele>850.42</ele>
        <time>2025-09-20T08:40:10Z</time>
      </trkpt>
      <trkpt lat="44.22476" lon="2.96156">
        <ele>849.94</ele>
        <time>2025-09-20T08:40:30Z</time>
      </trkpt>
      <trkpt lat="44.22474" lon="2.96151">
        <ele>848.98</ele>
        <time>2025-09-20T08:40:46Z</time>
      </trkpt>
      <trkpt lat="44.22473" lon="2.9615">
        <ele>848.98</ele>
        <time>2025-09-20T08:40:47Z</time>
      </trkpt>
      <trkpt lat="44.22461" lon="2.96137">
        <ele>848.02</ele>
        <time>2025-09-20T08:41:04Z</time>
      </trkpt>
      <trkpt lat="44.22449" lon="2.96131">
        <ele>848.5</ele>
        <time>2025-09-20T08:41:19Z</time>
      </trkpt>
      <trkpt lat="44.22448" lon="2.96131">
        <ele>848.5</ele>
        <time>2025-09-20T08:41:20Z</time>
      </trkpt>
      <trkpt lat="44.22443" lon="2.96133">
        <ele>848.5</ele>
        <time>2025-09-20T08:41:26Z</time>
      </trkpt>
      <trkpt lat="44.22437" lon="2.9613">
        <ele>848.02</ele>
        <time>2025-09-20T08:41:32Z</time>
      </trkpt>
      <trkpt lat="44.22434" lon="2.96124">
        <ele>848.02</ele>
        <time>2025-09-20T08:41:36Z</time>
      </trkpt>
      <trkpt lat="44.22424" lon="2.96098">
        <ele>842.73</ele>
        <time>2025-09-20T08:41:53Z</time>
      </trkpt>
      <trkpt lat="44.22415" lon="2.96082">
        <ele>839.37</ele>
        <time>2025-09-20T08:42:07Z</time>
      </trkpt>
      <trkpt lat="44.22413" lon="2.9608">
        <ele>839.37</ele>
        <time>2025-09-20T08:42:10Z</time>
      </trkpt>
      <trkpt lat="44.22398" lon="2.96085">
        <ele>839.85</ele>
        <time>2025-09-20T08:42:26Z</time>
      </trkpt>
      <trkpt lat="44.22395" lon="2.96088">
        <ele>839.85</ele>
        <time>2025-09-20T08:42:29Z</time>
      </trkpt>
      <trkpt lat="44.22388" lon="2.96116">
        <ele>838.41</ele>
        <time>2025-09-20T08:42:48Z</time>
      </trkpt>
      <trkpt lat="44.22388" lon="2.96121">
        <ele>837.45</ele>
        <time>2025-09-20T08:43:03Z</time>
      </trkpt>
      <trkpt lat="44.22387" lon="2.96117">
        <ele>837.93</ele>
        <time>2025-09-20T08:43:21Z</time>
      </trkpt>
      <trkpt lat="44.22388" lon="2.96118">
        <ele>838.89</ele>
        <time>2025-09-20T08:43:33Z</time>
      </trkpt>
      <trkpt lat="44.22387" lon="2.96123">
        <ele>838.89</ele>
        <time>2025-09-20T08:43:40Z</time>
      </trkpt>
      <trkpt lat="44.22385" lon="2.96147">
        <ele>840.33</ele>
        <time>2025-09-20T08:44:00Z</time>
      </trkpt>
      <trkpt lat="44.22386" lon="2.96149">
        <ele>840.33</ele>
        <time>2025-09-20T08:44:02Z</time>
      </trkpt>
      <trkpt lat="44.22387" lon="2.96153">
        <ele>840.33</ele>
        <time>2025-09-20T08:44:05Z</time>
      </trkpt>
      <trkpt lat="44.22388" lon="2.96167">
        <ele>838.89</ele>
        <time>2025-09-20T08:44:21Z</time>
      </trkpt>
      <trkpt lat="44.22393" lon="2.96163">
        <ele>836</ele>
        <time>2025-09-20T08:44:42Z</time>
      </trkpt>
      <trkpt lat="44.22392" lon="2.96168">
        <ele>834.56</ele>
        <time>2025-09-20T08:45:07Z</time>
      </trkpt>
      <trkpt lat="44.22395" lon="2.96162">
        <ele>836</ele>
        <time>2025-09-20T08:45:33Z</time>
      </trkpt>
      <trkpt lat="44.22394" lon="2.9616">
        <ele>834.08</ele>
        <time>2025-09-20T08:45:55Z</time>
      </trkpt>
      <trkpt lat="44.22389" lon="2.9616">
        <ele>833.6</ele>
        <time>2025-09-20T08:46:17Z</time>
      </trkpt>
      <trkpt lat="44.22387" lon="2.96159">
        <ele>838.41</ele>
        <time>2025-09-20T08:46:43Z</time>
      </trkpt>
      <trkpt lat="44.22381" lon="2.96156">
        <ele>836.48</ele>
        <time>2025-09-20T08:47:05Z</time>
      </trkpt>
      <trkpt lat="44.22392" lon="2.96163">
        <ele>836.48</ele>
        <time>2025-09-20T08:47:27Z</time>
      </trkpt>
      <trkpt lat="44.2239" lon="2.9617">
        <ele>841.77</ele>
        <time>2025-09-20T08:47:42Z</time>
      </trkpt>
      <trkpt lat="44.2239" lon="2.96167">
        <ele>842.25</ele>
        <time>2025-09-20T08:47:45Z</time>
      </trkpt>
      <trkpt lat="44.22388" lon="2.96141">
        <ele>845.14</ele>
        <time>2025-09-20T08:48:03Z</time>
      </trkpt>
      <trkpt lat="44.22387" lon="2.96132">
        <ele>846.1</ele>
        <time>2025-09-20T08:48:21Z</time>
      </trkpt>
      <trkpt lat="44.22389" lon="2.96128">
        <ele>846.1</ele>
        <time>2025-09-20T08:48:36Z</time>
      </trkpt>
      <trkpt lat="44.22388" lon="2.96127">
        <ele>846.58</ele>
        <time>2025-09-20T08:48:54Z</time>
      </trkpt>
      <trkpt lat="44.22385" lon="2.96129">
        <ele>846.1</ele>
        <time>2025-09-20T08:49:10Z</time>
      </trkpt>
      <trkpt lat="44.22387" lon="2.96126">
        <ele>847.54</ele>
        <time>2025-09-20T08:49:23Z</time>
      </trkpt>
      <trkpt lat="44.22384" lon="2.96123">
        <ele>847.06</ele>
        <time>2025-09-20T08:49:36Z</time>
      </trkpt>
      <trkpt lat="44.22386" lon="2.96129">
        <ele>846.1</ele>
        <time>2025-09-20T08:49:46Z</time>
      </trkpt>
      <trkpt lat="44.22392" lon="2.96147">
        <ele>846.1</ele>
        <time>2025-09-20T08:50:03Z</time>
      </trkpt>
      <trkpt lat="44.22393" lon="2.96148">
        <ele>846.1</ele>
        <time>2025-09-20T08:50:04Z</time>
      </trkpt>
      <trkpt lat="44.22395" lon="2.9616">
        <ele>846.1</ele>
        <time>2025-09-20T08:50:19Z</time>
      </trkpt>
      <trkpt lat="44.22399" lon="2.96162">
        <ele>847.54</ele>
        <time>2025-09-20T08:50:40Z</time>
      </trkpt>
      <trkpt lat="44.22393" lon="2.96154">
        <ele>848.5</ele>
        <time>2025-09-20T08:50:53Z</time>
      </trkpt>
      <trkpt lat="44.22392" lon="2.96153">
        <ele>848.98</ele>
        <time>2025-09-20T08:50:55Z</time>
      </trkpt>
      <trkpt lat="44.22388" lon="2.96146">
        <ele>849.94</ele>
        <time>2025-09-20T08:51:01Z</time>
      </trkpt>
      <trkpt lat="44.22383" lon="2.96142">
        <ele>849.46</ele>
        <time>2025-09-20T08:51:07Z</time>
      </trkpt>
      <trkpt lat="44.22381" lon="2.96139">
        <ele>848.98</ele>
        <time>2025-09-20T08:51:09Z</time>
      </trkpt>
      <trkpt lat="44.22385" lon="2.96123">
        <ele>847.54</ele>
        <time>2025-09-20T08:51:23Z</time>
      </trkpt>
      <trkpt lat="44.22385" lon="2.96109">
        <ele>847.54</ele>
        <time>2025-09-20T08:51:38Z</time>
      </trkpt>
      <trkpt lat="44.22391" lon="2.96113">
        <ele>847.06</ele>
        <time>2025-09-20T08:51:54Z</time>
      </trkpt>
      <trkpt lat="44.22396" lon="2.9612">
        <ele>847.06</ele>
        <time>2025-09-20T08:52:08Z</time>
      </trkpt>
      <trkpt lat="44.22396" lon="2.96122">
        <ele>848.5</ele>
        <time>2025-09-20T08:52:23Z</time>
      </trkpt>
      <trkpt lat="44.22398" lon="2.96122">
        <ele>848.02</ele>
        <time>2025-09-20T08:52:46Z</time>
      </trkpt>
      <trkpt lat="44.22397" lon="2.96137">
        <ele>848.02</ele>
        <time>2025-09-20T08:52:59Z</time>
      </trkpt>
      <trkpt lat="44.22401" lon="2.96148">
        <ele>846.58</ele>
        <time>2025-09-20T08:53:15Z</time>
      </trkpt>
      <trkpt lat="44.22401" lon="2.96152">
        <ele>848.5</ele>
        <time>2025-09-20T08:53:38Z</time>
      </trkpt>
      <trkpt lat="44.22402" lon="2.96152">
        <ele>848.98</ele>
        <time>2025-09-20T08:54:07Z</time>
      </trkpt>
      <trkpt lat="44.22402" lon="2.96153">
        <ele>850.42</ele>
        <time>2025-09-20T08:54:38Z</time>
      </trkpt>
      <trkpt lat="44.22407" lon="2.96169">
        <ele>850.42</ele>
        <time>2025-09-20T08:54:51Z</time>
      </trkpt>
      <trkpt lat="44.22417" lon="2.96185">
        <ele>851.38</ele>
        <time>2025-09-20T08:55:09Z</time>
      </trkpt>
      <trkpt lat="44.22435" lon="2.96212">
        <ele>848.98</ele>
        <time>2025-09-20T08:55:28Z</time>
      </trkpt>
      <trkpt lat="44.22442" lon="2.96222">
        <ele>848.5</ele>
        <time>2025-09-20T08:55:36Z</time>
      </trkpt>
      <trkpt lat="44.22464" lon="2.96247">
        <ele>846.1</ele>
        <time>2025-09-20T08:55:57Z</time>
      </trkpt>
      <trkpt lat="44.22472" lon="2.96257">
        <ele>847.54</ele>
        <time>2025-09-20T08:56:06Z</time>
      </trkpt>
      <trkpt lat="44.22483" lon="2.96269">
        <ele>847.06</ele>
        <time>2025-09-20T08:56:16Z</time>
      </trkpt>
      <trkpt lat="44.22503" lon="2.96292">
        <ele>845.14</ele>
        <time>2025-09-20T08:56:36Z</time>
      </trkpt>
      <trkpt lat="44.22519" lon="2.96313">
        <ele>841.77</ele>
        <time>2025-09-20T08:56:53Z</time>
      </trkpt>
      <trkpt lat="44.22532" lon="2.96328">
        <ele>839.37</ele>
        <time>2025-09-20T08:57:07Z</time>
      </trkpt>
      <trkpt lat="44.22552" lon="2.96336">
        <ele>837.93</ele>
        <time>2025-09-20T08:57:26Z</time>
      </trkpt>
      <trkpt lat="44.22571" lon="2.96352">
        <ele>835.52</ele>
        <time>2025-09-20T08:57:44Z</time>
      </trkpt>
      <trkpt lat="44.2259" lon="2.96369">
        <ele>830.72</ele>
        <time>2025-09-20T08:58:01Z</time>
      </trkpt>
      <trkpt lat="44.2261" lon="2.96395">
        <ele>826.87</ele>
        <time>2025-09-20T08:58:21Z</time>
      </trkpt>
      <trkpt lat="44.22631" lon="2.96414">
        <ele>826.39</ele>
        <time>2025-09-20T08:58:39Z</time>
      </trkpt>
      <trkpt lat="44.22639" lon="2.96429">
        <ele>823.51</ele>
        <time>2025-09-20T08:58:54Z</time>
      </trkpt>
      <trkpt lat="44.22658" lon="2.96445">
        <ele>822.06</ele>
        <time>2025-09-20T08:59:09Z</time>
      </trkpt>
      <trkpt lat="44.22669" lon="2.96438">
        <ele>821.58</ele>
        <time>2025-09-20T08:59:25Z</time>
      </trkpt>
      <trkpt lat="44.22689" lon="2.96439">
        <ele>819.66</ele>
        <time>2025-09-20T08:59:43Z</time>
      </trkpt>
      <trkpt lat="44.2271" lon="2.96442">
        <ele>818.7</ele>
        <time>2025-09-20T08:59:58Z</time>
      </trkpt>
      <trkpt lat="44.22733" lon="2.96445">
        <ele>815.82</ele>
        <time>2025-09-20T09:00:14Z</time>
      </trkpt>
      <trkpt lat="44.22753" lon="2.96444">
        <ele>814.37</ele>
        <time>2025-09-20T09:00:29Z</time>
      </trkpt>
      <trkpt lat="44.22772" lon="2.96451">
        <ele>811.01</ele>
        <time>2025-09-20T09:00:43Z</time>
      </trkpt>
      <trkpt lat="44.22779" lon="2.96454">
        <ele>809.57</ele>
        <time>2025-09-20T09:00:47Z</time>
      </trkpt>
      <trkpt lat="44.228" lon="2.9647">
        <ele>808.13</ele>
        <time>2025-09-20T09:01:03Z</time>
      </trkpt>
      <trkpt lat="44.22819" lon="2.96482">
        <ele>806.2</ele>
        <time>2025-09-20T09:01:18Z</time>
      </trkpt>
      <trkpt lat="44.22821" lon="2.96484">
        <ele>805.72</ele>
        <time>2025-09-20T09:01:19Z</time>
      </trkpt>
      <trkpt lat="44.22824" lon="2.96503">
        <ele>802.84</ele>
        <time>2025-09-20T09:01:35Z</time>
      </trkpt>
      <trkpt lat="44.22817" lon="2.96508">
        <ele>801.88</ele>
        <time>2025-09-20T09:01:49Z</time>
      </trkpt>
      <trkpt lat="44.2282" lon="2.96505">
        <ele>800.92</ele>
        <time>2025-09-20T09:02:05Z</time>
      </trkpt>
      <trkpt lat="44.22817" lon="2.96512">
        <ele>801.88</ele>
        <time>2025-09-20T09:02:21Z</time>
      </trkpt>
      <trkpt lat="44.22817" lon="2.96514">
        <ele>800.44</ele>
        <time>2025-09-20T09:02:41Z</time>
      </trkpt>
      <trkpt lat="44.22814" lon="2.96516">
        <ele>802.84</ele>
        <time>2025-09-20T09:03:23Z</time>
      </trkpt>
      <trkpt lat="44.22809" lon="2.96522">
        <ele>801.88</ele>
        <time>2025-09-20T09:03:31Z</time>
      </trkpt>
      <trkpt lat="44.228" lon="2.96532">
        <ele>799.47</ele>
        <time>2025-09-20T09:03:46Z</time>
      </trkpt>
      <trkpt lat="44.22788" lon="2.96547">
        <ele>798.03</ele>
        <time>2025-09-20T09:03:59Z</time>
      </trkpt>
      <trkpt lat="44.22772" lon="2.96566">
        <ele>796.11</ele>
        <time>2025-09-20T09:04:17Z</time>
      </trkpt>
      <trkpt lat="44.22755" lon="2.96586">
        <ele>793.71</ele>
        <time>2025-09-20T09:04:35Z</time>
      </trkpt>
      <trkpt lat="44.22743" lon="2.96599">
        <ele>790.82</ele>
        <time>2025-09-20T09:04:47Z</time>
      </trkpt>
      <trkpt lat="44.22725" lon="2.96616">
        <ele>788.42</ele>
        <time>2025-09-20T09:05:05Z</time>
      </trkpt>
      <trkpt lat="44.22702" lon="2.96633">
        <ele>782.65</ele>
        <time>2025-09-20T09:05:25Z</time>
      </trkpt>
      <trkpt lat="44.22683" lon="2.96655">
        <ele>782.17</ele>
        <time>2025-09-20T09:05:42Z</time>
      </trkpt>
      <trkpt lat="44.22663" lon="2.96684">
        <ele>779.77</ele>
        <time>2025-09-20T09:06:02Z</time>
      </trkpt>
      <trkpt lat="44.22653" lon="2.96712">
        <ele>777.84</ele>
        <time>2025-09-20T09:06:18Z</time>
      </trkpt>
      <trkpt lat="44.22645" lon="2.96742">
        <ele>778.81</ele>
        <time>2025-09-20T09:06:35Z</time>
      </trkpt>
      <trkpt lat="44.22631" lon="2.96772">
        <ele>777.84</ele>
        <time>2025-09-20T09:06:53Z</time>
      </trkpt>
      <trkpt lat="44.22612" lon="2.96799">
        <ele>776.88</ele>
        <time>2025-09-20T09:07:12Z</time>
      </trkpt>
      <trkpt lat="44.22589" lon="2.96835">
        <ele>778.32</ele>
        <time>2025-09-20T09:07:34Z</time>
      </trkpt>
      <trkpt lat="44.22571" lon="2.96861">
        <ele>777.84</ele>
        <time>2025-09-20T09:07:51Z</time>
      </trkpt>
      <trkpt lat="44.22561" lon="2.96883">
        <ele>779.29</ele>
        <time>2025-09-20T09:08:04Z</time>
      </trkpt>
      <trkpt lat="44.22554" lon="2.96893">
        <ele>779.29</ele>
        <time>2025-09-20T09:08:11Z</time>
      </trkpt>
      <trkpt lat="44.22546" lon="2.96919">
        <ele>779.77</ele>
        <time>2025-09-20T09:08:26Z</time>
      </trkpt>
      <trkpt lat="44.22529" lon="2.96956">
        <ele>779.29</ele>
        <time>2025-09-20T09:08:47Z</time>
      </trkpt>
      <trkpt lat="44.22512" lon="2.96981">
        <ele>775.44</ele>
        <time>2025-09-20T09:09:03Z</time>
      </trkpt>
      <trkpt lat="44.22489" lon="2.97006">
        <ele>770.15</ele>
        <time>2025-09-20T09:09:22Z</time>
      </trkpt>
      <trkpt lat="44.22471" lon="2.97027">
        <ele>766.31</ele>
        <time>2025-09-20T09:09:39Z</time>
      </trkpt>
      <trkpt lat="44.22459" lon="2.97038">
        <ele>765.35</ele>
        <time>2025-09-20T09:09:51Z</time>
      </trkpt>
      <trkpt lat="44.22439" lon="2.97056">
        <ele>767.75</ele>
        <time>2025-09-20T09:10:06Z</time>
      </trkpt>
      <trkpt lat="44.22417" lon="2.97069">
        <ele>769.19</ele>
        <time>2025-09-20T09:10:22Z</time>
      </trkpt>
      <trkpt lat="44.22396" lon="2.97076">
        <ele>768.23</ele>
        <time>2025-09-20T09:10:38Z</time>
      </trkpt>
      <trkpt lat="44.22373" lon="2.97085">
        <ele>769.67</ele>
        <time>2025-09-20T09:10:54Z</time>
      </trkpt>
      <trkpt lat="44.2236" lon="2.97102">
        <ele>772.08</ele>
        <time>2025-09-20T09:11:05Z</time>
      </trkpt>
      <trkpt lat="44.22354" lon="2.97138">
        <ele>772.08</ele>
        <time>2025-09-20T09:11:22Z</time>
      </trkpt>
      <trkpt lat="44.22362" lon="2.97171">
        <ele>772.08</ele>
        <time>2025-09-20T09:11:39Z</time>
      </trkpt>
      <trkpt lat="44.22365" lon="2.97203">
        <ele>768.71</ele>
        <time>2025-09-20T09:11:55Z</time>
      </trkpt>
      <trkpt lat="44.22365" lon="2.97232">
        <ele>765.35</ele>
        <time>2025-09-20T09:12:10Z</time>
      </trkpt>
      <trkpt lat="44.22368" lon="2.97266">
        <ele>763.9</ele>
        <time>2025-09-20T09:12:26Z</time>
      </trkpt>
      <trkpt lat="44.22372" lon="2.973">
        <ele>762.94</ele>
        <time>2025-09-20T09:12:43Z</time>
      </trkpt>
      <trkpt lat="44.22374" lon="2.97315">
        <ele>761.02</ele>
        <time>2025-09-20T09:12:51Z</time>
      </trkpt>
      <trkpt lat="44.22378" lon="2.97317">
        <ele>760.06</ele>
        <time>2025-09-20T09:12:55Z</time>
      </trkpt>
      <trkpt lat="44.22397" lon="2.97292">
        <ele>760.06</ele>
        <time>2025-09-20T09:13:13Z</time>
      </trkpt>
      <trkpt lat="44.22416" lon="2.97271">
        <ele>760.54</ele>
        <time>2025-09-20T09:13:29Z</time>
      </trkpt>
      <trkpt lat="44.22432" lon="2.97244">
        <ele>761.5</ele>
        <time>2025-09-20T09:13:45Z</time>
      </trkpt>
      <trkpt lat="44.22449" lon="2.97225">
        <ele>762.46</ele>
        <time>2025-09-20T09:14:01Z</time>
      </trkpt>
      <trkpt lat="44.2247" lon="2.97219">
        <ele>764.87</ele>
        <time>2025-09-20T09:14:17Z</time>
      </trkpt>
      <trkpt lat="44.22479" lon="2.97216">
        <ele>765.83</ele>
        <time>2025-09-20T09:14:25Z</time>
      </trkpt>
      <trkpt lat="44.22501" lon="2.97206">
        <ele>770.63</ele>
        <time>2025-09-20T09:14:42Z</time>
      </trkpt>
      <trkpt lat="44.22525" lon="2.97203">
        <ele>771.11</ele>
        <time>2025-09-20T09:14:58Z</time>
      </trkpt>
      <trkpt lat="44.22549" lon="2.97223">
        <ele>771.6</ele>
        <time>2025-09-20T09:15:16Z</time>
      </trkpt>
      <trkpt lat="44.22573" lon="2.97236">
        <ele>774.96</ele>
        <time>2025-09-20T09:15:35Z</time>
      </trkpt>
      <trkpt lat="44.22596" lon="2.97249">
        <ele>777.36</ele>
        <time>2025-09-20T09:15:54Z</time>
      </trkpt>
      <trkpt lat="44.22616" lon="2.9726">
        <ele>778.81</ele>
        <time>2025-09-20T09:16:10Z</time>
      </trkpt>
      <trkpt lat="44.22635" lon="2.97267">
        <ele>780.25</ele>
        <time>2025-09-20T09:16:26Z</time>
      </trkpt>
      <trkpt lat="44.22645" lon="2.97276">
        <ele>780.25</ele>
        <time>2025-09-20T09:16:36Z</time>
      </trkpt>
      <trkpt lat="44.22672" lon="2.97298">
        <ele>781.21</ele>
        <time>2025-09-20T09:16:59Z</time>
      </trkpt>
      <trkpt lat="44.22697" lon="2.97316">
        <ele>783.61</ele>
        <time>2025-09-20T09:17:20Z</time>
      </trkpt>
      <trkpt lat="44.22715" lon="2.97328">
        <ele>786.02</ele>
        <time>2025-09-20T09:17:34Z</time>
      </trkpt>
      <trkpt lat="44.22724" lon="2.9733">
        <ele>787.46</ele>
        <time>2025-09-20T09:17:41Z</time>
      </trkpt>
      <trkpt lat="44.22748" lon="2.97342">
        <ele>792.26</ele>
        <time>2025-09-20T09:18:02Z</time>
      </trkpt>
      <trkpt lat="44.2277" lon="2.97355">
        <ele>794.19</ele>
        <time>2025-09-20T09:18:21Z</time>
      </trkpt>
      <trkpt lat="44.22795" lon="2.9737">
        <ele>798.03</ele>
        <time>2025-09-20T09:18:40Z</time>
      </trkpt>
      <trkpt lat="44.22818" lon="2.97377">
        <ele>798.99</ele>
        <time>2025-09-20T09:18:59Z</time>
      </trkpt>
      <trkpt lat="44.2284" lon="2.97376">
        <ele>800.44</ele>
        <time>2025-09-20T09:19:16Z</time>
      </trkpt>
      <trkpt lat="44.22864" lon="2.97378">
        <ele>800.44</ele>
        <time>2025-09-20T09:19:33Z</time>
      </trkpt>
      <trkpt lat="44.22889" lon="2.97384">
        <ele>801.88</ele>
        <time>2025-09-20T09:19:52Z</time>
      </trkpt>
      <trkpt lat="44.22916" lon="2.97394">
        <ele>802.36</ele>
        <time>2025-09-20T09:20:11Z</time>
      </trkpt>
      <trkpt lat="44.2294" lon="2.97403">
        <ele>805.72</ele>
        <time>2025-09-20T09:20:29Z</time>
      </trkpt>
      <trkpt lat="44.22965" lon="2.97411">
        <ele>808.61</ele>
        <time>2025-09-20T09:20:45Z</time>
      </trkpt>
      <trkpt lat="44.22986" lon="2.97415">
        <ele>811.97</ele>
        <time>2025-09-20T09:21:00Z</time>
      </trkpt>
      <trkpt lat="44.23009" lon="2.97417">
        <ele>816.3</ele>
        <time>2025-09-20T09:21:17Z</time>
      </trkpt>
      <trkpt lat="44.23032" lon="2.97417">
        <ele>819.18</ele>
        <time>2025-09-20T09:21:34Z</time>
      </trkpt>
      <trkpt lat="44.23051" lon="2.97426">
        <ele>823.51</ele>
        <time>2025-09-20T09:21:51Z</time>
      </trkpt>
      <trkpt lat="44.2307" lon="2.97436">
        <ele>826.39</ele>
        <time>2025-09-20T09:22:06Z</time>
      </trkpt>
      <trkpt lat="44.2309" lon="2.97422">
        <ele>830.24</ele>
        <time>2025-09-20T09:22:24Z</time>
      </trkpt>
      <trkpt lat="44.23105" lon="2.97407">
        <ele>833.12</ele>
        <time>2025-09-20T09:22:41Z</time>
      </trkpt>
      <trkpt lat="44.23131" lon="2.97402">
        <ele>834.08</ele>
        <time>2025-09-20T09:23:00Z</time>
      </trkpt>
      <trkpt lat="44.2314" lon="2.974">
        <ele>835.52</ele>
        <time>2025-09-20T09:23:18Z</time>
      </trkpt>
      <trkpt lat="44.23142" lon="2.97399">
        <ele>836</ele>
        <time>2025-09-20T09:23:30Z</time>
      </trkpt>
      <trkpt lat="44.23162" lon="2.97404">
        <ele>835.52</ele>
        <time>2025-09-20T09:23:45Z</time>
      </trkpt>
      <trkpt lat="44.23165" lon="2.97412">
        <ele>835.52</ele>
        <time>2025-09-20T09:24:03Z</time>
      </trkpt>
      <trkpt lat="44.23166" lon="2.97414">
        <ele>835.04</ele>
        <time>2025-09-20T09:24:18Z</time>
      </trkpt>
      <trkpt lat="44.23171" lon="2.97427">
        <ele>836</ele>
        <time>2025-09-20T09:24:31Z</time>
      </trkpt>
      <trkpt lat="44.23175" lon="2.97436">
        <ele>836</ele>
        <time>2025-09-20T09:24:38Z</time>
      </trkpt>
      <trkpt lat="44.23192" lon="2.97443">
        <ele>836</ele>
        <time>2025-09-20T09:24:53Z</time>
      </trkpt>
      <trkpt lat="44.23206" lon="2.9746">
        <ele>836</ele>
        <time>2025-09-20T09:25:10Z</time>
      </trkpt>
      <trkpt lat="44.23222" lon="2.97477">
        <ele>837.93</ele>
        <time>2025-09-20T09:25:25Z</time>
      </trkpt>
      <trkpt lat="44.23243" lon="2.97494">
        <ele>838.89</ele>
        <time>2025-09-20T09:25:44Z</time>
      </trkpt>
      <trkpt lat="44.23267" lon="2.97508">
        <ele>837.45</ele>
        <time>2025-09-20T09:26:04Z</time>
      </trkpt>
      <trkpt lat="44.23293" lon="2.97526">
        <ele>835.04</ele>
        <time>2025-09-20T09:26:26Z</time>
      </trkpt>
      <trkpt lat="44.23316" lon="2.97546">
        <ele>833.12</ele>
        <time>2025-09-20T09:26:47Z</time>
      </trkpt>
      <trkpt lat="44.2334" lon="2.97573">
        <ele>830.72</ele>
        <time>2025-09-20T09:27:11Z</time>
      </trkpt>
      <trkpt lat="44.23348" lon="2.97581">
        <ele>829.76</ele>
        <time>2025-09-20T09:27:27Z</time>
      </trkpt>
      <trkpt lat="44.23359" lon="2.97613">
        <ele>828.31</ele>
        <time>2025-09-20T09:27:47Z</time>
      </trkpt>
      <trkpt lat="44.23368" lon="2.97651">
        <ele>829.76</ele>
        <time>2025-09-20T09:28:07Z</time>
      </trkpt>
      <trkpt lat="44.23368" lon="2.97687">
        <ele>829.27</ele>
        <time>2025-09-20T09:28:26Z</time>
      </trkpt>
      <trkpt lat="44.23372" lon="2.97706">
        <ele>829.76</ele>
        <time>2025-09-20T09:28:39Z</time>
      </trkpt>
      <trkpt lat="44.23368" lon="2.97709">
        <ele>829.27</ele>
        <time>2025-09-20T09:28:53Z</time>
      </trkpt>
      <trkpt lat="44.23363" lon="2.97707">
        <ele>827.83</ele>
        <time>2025-09-20T09:29:09Z</time>
      </trkpt>
      <trkpt lat="44.23366" lon="2.97707">
        <ele>829.76</ele>
        <time>2025-09-20T09:29:23Z</time>
      </trkpt>
      <trkpt lat="44.23367" lon="2.97706">
        <ele>829.76</ele>
        <time>2025-09-20T09:29:37Z</time>
      </trkpt>
      <trkpt lat="44.23365" lon="2.97707">
        <ele>830.24</ele>
        <time>2025-09-20T09:29:53Z</time>
      </trkpt>
      <trkpt lat="44.23364" lon="2.97712">
        <ele>830.24</ele>
        <time>2025-09-20T09:30:12Z</time>
      </trkpt>
      <trkpt lat="44.23361" lon="2.97724">
        <ele>829.76</ele>
        <time>2025-09-20T09:30:27Z</time>
      </trkpt>
      <trkpt lat="44.23362" lon="2.97747">
        <ele>828.31</ele>
        <time>2025-09-20T09:30:44Z</time>
      </trkpt>
      <trkpt lat="44.23362" lon="2.97768">
        <ele>826.87</ele>
        <time>2025-09-20T09:30:59Z</time>
      </trkpt>
      <trkpt lat="44.23362" lon="2.97781">
        <ele>824.95</ele>
        <time>2025-09-20T09:31:08Z</time>
      </trkpt>
      <trkpt lat="44.23364" lon="2.97787">
        <ele>824.47</ele>
        <time>2025-09-20T09:31:12Z</time>
      </trkpt>
      <trkpt lat="44.23381" lon="2.97798">
        <ele>822.06</ele>
        <time>2025-09-20T09:31:28Z</time>
      </trkpt>
      <trkpt lat="44.23392" lon="2.97801">
        <ele>822.06</ele>
        <time>2025-09-20T09:31:43Z</time>
      </trkpt>
      <trkpt lat="44.23395" lon="2.97802">
        <ele>821.58</ele>
        <time>2025-09-20T09:31:59Z</time>
      </trkpt>
      <trkpt lat="44.23387" lon="2.97801">
        <ele>817.74</ele>
        <time>2025-09-20T09:32:31Z</time>
      </trkpt>
      <trkpt lat="44.23372" lon="2.97796">
        <ele>818.7</ele>
        <time>2025-09-20T09:32:46Z</time>
      </trkpt>
      <trkpt lat="44.23363" lon="2.97794">
        <ele>820.62</ele>
        <time>2025-09-20T09:33:00Z</time>
      </trkpt>
      <trkpt lat="44.23363" lon="2.97794">
        <ele>825.43</ele>
        <time>2025-09-20T09:33:27Z</time>
      </trkpt>
      <trkpt lat="44.23362" lon="2.97792">
        <ele>824.95</ele>
        <time>2025-09-20T09:33:49Z</time>
      </trkpt>
      <trkpt lat="44.23362" lon="2.97789">
        <ele>823.03</ele>
        <time>2025-09-20T09:34:12Z</time>
      </trkpt>
      <trkpt lat="44.23361" lon="2.97788">
        <ele>821.58</ele>
        <time>2025-09-20T09:34:35Z</time>
      </trkpt>
      <trkpt lat="44.23361" lon="2.97784">
        <ele>821.1</ele>
        <time>2025-09-20T09:34:51Z</time>
      </trkpt>
      <trkpt lat="44.23361" lon="2.97768">
        <ele>823.99</ele>
        <time>2025-09-20T09:35:08Z</time>
      </trkpt>
      <trkpt lat="44.23361" lon="2.97759">
        <ele>824.95</ele>
        <time>2025-09-20T09:35:25Z</time>
      </trkpt>
      <trkpt lat="44.23364" lon="2.97746">
        <ele>826.39</ele>
        <time>2025-09-20T09:35:37Z</time>
      </trkpt>
      <trkpt lat="44.23363" lon="2.97739">
        <ele>826.87</ele>
        <time>2025-09-20T09:35:41Z</time>
      </trkpt>
      <trkpt lat="44.23361" lon="2.97706">
        <ele>830.24</ele>
        <time>2025-09-20T09:36:02Z</time>
      </trkpt>
      <trkpt lat="44.23362" lon="2.97697">
        <ele>831.68</ele>
        <time>2025-09-20T09:36:08Z</time>
      </trkpt>
      <trkpt lat="44.23361" lon="2.97665">
        <ele>832.16</ele>
        <time>2025-09-20T09:36:25Z</time>
      </trkpt>
      <trkpt lat="44.23362" lon="2.97638">
        <ele>830.72</ele>
        <time>2025-09-20T09:36:40Z</time>
      </trkpt>
      <trkpt lat="44.23356" lon="2.97601">
        <ele>829.76</ele>
        <time>2025-09-20T09:36:59Z</time>
      </trkpt>
      <trkpt lat="44.23343" lon="2.97573">
        <ele>829.27</ele>
        <time>2025-09-20T09:37:18Z</time>
      </trkpt>
      <trkpt lat="44.23325" lon="2.97552">
        <ele>830.72</ele>
        <time>2025-09-20T09:37:37Z</time>
      </trkpt>
      <trkpt lat="44.23308" lon="2.97536">
        <ele>832.64</ele>
        <time>2025-09-20T09:37:55Z</time>
      </trkpt>
      <trkpt lat="44.23288" lon="2.97521">
        <ele>834.56</ele>
        <time>2025-09-20T09:38:12Z</time>
      </trkpt>
      <trkpt lat="44.23267" lon="2.97508">
        <ele>836.48</ele>
        <time>2025-09-20T09:38:30Z</time>
      </trkpt>
      <trkpt lat="44.23252" lon="2.97498">
        <ele>838.41</ele>
        <time>2025-09-20T09:38:45Z</time>
      </trkpt>
      <trkpt lat="44.23244" lon="2.97491">
        <ele>838.89</ele>
        <time>2025-09-20T09:39:01Z</time>
      </trkpt>
      <trkpt lat="44.23221" lon="2.97478">
        <ele>838.41</ele>
        <time>2025-09-20T09:39:17Z</time>
      </trkpt>
      <trkpt lat="44.23202" lon="2.97452">
        <ele>837.45</ele>
        <time>2025-09-20T09:39:36Z</time>
      </trkpt>
      <trkpt lat="44.23186" lon="2.97432">
        <ele>836.96</ele>
        <time>2025-09-20T09:39:52Z</time>
      </trkpt>
      <trkpt lat="44.23189" lon="2.97409">
        <ele>835.04</ele>
        <time>2025-09-20T09:40:06Z</time>
      </trkpt>
      <trkpt lat="44.2319" lon="2.97409">
        <ele>835.04</ele>
        <time>2025-09-20T09:40:08Z</time>
      </trkpt>
      <trkpt lat="44.23205" lon="2.97407">
        <ele>835.04</ele>
        <time>2025-09-20T09:40:23Z</time>
      </trkpt>
      <trkpt lat="44.23224" lon="2.97403">
        <ele>834.56</ele>
        <time>2025-09-20T09:40:39Z</time>
      </trkpt>
      <trkpt lat="44.23243" lon="2.97394">
        <ele>835.52</ele>
        <time>2025-09-20T09:40:54Z</time>
      </trkpt>
      <trkpt lat="44.2325" lon="2.97386">
        <ele>837.45</ele>
        <time>2025-09-20T09:41:08Z</time>
      </trkpt>
      <trkpt lat="44.23253" lon="2.9737">
        <ele>838.89</ele>
        <time>2025-09-20T09:41:26Z</time>
      </trkpt>
      <trkpt lat="44.23252" lon="2.97374">
        <ele>838.89</ele>
        <time>2025-09-20T09:41:33Z</time>
      </trkpt>
      <trkpt lat="44.23256" lon="2.97395">
        <ele>839.37</ele>
        <time>2025-09-20T09:41:45Z</time>
      </trkpt>
      <trkpt lat="44.23259" lon="2.97397">
        <ele>839.85</ele>
        <time>2025-09-20T09:41:48Z</time>
      </trkpt>
      <trkpt lat="44.23264" lon="2.97397">
        <ele>840.81</ele>
        <time>2025-09-20T09:41:52Z</time>
      </trkpt>
      <trkpt lat="44.23272" lon="2.97391">
        <ele>840.33</ele>
        <time>2025-09-20T09:41:59Z</time>
      </trkpt>
      <trkpt lat="44.23289" lon="2.9737">
        <ele>841.77</ele>
        <time>2025-09-20T09:42:14Z</time>
      </trkpt>
      <trkpt lat="44.23306" lon="2.97353">
        <ele>844.66</ele>
        <time>2025-09-20T09:42:27Z</time>
      </trkpt>
      <trkpt lat="44.23323" lon="2.97344">
        <ele>847.06</ele>
        <time>2025-09-20T09:42:39Z</time>
      </trkpt>
      <trkpt lat="44.23345" lon="2.97341">
        <ele>848.5</ele>
        <time>2025-09-20T09:42:53Z</time>
      </trkpt>
      <trkpt lat="44.23369" lon="2.97341">
        <ele>849.94</ele>
        <time>2025-09-20T09:43:06Z</time>
      </trkpt>
      <trkpt lat="44.23393" lon="2.9734">
        <ele>851.87</ele>
        <time>2025-09-20T09:43:20Z</time>
      </trkpt>
      <trkpt lat="44.23418" lon="2.9734">
        <ele>853.31</ele>
        <time>2025-09-20T09:43:33Z</time>
      </trkpt>
      <trkpt lat="44.23441" lon="2.97343">
        <ele>853.31</ele>
        <time>2025-09-20T09:43:46Z</time>
      </trkpt>
      <trkpt lat="44.23466" lon="2.97344">
        <ele>853.31</ele>
        <time>2025-09-20T09:44:00Z</time>
      </trkpt>
      <trkpt lat="44.23491" lon="2.9734">
        <ele>854.75</ele>
        <time>2025-09-20T09:44:18Z</time>
      </trkpt>
      <trkpt lat="44.23512" lon="2.97331">
        <ele>856.67</ele>
        <time>2025-09-20T09:44:34Z</time>
      </trkpt>
      <trkpt lat="44.23534" lon="2.97323">
        <ele>857.63</ele>
        <time>2025-09-20T09:44:49Z</time>
      </trkpt>
      <trkpt lat="44.23555" lon="2.97314">
        <ele>859.08</ele>
        <time>2025-09-20T09:45:05Z</time>
      </trkpt>
      <trkpt lat="44.23571" lon="2.97306">
        <ele>859.08</ele>
        <time>2025-09-20T09:45:17Z</time>
      </trkpt>
      <trkpt lat="44.23592" lon="2.97291">
        <ele>860.52</ele>
        <time>2025-09-20T09:45:33Z</time>
      </trkpt>
      <trkpt lat="44.23615" lon="2.97275">
        <ele>861.96</ele>
        <time>2025-09-20T09:45:51Z</time>
      </trkpt>
      <trkpt lat="44.23635" lon="2.97263">
        <ele>861.96</ele>
        <time>2025-09-20T09:46:07Z</time>
      </trkpt>
      <trkpt lat="44.23658" lon="2.9725">
        <ele>861.96</ele>
        <time>2025-09-20T09:46:23Z</time>
      </trkpt>
      <trkpt lat="44.2368" lon="2.97239">
        <ele>861.96</ele>
        <time>2025-09-20T09:46:40Z</time>
      </trkpt>
      <trkpt lat="44.237" lon="2.9723">
        <ele>863.4</ele>
        <time>2025-09-20T09:46:55Z</time>
      </trkpt>
      <trkpt lat="44.2372" lon="2.97224">
        <ele>862.92</ele>
        <time>2025-09-20T09:47:11Z</time>
      </trkpt>
      <trkpt lat="44.23726" lon="2.97223">
        <ele>862.92</ele>
        <time>2025-09-20T09:47:17Z</time>
      </trkpt>
      <trkpt lat="44.23727" lon="2.97224">
        <ele>862.44</ele>
        <time>2025-09-20T09:47:18Z</time>
      </trkpt>
      <trkpt lat="44.23743" lon="2.97238">
        <ele>862.92</ele>
        <time>2025-09-20T09:47:33Z</time>
      </trkpt>
      <trkpt lat="44.23759" lon="2.97246">
        <ele>861.96</ele>
        <time>2025-09-20T09:47:47Z</time>
      </trkpt>
      <trkpt lat="44.2376" lon="2.97246">
        <ele>862.44</ele>
        <time>2025-09-20T09:47:48Z</time>
      </trkpt>
      <trkpt lat="44.23762" lon="2.97244">
        <ele>862.44</ele>
        <time>2025-09-20T09:48:01Z</time>
      </trkpt>
      <trkpt lat="44.23763" lon="2.97246">
        <ele>862.44</ele>
        <time>2025-09-20T09:48:05Z</time>
      </trkpt>
      <trkpt lat="44.23767" lon="2.97248">
        <ele>864.84</ele>
        <time>2025-09-20T09:48:19Z</time>
      </trkpt>
      <trkpt lat="44.23782" lon="2.97256">
        <ele>866.29</ele>
        <time>2025-09-20T09:48:36Z</time>
      </trkpt>
      <trkpt lat="44.23796" lon="2.97264">
        <ele>866.77</ele>
        <time>2025-09-20T09:48:50Z</time>
      </trkpt>
      <trkpt lat="44.23817" lon="2.97281">
        <ele>865.8</ele>
        <time>2025-09-20T09:49:08Z</time>
      </trkpt>
      <trkpt lat="44.23841" lon="2.97292">
        <ele>867.73</ele>
        <time>2025-09-20T09:49:25Z</time>
      </trkpt>
      <trkpt lat="44.23867" lon="2.97294">
        <ele>869.65</ele>
        <time>2025-09-20T09:49:43Z</time>
      </trkpt>
      <trkpt lat="44.23893" lon="2.97294">
        <ele>870.61</ele>
        <time>2025-09-20T09:50:01Z</time>
      </trkpt>
      <trkpt lat="44.23921" lon="2.97294">
        <ele>872.53</ele>
        <time>2025-09-20T09:50:22Z</time>
      </trkpt>
      <trkpt lat="44.23951" lon="2.97297">
        <ele>873.01</ele>
        <time>2025-09-20T09:50:44Z</time>
      </trkpt>
      <trkpt lat="44.23976" lon="2.97301">
        <ele>876.38</ele>
        <time>2025-09-20T09:51:03Z</time>
      </trkpt>
      <trkpt lat="44.24002" lon="2.97301">
        <ele>881.19</ele>
        <time>2025-09-20T09:51:23Z</time>
      </trkpt>
      <trkpt lat="44.24017" lon="2.97274">
        <ele>881.19</ele>
        <time>2025-09-20T09:51:40Z</time>
      </trkpt>
      <trkpt lat="44.24031" lon="2.97249">
        <ele>883.59</ele>
        <time>2025-09-20T09:51:58Z</time>
      </trkpt>
      <trkpt lat="44.24048" lon="2.9723">
        <ele>886.47</ele>
        <time>2025-09-20T09:52:17Z</time>
      </trkpt>
      <trkpt lat="44.24069" lon="2.97202">
        <ele>886.95</ele>
        <time>2025-09-20T09:52:37Z</time>
      </trkpt>
      <trkpt lat="44.24082" lon="2.9719">
        <ele>890.32</ele>
        <time>2025-09-20T09:52:52Z</time>
      </trkpt>
      <trkpt lat="44.24096" lon="2.9717">
        <ele>891.76</ele>
        <time>2025-09-20T09:53:08Z</time>
      </trkpt>
      <trkpt lat="44.24117" lon="2.97146">
        <ele>891.28</ele>
        <time>2025-09-20T09:53:25Z</time>
      </trkpt>
      <trkpt lat="44.24142" lon="2.9713">
        <ele>897.05</ele>
        <time>2025-09-20T09:53:45Z</time>
      </trkpt>
      <trkpt lat="44.24166" lon="2.97118">
        <ele>906.66</ele>
        <time>2025-09-20T09:54:00Z</time>
      </trkpt>
      <trkpt lat="44.24186" lon="2.97108">
        <ele>910.51</ele>
        <time>2025-09-20T09:54:16Z</time>
      </trkpt>
      <trkpt lat="44.24206" lon="2.97099">
        <ele>910.99</ele>
        <time>2025-09-20T09:54:31Z</time>
      </trkpt>
      <trkpt lat="44.24228" lon="2.97089">
        <ele>911.95</ele>
        <time>2025-09-20T09:54:48Z</time>
      </trkpt>
      <trkpt lat="44.24261" lon="2.97077">
        <ele>910.51</ele>
        <time>2025-09-20T09:55:13Z</time>
      </trkpt>
      <trkpt lat="44.24284" lon="2.9707">
        <ele>910.03</ele>
        <time>2025-09-20T09:55:28Z</time>
      </trkpt>
      <trkpt lat="44.24286" lon="2.9707">
        <ele>910.03</ele>
        <time>2025-09-20T09:55:29Z</time>
      </trkpt>
      <trkpt lat="44.24287" lon="2.9707">
        <ele>910.51</ele>
        <time>2025-09-20T09:55:30Z</time>
      </trkpt>
      <trkpt lat="44.24308" lon="2.97063">
        <ele>910.51</ele>
        <time>2025-09-20T09:55:44Z</time>
      </trkpt>
      <trkpt lat="44.24332" lon="2.97054">
        <ele>911.47</ele>
        <time>2025-09-20T09:56:01Z</time>
      </trkpt>
      <trkpt lat="44.24357" lon="2.97045">
        <ele>912.91</ele>
        <time>2025-09-20T09:56:19Z</time>
      </trkpt>
      <trkpt lat="44.24378" lon="2.97031">
        <ele>914.83</ele>
        <time>2025-09-20T09:56:36Z</time>
      </trkpt>
      <trkpt lat="44.24399" lon="2.97019">
        <ele>916.27</ele>
        <time>2025-09-20T09:56:52Z</time>
      </trkpt>
      <trkpt lat="44.24406" lon="2.97017">
        <ele>916.75</ele>
        <time>2025-09-20T09:57:02Z</time>
      </trkpt>
      <trkpt lat="44.24407" lon="2.97016">
        <ele>916.75</ele>
        <time>2025-09-20T09:57:03Z</time>
      </trkpt>
      <trkpt lat="44.24409" lon="2.97016">
        <ele>916.75</ele>
        <time>2025-09-20T09:57:04Z</time>
      </trkpt>
      <trkpt lat="44.24427" lon="2.97021">
        <ele>919.16</ele>
        <time>2025-09-20T09:57:21Z</time>
      </trkpt>
      <trkpt lat="44.24445" lon="2.97045">
        <ele>922.04</ele>
        <time>2025-09-20T09:57:40Z</time>
      </trkpt>
      <trkpt lat="44.24465" lon="2.97075">
        <ele>922.52</ele>
        <time>2025-09-20T09:58:01Z</time>
      </trkpt>
      <trkpt lat="44.24483" lon="2.97102">
        <ele>922.52</ele>
        <time>2025-09-20T09:58:18Z</time>
      </trkpt>
      <trkpt lat="44.24511" lon="2.97141">
        <ele>920.6</ele>
        <time>2025-09-20T09:58:46Z</time>
      </trkpt>
      <trkpt lat="44.24529" lon="2.97161">
        <ele>918.68</ele>
        <time>2025-09-20T09:59:03Z</time>
      </trkpt>
      <trkpt lat="44.2453" lon="2.97165">
        <ele>918.2</ele>
        <time>2025-09-20T09:59:06Z</time>
      </trkpt>
      <trkpt lat="44.2453" lon="2.97167">
        <ele>918.2</ele>
        <time>2025-09-20T09:59:07Z</time>
      </trkpt>
      <trkpt lat="44.2453" lon="2.97169">
        <ele>918.2</ele>
        <time>2025-09-20T09:59:08Z</time>
      </trkpt>
      <trkpt lat="44.2453" lon="2.97171">
        <ele>918.2</ele>
        <time>2025-09-20T09:59:09Z</time>
      </trkpt>
      <trkpt lat="44.24529" lon="2.97173">
        <ele>917.72</ele>
        <time>2025-09-20T09:59:10Z</time>
      </trkpt>
      <trkpt lat="44.24524" lon="2.972">
        <ele>916.75</ele>
        <time>2025-09-20T09:59:26Z</time>
      </trkpt>
      <trkpt lat="44.24519" lon="2.97218">
        <ele>915.79</ele>
        <time>2025-09-20T09:59:36Z</time>
      </trkpt>
      <trkpt lat="44.24518" lon="2.97219">
        <ele>916.27</ele>
        <time>2025-09-20T09:59:37Z</time>
      </trkpt>
      <trkpt lat="44.24518" lon="2.97222">
        <ele>916.27</ele>
        <time>2025-09-20T09:59:39Z</time>
      </trkpt>
      <trkpt lat="44.24518" lon="2.97223">
        <ele>916.27</ele>
        <time>2025-09-20T09:59:40Z</time>
      </trkpt>
      <trkpt lat="44.24517" lon="2.97225">
        <ele>916.27</ele>
        <time>2025-09-20T09:59:41Z</time>
      </trkpt>
      <trkpt lat="44.24517" lon="2.97226">
        <ele>916.27</ele>
        <time>2025-09-20T09:59:42Z</time>
      </trkpt>
      <trkpt lat="44.24516" lon="2.97227">
        <ele>916.27</ele>
        <time>2025-09-20T09:59:43Z</time>
      </trkpt>
      <trkpt lat="44.24509" lon="2.97248">
        <ele>916.27</ele>
        <time>2025-09-20T09:59:56Z</time>
      </trkpt>
      <trkpt lat="44.24501" lon="2.97272">
        <ele>916.27</ele>
        <time>2025-09-20T10:00:11Z</time>
      </trkpt>
      <trkpt lat="44.24492" lon="2.97303">
        <ele>915.31</ele>
        <time>2025-09-20T10:00:30Z</time>
      </trkpt>
      <trkpt lat="44.24484" lon="2.97331">
        <ele>916.27</ele>
        <time>2025-09-20T10:00:46Z</time>
      </trkpt>
      <trkpt lat="44.24475" lon="2.97363">
        <ele>916.75</ele>
        <time>2025-09-20T10:01:04Z</time>
      </trkpt>
      <trkpt lat="44.24476" lon="2.97371">
        <ele>916.75</ele>
        <time>2025-09-20T10:01:09Z</time>
      </trkpt>
      <trkpt lat="44.24478" lon="2.97372">
        <ele>917.24</ele>
        <time>2025-09-20T10:01:11Z</time>
      </trkpt>
      <trkpt lat="44.24479" lon="2.97373">
        <ele>917.24</ele>
        <time>2025-09-20T10:01:12Z</time>
      </trkpt>
      <trkpt lat="44.2448" lon="2.97373">
        <ele>917.24</ele>
        <time>2025-09-20T10:01:13Z</time>
      </trkpt>
      <trkpt lat="44.24481" lon="2.97374">
        <ele>917.24</ele>
        <time>2025-09-20T10:01:14Z</time>
      </trkpt>
      <trkpt lat="44.24482" lon="2.97374">
        <ele>917.24</ele>
        <time>2025-09-20T10:01:15Z</time>
      </trkpt>
      <trkpt lat="44.24484" lon="2.97374">
        <ele>917.24</ele>
        <time>2025-09-20T10:01:16Z</time>
      </trkpt>
      <trkpt lat="44.24505" lon="2.97379">
        <ele>916.75</ele>
        <time>2025-09-20T10:01:34Z</time>
      </trkpt>
      <trkpt lat="44.24524" lon="2.97389">
        <ele>914.83</ele>
        <time>2025-09-20T10:01:52Z</time>
      </trkpt>
      <trkpt lat="44.24534" lon="2.9742">
        <ele>911.47</ele>
        <time>2025-09-20T10:02:10Z</time>
      </trkpt>
      <trkpt lat="44.24536" lon="2.97429">
        <ele>910.51</ele>
        <time>2025-09-20T10:02:16Z</time>
      </trkpt>
      <trkpt lat="44.24536" lon="2.97431">
        <ele>910.51</ele>
        <time>2025-09-20T10:02:17Z</time>
      </trkpt>
      <trkpt lat="44.24536" lon="2.97432">
        <ele>910.51</ele>
        <time>2025-09-20T10:02:18Z</time>
      </trkpt>
      <trkpt lat="44.24537" lon="2.97434">
        <ele>910.03</ele>
        <time>2025-09-20T10:02:19Z</time>
      </trkpt>
      <trkpt lat="44.24537" lon="2.97436">
        <ele>910.03</ele>
        <time>2025-09-20T10:02:20Z</time>
      </trkpt>
      <trkpt lat="44.24538" lon="2.97437">
        <ele>910.03</ele>
        <time>2025-09-20T10:02:21Z</time>
      </trkpt>
      <trkpt lat="44.24541" lon="2.9747">
        <ele>906.66</ele>
        <time>2025-09-20T10:02:38Z</time>
      </trkpt>
      <trkpt lat="44.24546" lon="2.97501">
        <ele>903.3</ele>
        <time>2025-09-20T10:02:55Z</time>
      </trkpt>
      <trkpt lat="44.24556" lon="2.97532">
        <ele>899.93</ele>
        <time>2025-09-20T10:03:14Z</time>
      </trkpt>
      <trkpt lat="44.24561" lon="2.97541">
        <ele>898.49</ele>
        <time>2025-09-20T10:03:21Z</time>
      </trkpt>
      <trkpt lat="44.24575" lon="2.97563">
        <ele>895.61</ele>
        <time>2025-09-20T10:03:37Z</time>
      </trkpt>
      <trkpt lat="44.24575" lon="2.97564">
        <ele>895.61</ele>
        <time>2025-09-20T10:03:38Z</time>
      </trkpt>
      <trkpt lat="44.24576" lon="2.97566">
        <ele>895.61</ele>
        <time>2025-09-20T10:03:39Z</time>
      </trkpt>
      <trkpt lat="44.24577" lon="2.97567">
        <ele>895.12</ele>
        <time>2025-09-20T10:03:40Z</time>
      </trkpt>
      <trkpt lat="44.24578" lon="2.97569">
        <ele>895.12</ele>
        <time>2025-09-20T10:03:41Z</time>
      </trkpt>
      <trkpt lat="44.2458" lon="2.97569">
        <ele>895.12</ele>
        <time>2025-09-20T10:03:42Z</time>
      </trkpt>
      <trkpt lat="44.24581" lon="2.9757">
        <ele>895.12</ele>
        <time>2025-09-20T10:03:43Z</time>
      </trkpt>
      <trkpt lat="44.24582" lon="2.9757">
        <ele>895.12</ele>
        <time>2025-09-20T10:03:44Z</time>
      </trkpt>
      <trkpt lat="44.24583" lon="2.9757">
        <ele>895.12</ele>
        <time>2025-09-20T10:03:45Z</time>
      </trkpt>
      <trkpt lat="44.24585" lon="2.97571">
        <ele>895.12</ele>
        <time>2025-09-20T10:03:46Z</time>
      </trkpt>
      <trkpt lat="44.24586" lon="2.97571">
        <ele>895.12</ele>
        <time>2025-09-20T10:03:47Z</time>
      </trkpt>
      <trkpt lat="44.24588" lon="2.97572">
        <ele>895.12</ele>
        <time>2025-09-20T10:03:48Z</time>
      </trkpt>
      <trkpt lat="44.24606" lon="2.97576">
        <ele>894.16</ele>
        <time>2025-09-20T10:04:02Z</time>
      </trkpt>
      <trkpt lat="44.24625" lon="2.97592">
        <ele>894.64</ele>
        <time>2025-09-20T10:04:17Z</time>
      </trkpt>
      <trkpt lat="44.24644" lon="2.97611">
        <ele>894.16</ele>
        <time>2025-09-20T10:04:34Z</time>
      </trkpt>
      <trkpt lat="44.24665" lon="2.97623">
        <ele>893.68</ele>
        <time>2025-09-20T10:04:50Z</time>
      </trkpt>
      <trkpt lat="44.24688" lon="2.97631">
        <ele>893.2</ele>
        <time>2025-09-20T10:05:08Z</time>
      </trkpt>
      <trkpt lat="44.2469" lon="2.97631">
        <ele>893.2</ele>
        <time>2025-09-20T10:05:10Z</time>
      </trkpt>
      <trkpt lat="44.24691" lon="2.9763">
        <ele>893.2</ele>
        <time>2025-09-20T10:05:11Z</time>
      </trkpt>
      <trkpt lat="44.24709" lon="2.97621">
        <ele>891.28</ele>
        <time>2025-09-20T10:05:26Z</time>
      </trkpt>
      <trkpt lat="44.24725" lon="2.97605">
        <ele>889.84</ele>
        <time>2025-09-20T10:05:41Z</time>
      </trkpt>
      <trkpt lat="44.24741" lon="2.97592">
        <ele>888.4</ele>
        <time>2025-09-20T10:05:56Z</time>
      </trkpt>
      <trkpt lat="44.24755" lon="2.97579">
        <ele>883.11</ele>
        <time>2025-09-20T10:06:11Z</time>
      </trkpt>
      <trkpt lat="44.2476" lon="2.97573">
        <ele>881.19</ele>
        <time>2025-09-20T10:06:16Z</time>
      </trkpt>
      <trkpt lat="44.24765" lon="2.97564">
        <ele>879.26</ele>
        <time>2025-09-20T10:06:23Z</time>
      </trkpt>
      <trkpt lat="44.24772" lon="2.97532">
        <ele>881.19</ele>
        <time>2025-09-20T10:06:37Z</time>
      </trkpt>
      <trkpt lat="44.24776" lon="2.97515">
        <ele>881.19</ele>
        <time>2025-09-20T10:06:46Z</time>
      </trkpt>
      <trkpt lat="44.2478" lon="2.97509">
        <ele>879.26</ele>
        <time>2025-09-20T10:06:57Z</time>
      </trkpt>
      <trkpt lat="44.24785" lon="2.97508">
        <ele>880.22</ele>
        <time>2025-09-20T10:07:14Z</time>
      </trkpt>
      <trkpt lat="44.24786" lon="2.97505">
        <ele>880.22</ele>
        <time>2025-09-20T10:07:37Z</time>
      </trkpt>
      <trkpt lat="44.24784" lon="2.97505">
        <ele>881.19</ele>
        <time>2025-09-20T10:07:55Z</time>
      </trkpt>
      <trkpt lat="44.24782" lon="2.97502">
        <ele>885.03</ele>
        <time>2025-09-20T10:08:21Z</time>
      </trkpt>
      <trkpt lat="44.24786" lon="2.97501">
        <ele>883.11</ele>
        <time>2025-09-20T10:08:41Z</time>
      </trkpt>
      <trkpt lat="44.24787" lon="2.975">
        <ele>884.07</ele>
        <time>2025-09-20T10:08:57Z</time>
      </trkpt>
      <trkpt lat="44.2479" lon="2.97498">
        <ele>883.11</ele>
        <time>2025-09-20T10:09:16Z</time>
      </trkpt>
      <trkpt lat="44.2479" lon="2.97498">
        <ele>882.63</ele>
        <time>2025-09-20T10:09:36Z</time>
      </trkpt>
      <trkpt lat="44.24793" lon="2.97498">
        <ele>882.63</ele>
        <time>2025-09-20T10:09:50Z</time>
      </trkpt>
      <trkpt lat="44.24795" lon="2.97498">
        <ele>881.67</ele>
        <time>2025-09-20T10:10:06Z</time>
      </trkpt>
      <trkpt lat="44.24795" lon="2.97502">
        <ele>883.59</ele>
        <time>2025-09-20T10:10:23Z</time>
      </trkpt>
      <trkpt lat="44.248" lon="2.97502">
        <ele>884.07</ele>
        <time>2025-09-20T10:10:50Z</time>
      </trkpt>
      <trkpt lat="44.24799" lon="2.97499">
        <ele>884.55</ele>
        <time>2025-09-20T10:11:10Z</time>
      </trkpt>
      <trkpt lat="44.24805" lon="2.97494">
        <ele>884.07</ele>
        <time>2025-09-20T10:11:23Z</time>
      </trkpt>
      <trkpt lat="44.24817" lon="2.97498">
        <ele>880.71</ele>
        <time>2025-09-20T10:11:35Z</time>
      </trkpt>
      <trkpt lat="44.24819" lon="2.97502">
        <ele>879.74</ele>
        <time>2025-09-20T10:11:37Z</time>
      </trkpt>
      <trkpt lat="44.2482" lon="2.97512">
        <ele>877.34</ele>
        <time>2025-09-20T10:11:42Z</time>
      </trkpt>
      <trkpt lat="44.24819" lon="2.97539">
        <ele>870.61</ele>
        <time>2025-09-20T10:11:56Z</time>
      </trkpt>
      <trkpt lat="44.24832" lon="2.9756">
        <ele>870.61</ele>
        <time>2025-09-20T10:12:11Z</time>
      </trkpt>
      <trkpt lat="44.24834" lon="2.97562">
        <ele>871.09</ele>
        <time>2025-09-20T10:12:12Z</time>
      </trkpt>
      <trkpt lat="44.24835" lon="2.97563">
        <ele>871.09</ele>
        <time>2025-09-20T10:12:13Z</time>
      </trkpt>
      <trkpt lat="44.24836" lon="2.97565">
        <ele>871.09</ele>
        <time>2025-09-20T10:12:14Z</time>
      </trkpt>
      <trkpt lat="44.24843" lon="2.97585">
        <ele>872.05</ele>
        <time>2025-09-20T10:12:25Z</time>
      </trkpt>
      <trkpt lat="44.24844" lon="2.97586">
        <ele>872.53</ele>
        <time>2025-09-20T10:12:26Z</time>
      </trkpt>
      <trkpt lat="44.24845" lon="2.97588">
        <ele>872.53</ele>
        <time>2025-09-20T10:12:27Z</time>
      </trkpt>
      <trkpt lat="44.24846" lon="2.9759">
        <ele>872.53</ele>
        <time>2025-09-20T10:12:28Z</time>
      </trkpt>
      <trkpt lat="44.24846" lon="2.97592">
        <ele>872.53</ele>
        <time>2025-09-20T10:12:29Z</time>
      </trkpt>
      <trkpt lat="44.24846" lon="2.97594">
        <ele>872.53</ele>
        <time>2025-09-20T10:12:30Z</time>
      </trkpt>
      <trkpt lat="44.24849" lon="2.97604">
        <ele>872.53</ele>
        <time>2025-09-20T10:12:35Z</time>
      </trkpt>
      <trkpt lat="44.24859" lon="2.9763">
        <ele>874.46</ele>
        <time>2025-09-20T10:12:50Z</time>
      </trkpt>
      <trkpt lat="44.24869" lon="2.97659">
        <ele>876.38</ele>
        <time>2025-09-20T10:13:03Z</time>
      </trkpt>
      <trkpt lat="44.24871" lon="2.97664">
        <ele>877.34</ele>
        <time>2025-09-20T10:13:05Z</time>
      </trkpt>
      <trkpt lat="44.24872" lon="2.97665">
        <ele>877.34</ele>
        <time>2025-09-20T10:13:06Z</time>
      </trkpt>
      <trkpt lat="44.24873" lon="2.97667">
        <ele>878.3</ele>
        <time>2025-09-20T10:13:07Z</time>
      </trkpt>
      <trkpt lat="44.24875" lon="2.97668">
        <ele>878.78</ele>
        <time>2025-09-20T10:13:08Z</time>
      </trkpt>
      <trkpt lat="44.24876" lon="2.9767">
        <ele>878.78</ele>
        <time>2025-09-20T10:13:09Z</time>
      </trkpt>
      <trkpt lat="44.24878" lon="2.97671">
        <ele>879.26</ele>
        <time>2025-09-20T10:13:10Z</time>
      </trkpt>
      <trkpt lat="44.2488" lon="2.97673">
        <ele>879.74</ele>
        <time>2025-09-20T10:13:11Z</time>
      </trkpt>
      <trkpt lat="44.24882" lon="2.97675">
        <ele>880.22</ele>
        <time>2025-09-20T10:13:12Z</time>
      </trkpt>
      <trkpt lat="44.24884" lon="2.97676">
        <ele>880.71</ele>
        <time>2025-09-20T10:13:13Z</time>
      </trkpt>
      <trkpt lat="44.24886" lon="2.97678">
        <ele>881.19</ele>
        <time>2025-09-20T10:13:14Z</time>
      </trkpt>
      <trkpt lat="44.24887" lon="2.9768">
        <ele>881.67</ele>
        <time>2025-09-20T10:13:15Z</time>
      </trkpt>
      <trkpt lat="44.24901" lon="2.97687">
        <ele>888.88</ele>
        <time>2025-09-20T10:13:28Z</time>
      </trkpt>
      <trkpt lat="44.24915" lon="2.97695">
        <ele>893.68</ele>
        <time>2025-09-20T10:13:38Z</time>
      </trkpt>
      <trkpt lat="44.24919" lon="2.97699">
        <ele>894.16</ele>
        <time>2025-09-20T10:13:41Z</time>
      </trkpt>
      <trkpt lat="44.24921" lon="2.977">
        <ele>894.16</ele>
        <time>2025-09-20T10:13:42Z</time>
      </trkpt>
      <trkpt lat="44.24922" lon="2.97701">
        <ele>894.16</ele>
        <time>2025-09-20T10:13:43Z</time>
      </trkpt>
      <trkpt lat="44.24936" lon="2.97718">
        <ele>896.09</ele>
        <time>2025-09-20T10:13:56Z</time>
      </trkpt>
      <trkpt lat="44.24945" lon="2.97739">
        <ele>898.01</ele>
        <time>2025-09-20T10:14:10Z</time>
      </trkpt>
      <trkpt lat="44.24946" lon="2.97741">
        <ele>898.49</ele>
        <time>2025-09-20T10:14:11Z</time>
      </trkpt>
      <trkpt lat="44.24946" lon="2.97744">
        <ele>898.49</ele>
        <time>2025-09-20T10:14:12Z</time>
      </trkpt>
      <trkpt lat="44.24947" lon="2.97746">
        <ele>898.97</ele>
        <time>2025-09-20T10:14:13Z</time>
      </trkpt>
      <trkpt lat="44.24947" lon="2.97748">
        <ele>898.97</ele>
        <time>2025-09-20T10:14:14Z</time>
      </trkpt>
      <trkpt lat="44.24948" lon="2.9775">
        <ele>899.45</ele>
        <time>2025-09-20T10:14:15Z</time>
      </trkpt>
      <trkpt lat="44.24962" lon="2.97774">
        <ele>901.37</ele>
        <time>2025-09-20T10:14:28Z</time>
      </trkpt>
      <trkpt lat="44.24977" lon="2.97801">
        <ele>901.85</ele>
        <time>2025-09-20T10:14:43Z</time>
      </trkpt>
      <trkpt lat="44.24985" lon="2.9783">
        <ele>900.89</ele>
        <time>2025-09-20T10:14:59Z</time>
      </trkpt>
      <trkpt lat="44.24985" lon="2.97832">
        <ele>900.41</ele>
        <time>2025-09-20T10:15:00Z</time>
      </trkpt>
      <trkpt lat="44.24985" lon="2.97834">
        <ele>900.41</ele>
        <time>2025-09-20T10:15:01Z</time>
      </trkpt>
      <trkpt lat="44.24997" lon="2.9785">
        <ele>897.53</ele>
        <time>2025-09-20T10:15:16Z</time>
      </trkpt>
      <trkpt lat="44.25022" lon="2.97849">
        <ele>896.57</ele>
        <time>2025-09-20T10:15:33Z</time>
      </trkpt>
      <trkpt lat="44.25026" lon="2.97845">
        <ele>896.09</ele>
        <time>2025-09-20T10:15:48Z</time>
      </trkpt>
      <trkpt lat="44.25027" lon="2.97841">
        <ele>897.53</ele>
        <time>2025-09-20T10:16:07Z</time>
      </trkpt>
      <trkpt lat="44.25013" lon="2.97848">
        <ele>896.09</ele>
        <time>2025-09-20T10:16:25Z</time>
      </trkpt>
      <trkpt lat="44.24983" lon="2.97852">
        <ele>896.57</ele>
        <time>2025-09-20T10:16:46Z</time>
      </trkpt>
      <trkpt lat="44.24973" lon="2.97852">
        <ele>895.61</ele>
        <time>2025-09-20T10:16:53Z</time>
      </trkpt>
      <trkpt lat="44.2497" lon="2.97861">
        <ele>893.2</ele>
        <time>2025-09-20T10:16:58Z</time>
      </trkpt>
      <trkpt lat="44.24964" lon="2.97868">
        <ele>888.88</ele>
        <time>2025-09-20T10:17:08Z</time>
      </trkpt>
      <trkpt lat="44.24959" lon="2.97881">
        <ele>884.55</ele>
        <time>2025-09-20T10:17:21Z</time>
      </trkpt>
      <trkpt lat="44.24954" lon="2.97883">
        <ele>877.82</ele>
        <time>2025-09-20T10:17:39Z</time>
      </trkpt>
      <trkpt lat="44.24954" lon="2.97875">
        <ele>880.22</ele>
        <time>2025-09-20T10:18:08Z</time>
      </trkpt>
      <trkpt lat="44.24953" lon="2.97871">
        <ele>883.59</ele>
        <time>2025-09-20T10:18:23Z</time>
      </trkpt>
      <trkpt lat="44.24962" lon="2.97858">
        <ele>890.8</ele>
        <time>2025-09-20T10:18:41Z</time>
      </trkpt>
      <trkpt lat="44.24971" lon="2.97853">
        <ele>894.64</ele>
        <time>2025-09-20T10:19:02Z</time>
      </trkpt>
      <trkpt lat="44.24962" lon="2.97865">
        <ele>893.2</ele>
        <time>2025-09-20T10:19:20Z</time>
      </trkpt>
      <trkpt lat="44.2496" lon="2.97874">
        <ele>892.24</ele>
        <time>2025-09-20T10:19:37Z</time>
      </trkpt>
      <trkpt lat="44.24964" lon="2.97873">
        <ele>891.76</ele>
        <time>2025-09-20T10:19:43Z</time>
      </trkpt>
      <trkpt lat="44.24975" lon="2.97859">
        <ele>892.24</ele>
        <time>2025-09-20T10:19:56Z</time>
      </trkpt>
      <trkpt lat="44.24991" lon="2.97848">
        <ele>893.68</ele>
        <time>2025-09-20T10:20:12Z</time>
      </trkpt>
      <trkpt lat="44.25004" lon="2.97842">
        <ele>895.12</ele>
        <time>2025-09-20T10:20:27Z</time>
      </trkpt>
      <trkpt lat="44.25017" lon="2.97839">
        <ele>894.16</ele>
        <time>2025-09-20T10:20:38Z</time>
      </trkpt>
      <trkpt lat="44.25037" lon="2.97845">
        <ele>894.16</ele>
        <time>2025-09-20T10:20:53Z</time>
      </trkpt>
      <trkpt lat="44.25049" lon="2.97855">
        <ele>894.64</ele>
        <time>2025-09-20T10:21:04Z</time>
      </trkpt>
      <trkpt lat="44.2505" lon="2.97858">
        <ele>894.64</ele>
        <time>2025-09-20T10:21:06Z</time>
      </trkpt>
      <trkpt lat="44.25065" lon="2.97883">
        <ele>894.16</ele>
        <time>2025-09-20T10:21:23Z</time>
      </trkpt>
      <trkpt lat="44.25066" lon="2.97886">
        <ele>895.61</ele>
        <time>2025-09-20T10:21:25Z</time>
      </trkpt>
      <trkpt lat="44.25082" lon="2.979">
        <ele>898.01</ele>
        <time>2025-09-20T10:21:41Z</time>
      </trkpt>
      <trkpt lat="44.25091" lon="2.97901">
        <ele>898.49</ele>
        <time>2025-09-20T10:21:49Z</time>
      </trkpt>
      <trkpt lat="44.25103" lon="2.97903">
        <ele>900.41</ele>
        <time>2025-09-20T10:21:58Z</time>
      </trkpt>
      <trkpt lat="44.25117" lon="2.97907">
        <ele>901.37</ele>
        <time>2025-09-20T10:22:12Z</time>
      </trkpt>
      <trkpt lat="44.25137" lon="2.9792">
        <ele>902.82</ele>
        <time>2025-09-20T10:22:30Z</time>
      </trkpt>
      <trkpt lat="44.25149" lon="2.97941">
        <ele>901.85</ele>
        <time>2025-09-20T10:22:47Z</time>
      </trkpt>
      <trkpt lat="44.25167" lon="2.97962">
        <ele>902.82</ele>
        <time>2025-09-20T10:23:06Z</time>
      </trkpt>
      <trkpt lat="44.25183" lon="2.97983">
        <ele>904.74</ele>
        <time>2025-09-20T10:23:22Z</time>
      </trkpt>
      <trkpt lat="44.25193" lon="2.98006">
        <ele>906.18</ele>
        <time>2025-09-20T10:23:38Z</time>
      </trkpt>
      <trkpt lat="44.25202" lon="2.98025">
        <ele>904.74</ele>
        <time>2025-09-20T10:23:53Z</time>
      </trkpt>
      <trkpt lat="44.2522" lon="2.98033">
        <ele>903.78</ele>
        <time>2025-09-20T10:24:09Z</time>
      </trkpt>
      <trkpt lat="44.25229" lon="2.98036">
        <ele>905.7</ele>
        <time>2025-09-20T10:24:15Z</time>
      </trkpt>
      <trkpt lat="44.2525" lon="2.98041">
        <ele>909.06</ele>
        <time>2025-09-20T10:24:31Z</time>
      </trkpt>
      <trkpt lat="44.2527" lon="2.98043">
        <ele>910.51</ele>
        <time>2025-09-20T10:24:46Z</time>
      </trkpt>
      <trkpt lat="44.25294" lon="2.98047">
        <ele>910.51</ele>
        <time>2025-09-20T10:25:03Z</time>
      </trkpt>
      <trkpt lat="44.25311" lon="2.98052">
        <ele>909.54</ele>
        <time>2025-09-20T10:25:17Z</time>
      </trkpt>
      <trkpt lat="44.25335" lon="2.98056">
        <ele>914.35</ele>
        <time>2025-09-20T10:25:35Z</time>
      </trkpt>
      <trkpt lat="44.25356" lon="2.98056">
        <ele>917.24</ele>
        <time>2025-09-20T10:25:52Z</time>
      </trkpt>
      <trkpt lat="44.25379" lon="2.98053">
        <ele>919.16</ele>
        <time>2025-09-20T10:26:09Z</time>
      </trkpt>
      <trkpt lat="44.25393" lon="2.98054">
        <ele>919.64</ele>
        <time>2025-09-20T10:26:23Z</time>
      </trkpt>
      <trkpt lat="44.25409" lon="2.98076">
        <ele>918.2</ele>
        <time>2025-09-20T10:26:38Z</time>
      </trkpt>
      <trkpt lat="44.2542" lon="2.98107">
        <ele>916.75</ele>
        <time>2025-09-20T10:26:54Z</time>
      </trkpt>
      <trkpt lat="44.25428" lon="2.98137">
        <ele>916.75</ele>
        <time>2025-09-20T10:27:11Z</time>
      </trkpt>
      <trkpt lat="44.2544" lon="2.98166">
        <ele>917.24</ele>
        <time>2025-09-20T10:27:27Z</time>
      </trkpt>
      <trkpt lat="44.25448" lon="2.98199">
        <ele>917.72</ele>
        <time>2025-09-20T10:27:44Z</time>
      </trkpt>
      <trkpt lat="44.2546" lon="2.98232">
        <ele>916.75</ele>
        <time>2025-09-20T10:28:01Z</time>
      </trkpt>
      <trkpt lat="44.25464" lon="2.98243">
        <ele>917.72</ele>
        <time>2025-09-20T10:28:07Z</time>
      </trkpt>
      <trkpt lat="44.25472" lon="2.98271">
        <ele>917.72</ele>
        <time>2025-09-20T10:28:22Z</time>
      </trkpt>
      <trkpt lat="44.25474" lon="2.98282">
        <ele>917.24</ele>
        <time>2025-09-20T10:28:29Z</time>
      </trkpt>
      <trkpt lat="44.25479" lon="2.98299">
        <ele>917.24</ele>
        <time>2025-09-20T10:28:37Z</time>
      </trkpt>
      <trkpt lat="44.25481" lon="2.98308">
        <ele>918.2</ele>
        <time>2025-09-20T10:28:41Z</time>
      </trkpt>
      <trkpt lat="44.2548" lon="2.98339">
        <ele>920.6</ele>
        <time>2025-09-20T10:28:57Z</time>
      </trkpt>
      <trkpt lat="44.25476" lon="2.98375">
        <ele>923</ele>
        <time>2025-09-20T10:29:16Z</time>
      </trkpt>
      <trkpt lat="44.25472" lon="2.9841">
        <ele>925.41</ele>
        <time>2025-09-20T10:29:33Z</time>
      </trkpt>
      <trkpt lat="44.25469" lon="2.98443">
        <ele>928.29</ele>
        <time>2025-09-20T10:29:50Z</time>
      </trkpt>
      <trkpt lat="44.25469" lon="2.98484">
        <ele>931.65</ele>
        <time>2025-09-20T10:30:10Z</time>
      </trkpt>
      <trkpt lat="44.25477" lon="2.98516">
        <ele>932.14</ele>
        <time>2025-09-20T10:30:27Z</time>
      </trkpt>
      <trkpt lat="44.25479" lon="2.98534">
        <ele>932.14</ele>
        <time>2025-09-20T10:30:36Z</time>
      </trkpt>
      <trkpt lat="44.2547" lon="2.98562">
        <ele>931.65</ele>
        <time>2025-09-20T10:30:52Z</time>
      </trkpt>
      <trkpt lat="44.25448" lon="2.98579">
        <ele>932.62</ele>
        <time>2025-09-20T10:31:07Z</time>
      </trkpt>
      <trkpt lat="44.25428" lon="2.9859">
        <ele>934.06</ele>
        <time>2025-09-20T10:31:22Z</time>
      </trkpt>
      <trkpt lat="44.25408" lon="2.98607">
        <ele>936.94</ele>
        <time>2025-09-20T10:31:40Z</time>
      </trkpt>
      <trkpt lat="44.25391" lon="2.98629">
        <ele>940.79</ele>
        <time>2025-09-20T10:31:58Z</time>
      </trkpt>
      <trkpt lat="44.25382" lon="2.98654">
        <ele>944.63</ele>
        <time>2025-09-20T10:32:12Z</time>
      </trkpt>
      <trkpt lat="44.25371" lon="2.98685">
        <ele>948.96</ele>
        <time>2025-09-20T10:32:29Z</time>
      </trkpt>
      <trkpt lat="44.25361" lon="2.98715">
        <ele>951.36</ele>
        <time>2025-09-20T10:32:45Z</time>
      </trkpt>
      <trkpt lat="44.25359" lon="2.98746">
        <ele>951.36</ele>
        <time>2025-09-20T10:33:01Z</time>
      </trkpt>
      <trkpt lat="44.25361" lon="2.98755">
        <ele>950.88</ele>
        <time>2025-09-20T10:33:06Z</time>
      </trkpt>
      <trkpt lat="44.25367" lon="2.98791">
        <ele>950.4</ele>
        <time>2025-09-20T10:33:24Z</time>
      </trkpt>
      <trkpt lat="44.25369" lon="2.98803">
        <ele>950.4</ele>
        <time>2025-09-20T10:33:29Z</time>
      </trkpt>
      <trkpt lat="44.25373" lon="2.98845">
        <ele>947.52</ele>
        <time>2025-09-20T10:33:50Z</time>
      </trkpt>
      <trkpt lat="44.25375" lon="2.98862">
        <ele>946.07</ele>
        <time>2025-09-20T10:33:59Z</time>
      </trkpt>
      <trkpt lat="44.25375" lon="2.9887">
        <ele>946.07</ele>
        <time>2025-09-20T10:34:03Z</time>
      </trkpt>
      <trkpt lat="44.25379" lon="2.98902">
        <ele>946.07</ele>
        <time>2025-09-20T10:34:19Z</time>
      </trkpt>
      <trkpt lat="44.25384" lon="2.98935">
        <ele>944.63</ele>
        <time>2025-09-20T10:34:35Z</time>
      </trkpt>
      <trkpt lat="44.25384" lon="2.98941">
        <ele>944.63</ele>
        <time>2025-09-20T10:34:38Z</time>
      </trkpt>
      <trkpt lat="44.25387" lon="2.98949">
        <ele>944.15</ele>
        <time>2025-09-20T10:34:42Z</time>
      </trkpt>
      <trkpt lat="44.25389" lon="2.98953">
        <ele>944.63</ele>
        <time>2025-09-20T10:34:44Z</time>
      </trkpt>
      <trkpt lat="44.25391" lon="2.98963">
        <ele>944.63</ele>
        <time>2025-09-20T10:34:49Z</time>
      </trkpt>
      <trkpt lat="44.254" lon="2.98984">
        <ele>944.63</ele>
        <time>2025-09-20T10:35:01Z</time>
      </trkpt>
      <trkpt lat="44.25407" lon="2.98999">
        <ele>944.63</ele>
        <time>2025-09-20T10:35:08Z</time>
      </trkpt>
      <trkpt lat="44.2541" lon="2.99009">
        <ele>944.63</ele>
        <time>2025-09-20T10:35:13Z</time>
      </trkpt>
      <trkpt lat="44.25412" lon="2.99017">
        <ele>944.15</ele>
        <time>2025-09-20T10:35:17Z</time>
      </trkpt>
      <trkpt lat="44.25416" lon="2.99032">
        <ele>944.15</ele>
        <time>2025-09-20T10:35:24Z</time>
      </trkpt>
      <trkpt lat="44.25417" lon="2.99034">
        <ele>944.15</ele>
        <time>2025-09-20T10:35:25Z</time>
      </trkpt>
      <trkpt lat="44.25418" lon="2.99036">
        <ele>944.15</ele>
        <time>2025-09-20T10:35:26Z</time>
      </trkpt>
      <trkpt lat="44.25418" lon="2.99038">
        <ele>944.15</ele>
        <time>2025-09-20T10:35:27Z</time>
      </trkpt>
      <trkpt lat="44.25419" lon="2.9904">
        <ele>944.63</ele>
        <time>2025-09-20T10:35:28Z</time>
      </trkpt>
      <trkpt lat="44.2542" lon="2.99041">
        <ele>944.63</ele>
        <time>2025-09-20T10:35:29Z</time>
      </trkpt>
      <trkpt lat="44.2542" lon="2.99043">
        <ele>944.15</ele>
        <time>2025-09-20T10:35:30Z</time>
      </trkpt>
      <trkpt lat="44.25421" lon="2.99045">
        <ele>944.15</ele>
        <time>2025-09-20T10:35:31Z</time>
      </trkpt>
      <trkpt lat="44.25421" lon="2.99046">
        <ele>944.15</ele>
        <time>2025-09-20T10:35:32Z</time>
      </trkpt>
      <trkpt lat="44.25422" lon="2.99048">
        <ele>944.15</ele>
        <time>2025-09-20T10:35:33Z</time>
      </trkpt>
      <trkpt lat="44.25422" lon="2.99049">
        <ele>943.67</ele>
        <time>2025-09-20T10:35:34Z</time>
      </trkpt>
      <trkpt lat="44.25423" lon="2.99051">
        <ele>943.67</ele>
        <time>2025-09-20T10:35:35Z</time>
      </trkpt>
      <trkpt lat="44.25423" lon="2.99053">
        <ele>943.19</ele>
        <time>2025-09-20T10:35:36Z</time>
      </trkpt>
      <trkpt lat="44.25424" lon="2.99055">
        <ele>943.19</ele>
        <time>2025-09-20T10:35:37Z</time>
      </trkpt>
      <trkpt lat="44.25424" lon="2.99057">
        <ele>943.19</ele>
        <time>2025-09-20T10:35:38Z</time>
      </trkpt>
      <trkpt lat="44.25425" lon="2.99059">
        <ele>943.19</ele>
        <time>2025-09-20T10:35:39Z</time>
      </trkpt>
      <trkpt lat="44.25426" lon="2.99061">
        <ele>943.19</ele>
        <time>2025-09-20T10:35:40Z</time>
      </trkpt>
      <trkpt lat="44.25436" lon="2.99091">
        <ele>942.23</ele>
        <time>2025-09-20T10:35:57Z</time>
      </trkpt>
      <trkpt lat="44.25447" lon="2.99114">
        <ele>941.75</ele>
        <time>2025-09-20T10:36:11Z</time>
      </trkpt>
      <trkpt lat="44.25461" lon="2.99139">
        <ele>942.23</ele>
        <time>2025-09-20T10:36:27Z</time>
      </trkpt>
      <trkpt lat="44.25462" lon="2.99141">
        <ele>942.23</ele>
        <time>2025-09-20T10:36:28Z</time>
      </trkpt>
      <trkpt lat="44.25463" lon="2.99142">
        <ele>942.23</ele>
        <time>2025-09-20T10:36:29Z</time>
      </trkpt>
      <trkpt lat="44.25464" lon="2.99143">
        <ele>942.23</ele>
        <time>2025-09-20T10:36:30Z</time>
      </trkpt>
      <trkpt lat="44.25464" lon="2.99145">
        <ele>942.23</ele>
        <time>2025-09-20T10:36:31Z</time>
      </trkpt>
      <trkpt lat="44.25465" lon="2.99146">
        <ele>942.71</ele>
        <time>2025-09-20T10:36:32Z</time>
      </trkpt>
      <trkpt lat="44.25466" lon="2.99148">
        <ele>942.71</ele>
        <time>2025-09-20T10:36:33Z</time>
      </trkpt>
      <trkpt lat="44.25479" lon="2.99167">
        <ele>943.19</ele>
        <time>2025-09-20T10:36:46Z</time>
      </trkpt>
      <trkpt lat="44.25485" lon="2.99179">
        <ele>942.23</ele>
        <time>2025-09-20T10:36:54Z</time>
      </trkpt>
      <trkpt lat="44.25486" lon="2.9918">
        <ele>941.75</ele>
        <time>2025-09-20T10:36:55Z</time>
      </trkpt>
      <trkpt lat="44.25487" lon="2.99182">
        <ele>941.75</ele>
        <time>2025-09-20T10:36:56Z</time>
      </trkpt>
      <trkpt lat="44.25487" lon="2.99184">
        <ele>941.75</ele>
        <time>2025-09-20T10:36:57Z</time>
      </trkpt>
      <trkpt lat="44.25488" lon="2.99186">
        <ele>941.75</ele>
        <time>2025-09-20T10:36:58Z</time>
      </trkpt>
      <trkpt lat="44.25494" lon="2.99207">
        <ele>940.31</ele>
        <time>2025-09-20T10:37:11Z</time>
      </trkpt>
      <trkpt lat="44.25495" lon="2.99237">
        <ele>937.42</ele>
        <time>2025-09-20T10:37:28Z</time>
      </trkpt>
      <trkpt lat="44.25494" lon="2.99238">
        <ele>937.42</ele>
        <time>2025-09-20T10:37:29Z</time>
      </trkpt>
      <trkpt lat="44.25494" lon="2.99239">
        <ele>937.42</ele>
        <time>2025-09-20T10:37:30Z</time>
      </trkpt>
      <trkpt lat="44.25491" lon="2.99241">
        <ele>937.42</ele>
        <time>2025-09-20T10:37:34Z</time>
      </trkpt>
      <trkpt lat="44.25481" lon="2.99251">
        <ele>934.06</ele>
        <time>2025-09-20T10:37:46Z</time>
      </trkpt>
      <trkpt lat="44.25477" lon="2.99255">
        <ele>933.58</ele>
        <time>2025-09-20T10:37:50Z</time>
      </trkpt>
      <trkpt lat="44.25475" lon="2.99255">
        <ele>933.1</ele>
        <time>2025-09-20T10:37:51Z</time>
      </trkpt>
      <trkpt lat="44.25459" lon="2.99254">
        <ele>931.65</ele>
        <time>2025-09-20T10:38:05Z</time>
      </trkpt>
      <trkpt lat="44.25433" lon="2.99259">
        <ele>935.02</ele>
        <time>2025-09-20T10:38:24Z</time>
      </trkpt>
      <trkpt lat="44.25419" lon="2.9926">
        <ele>936.94</ele>
        <time>2025-09-20T10:38:39Z</time>
      </trkpt>
      <trkpt lat="44.254" lon="2.99263">
        <ele>936.46</ele>
        <time>2025-09-20T10:38:53Z</time>
      </trkpt>
      <trkpt lat="44.25384" lon="2.99272">
        <ele>934.06</ele>
        <time>2025-09-20T10:39:08Z</time>
      </trkpt>
      <trkpt lat="44.25368" lon="2.99285">
        <ele>933.58</ele>
        <time>2025-09-20T10:39:23Z</time>
      </trkpt>
      <trkpt lat="44.25367" lon="2.99286">
        <ele>933.58</ele>
        <time>2025-09-20T10:39:24Z</time>
      </trkpt>
      <trkpt lat="44.25353" lon="2.99302">
        <ele>933.58</ele>
        <time>2025-09-20T10:39:40Z</time>
      </trkpt>
      <trkpt lat="44.25344" lon="2.99313">
        <ele>931.65</ele>
        <time>2025-09-20T10:39:52Z</time>
      </trkpt>
      <trkpt lat="44.25329" lon="2.9933">
        <ele>931.65</ele>
        <time>2025-09-20T10:40:07Z</time>
      </trkpt>
      <trkpt lat="44.25311" lon="2.99355">
        <ele>935.02</ele>
        <time>2025-09-20T10:40:24Z</time>
      </trkpt>
      <trkpt lat="44.25293" lon="2.99375">
        <ele>936.46</ele>
        <time>2025-09-20T10:40:41Z</time>
      </trkpt>
      <trkpt lat="44.2527" lon="2.99388">
        <ele>938.86</ele>
        <time>2025-09-20T10:40:59Z</time>
      </trkpt>
      <trkpt lat="44.25247" lon="2.99402">
        <ele>938.86</ele>
        <time>2025-09-20T10:41:17Z</time>
      </trkpt>
      <trkpt lat="44.25246" lon="2.99403">
        <ele>938.86</ele>
        <time>2025-09-20T10:41:18Z</time>
      </trkpt>
      <trkpt lat="44.25244" lon="2.99404">
        <ele>938.38</ele>
        <time>2025-09-20T10:41:19Z</time>
      </trkpt>
      <trkpt lat="44.25243" lon="2.99405">
        <ele>938.38</ele>
        <time>2025-09-20T10:41:20Z</time>
      </trkpt>
      <trkpt lat="44.25241" lon="2.99405">
        <ele>938.38</ele>
        <time>2025-09-20T10:41:21Z</time>
      </trkpt>
      <trkpt lat="44.2524" lon="2.99406">
        <ele>938.38</ele>
        <time>2025-09-20T10:41:22Z</time>
      </trkpt>
      <trkpt lat="44.25223" lon="2.99412">
        <ele>937.42</ele>
        <time>2025-09-20T10:41:36Z</time>
      </trkpt>
      <trkpt lat="44.25204" lon="2.99428">
        <ele>935.98</ele>
        <time>2025-09-20T10:41:55Z</time>
      </trkpt>
      <trkpt lat="44.25185" lon="2.99428">
        <ele>935.5</ele>
        <time>2025-09-20T10:42:12Z</time>
      </trkpt>
      <trkpt lat="44.25167" lon="2.99423">
        <ele>933.58</ele>
        <time>2025-09-20T10:42:28Z</time>
      </trkpt>
      <trkpt lat="44.25145" lon="2.99433">
        <ele>933.1</ele>
        <time>2025-09-20T10:42:45Z</time>
      </trkpt>
      <trkpt lat="44.25135" lon="2.99435">
        <ele>932.14</ele>
        <time>2025-09-20T10:42:55Z</time>
      </trkpt>
      <trkpt lat="44.25133" lon="2.99436">
        <ele>932.14</ele>
        <time>2025-09-20T10:42:56Z</time>
      </trkpt>
      <trkpt lat="44.25116" lon="2.99445">
        <ele>930.21</ele>
        <time>2025-09-20T10:43:12Z</time>
      </trkpt>
      <trkpt lat="44.25096" lon="2.99451">
        <ele>930.21</ele>
        <time>2025-09-20T10:43:27Z</time>
      </trkpt>
      <trkpt lat="44.25086" lon="2.9945">
        <ele>930.69</ele>
        <time>2025-09-20T10:43:35Z</time>
      </trkpt>
      <trkpt lat="44.25085" lon="2.9945">
        <ele>930.69</ele>
        <time>2025-09-20T10:43:36Z</time>
      </trkpt>
      <trkpt lat="44.25062" lon="2.99437">
        <ele>932.14</ele>
        <time>2025-09-20T10:43:53Z</time>
      </trkpt>
      <trkpt lat="44.25042" lon="2.9942">
        <ele>933.1</ele>
        <time>2025-09-20T10:44:07Z</time>
      </trkpt>
      <trkpt lat="44.25024" lon="2.99404">
        <ele>934.06</ele>
        <time>2025-09-20T10:44:21Z</time>
      </trkpt>
      <trkpt lat="44.25006" lon="2.99388">
        <ele>936.94</ele>
        <time>2025-09-20T10:44:37Z</time>
      </trkpt>
      <trkpt lat="44.24985" lon="2.99379">
        <ele>936.46</ele>
        <time>2025-09-20T10:44:53Z</time>
      </trkpt>
      <trkpt lat="44.24965" lon="2.99372">
        <ele>935.98</ele>
        <time>2025-09-20T10:45:08Z</time>
      </trkpt>
      <trkpt lat="44.24941" lon="2.99359">
        <ele>934.54</ele>
        <time>2025-09-20T10:45:26Z</time>
      </trkpt>
      <trkpt lat="44.24921" lon="2.99349">
        <ele>934.54</ele>
        <time>2025-09-20T10:45:42Z</time>
      </trkpt>
      <trkpt lat="44.24903" lon="2.99335">
        <ele>936.94</ele>
        <time>2025-09-20T10:45:58Z</time>
      </trkpt>
      <trkpt lat="44.24884" lon="2.99329">
        <ele>939.83</ele>
        <time>2025-09-20T10:46:12Z</time>
      </trkpt>
      <trkpt lat="44.24859" lon="2.99319">
        <ele>941.27</ele>
        <time>2025-09-20T10:46:30Z</time>
      </trkpt>
      <trkpt lat="44.24836" lon="2.9931">
        <ele>940.79</ele>
        <time>2025-09-20T10:46:46Z</time>
      </trkpt>
      <trkpt lat="44.24812" lon="2.993">
        <ele>937.9</ele>
        <time>2025-09-20T10:47:04Z</time>
      </trkpt>
      <trkpt lat="44.24787" lon="2.99299">
        <ele>935.02</ele>
        <time>2025-09-20T10:47:21Z</time>
      </trkpt>
      <trkpt lat="44.24766" lon="2.99305">
        <ele>933.1</ele>
        <time>2025-09-20T10:47:37Z</time>
      </trkpt>
      <trkpt lat="44.24741" lon="2.9931">
        <ele>930.69</ele>
        <time>2025-09-20T10:47:56Z</time>
      </trkpt>
      <trkpt lat="44.2472" lon="2.99324">
        <ele>931.17</ele>
        <time>2025-09-20T10:48:12Z</time>
      </trkpt>
      <trkpt lat="44.24699" lon="2.9933">
        <ele>931.17</ele>
        <time>2025-09-20T10:48:28Z</time>
      </trkpt>
      <trkpt lat="44.24674" lon="2.99336">
        <ele>929.25</ele>
        <time>2025-09-20T10:48:49Z</time>
      </trkpt>
      <trkpt lat="44.24653" lon="2.99339">
        <ele>926.37</ele>
        <time>2025-09-20T10:49:06Z</time>
      </trkpt>
      <trkpt lat="44.24628" lon="2.99334">
        <ele>923</ele>
        <time>2025-09-20T10:49:24Z</time>
      </trkpt>
      <trkpt lat="44.24602" lon="2.99328">
        <ele>921.08</ele>
        <time>2025-09-20T10:49:43Z</time>
      </trkpt>
      <trkpt lat="44.24581" lon="2.99329">
        <ele>918.2</ele>
        <time>2025-09-20T10:49:59Z</time>
      </trkpt>
      <trkpt lat="44.24577" lon="2.99332">
        <ele>917.72</ele>
        <time>2025-09-20T10:50:02Z</time>
      </trkpt>
      <trkpt lat="44.24577" lon="2.99337">
        <ele>917.24</ele>
        <time>2025-09-20T10:50:05Z</time>
      </trkpt>
      <trkpt lat="44.24576" lon="2.99338">
        <ele>916.75</ele>
        <time>2025-09-20T10:50:06Z</time>
      </trkpt>
      <trkpt lat="44.24571" lon="2.99357">
        <ele>914.35</ele>
        <time>2025-09-20T10:50:19Z</time>
      </trkpt>
      <trkpt lat="44.24557" lon="2.99374">
        <ele>912.43</ele>
        <time>2025-09-20T10:50:34Z</time>
      </trkpt>
      <trkpt lat="44.24535" lon="2.99377">
        <ele>909.54</ele>
        <time>2025-09-20T10:50:49Z</time>
      </trkpt>
      <trkpt lat="44.24533" lon="2.99377">
        <ele>909.54</ele>
        <time>2025-09-20T10:50:50Z</time>
      </trkpt>
      <trkpt lat="44.24532" lon="2.99377">
        <ele>909.54</ele>
        <time>2025-09-20T10:50:51Z</time>
      </trkpt>
      <trkpt lat="44.2451" lon="2.99369">
        <ele>907.14</ele>
        <time>2025-09-20T10:51:09Z</time>
      </trkpt>
      <trkpt lat="44.2449" lon="2.99378">
        <ele>903.78</ele>
        <time>2025-09-20T10:51:25Z</time>
      </trkpt>
      <trkpt lat="44.24487" lon="2.99381">
        <ele>902.82</ele>
        <time>2025-09-20T10:51:28Z</time>
      </trkpt>
      <trkpt lat="44.24486" lon="2.99382">
        <ele>902.82</ele>
        <time>2025-09-20T10:51:29Z</time>
      </trkpt>
      <trkpt lat="44.24485" lon="2.99384">
        <ele>902.33</ele>
        <time>2025-09-20T10:51:30Z</time>
      </trkpt>
      <trkpt lat="44.24472" lon="2.99403">
        <ele>899.45</ele>
        <time>2025-09-20T10:51:45Z</time>
      </trkpt>
      <trkpt lat="44.24459" lon="2.99422">
        <ele>896.57</ele>
        <time>2025-09-20T10:51:59Z</time>
      </trkpt>
      <trkpt lat="44.24442" lon="2.99441">
        <ele>890.8</ele>
        <time>2025-09-20T10:52:16Z</time>
      </trkpt>
      <trkpt lat="44.24437" lon="2.99444">
        <ele>888.88</ele>
        <time>2025-09-20T10:52:20Z</time>
      </trkpt>
      <trkpt lat="44.24422" lon="2.99457">
        <ele>886.95</ele>
        <time>2025-09-20T10:52:34Z</time>
      </trkpt>
      <trkpt lat="44.24404" lon="2.99478">
        <ele>885.99</ele>
        <time>2025-09-20T10:52:50Z</time>
      </trkpt>
      <trkpt lat="44.24383" lon="2.99495">
        <ele>883.11</ele>
        <time>2025-09-20T10:53:08Z</time>
      </trkpt>
      <trkpt lat="44.24373" lon="2.99504">
        <ele>881.67</ele>
        <time>2025-09-20T10:53:16Z</time>
      </trkpt>
      <trkpt lat="44.24346" lon="2.99519">
        <ele>877.82</ele>
        <time>2025-09-20T10:53:36Z</time>
      </trkpt>
      <trkpt lat="44.24323" lon="2.99534">
        <ele>876.38</ele>
        <time>2025-09-20T10:53:53Z</time>
      </trkpt>
      <trkpt lat="44.24297" lon="2.9955">
        <ele>876.38</ele>
        <time>2025-09-20T10:54:11Z</time>
      </trkpt>
      <trkpt lat="44.24273" lon="2.99556">
        <ele>875.9</ele>
        <time>2025-09-20T10:54:28Z</time>
      </trkpt>
      <trkpt lat="44.24253" lon="2.99562">
        <ele>876.38</ele>
        <time>2025-09-20T10:54:43Z</time>
      </trkpt>
      <trkpt lat="44.24246" lon="2.99564">
        <ele>875.42</ele>
        <time>2025-09-20T10:54:48Z</time>
      </trkpt>
      <trkpt lat="44.24237" lon="2.99565">
        <ele>874.94</ele>
        <time>2025-09-20T10:54:55Z</time>
      </trkpt>
      <trkpt lat="44.24236" lon="2.99565">
        <ele>874.94</ele>
        <time>2025-09-20T10:54:56Z</time>
      </trkpt>
      <trkpt lat="44.24235" lon="2.99565">
        <ele>874.94</ele>
        <time>2025-09-20T10:54:57Z</time>
      </trkpt>
      <trkpt lat="44.24234" lon="2.99566">
        <ele>874.94</ele>
        <time>2025-09-20T10:54:58Z</time>
      </trkpt>
      <trkpt lat="44.24232" lon="2.99567">
        <ele>875.42</ele>
        <time>2025-09-20T10:54:59Z</time>
      </trkpt>
      <trkpt lat="44.24227" lon="2.99568">
        <ele>875.9</ele>
        <time>2025-09-20T10:55:03Z</time>
      </trkpt>
      <trkpt lat="44.24207" lon="2.99574">
        <ele>878.3</ele>
        <time>2025-09-20T10:55:19Z</time>
      </trkpt>
      <trkpt lat="44.24183" lon="2.99575">
        <ele>876.38</ele>
        <time>2025-09-20T10:55:36Z</time>
      </trkpt>
      <trkpt lat="44.24165" lon="2.99577">
        <ele>873.98</ele>
        <time>2025-09-20T10:55:50Z</time>
      </trkpt>
      <trkpt lat="44.24151" lon="2.99588">
        <ele>873.98</ele>
        <time>2025-09-20T10:56:03Z</time>
      </trkpt>
      <trkpt lat="44.24148" lon="2.99591">
        <ele>873.98</ele>
        <time>2025-09-20T10:56:06Z</time>
      </trkpt>
      <trkpt lat="44.24147" lon="2.99593">
        <ele>874.46</ele>
        <time>2025-09-20T10:56:07Z</time>
      </trkpt>
      <trkpt lat="44.24146" lon="2.99595">
        <ele>874.46</ele>
        <time>2025-09-20T10:56:08Z</time>
      </trkpt>
      <trkpt lat="44.24134" lon="2.99622">
        <ele>876.38</ele>
        <time>2025-09-20T10:56:24Z</time>
      </trkpt>
      <trkpt lat="44.24122" lon="2.99654">
        <ele>879.26</ele>
        <time>2025-09-20T10:56:41Z</time>
      </trkpt>
      <trkpt lat="44.24112" lon="2.99684">
        <ele>879.74</ele>
        <time>2025-09-20T10:56:59Z</time>
      </trkpt>
      <trkpt lat="44.24098" lon="2.99713">
        <ele>878.3</ele>
        <time>2025-09-20T10:57:17Z</time>
      </trkpt>
      <trkpt lat="44.24081" lon="2.99741">
        <ele>878.78</ele>
        <time>2025-09-20T10:57:37Z</time>
      </trkpt>
      <trkpt lat="44.24078" lon="2.99743">
        <ele>878.78</ele>
        <time>2025-09-20T10:57:58Z</time>
      </trkpt>
      <trkpt lat="44.24076" lon="2.99748">
        <ele>879.26</ele>
        <time>2025-09-20T10:58:18Z</time>
      </trkpt>
      <trkpt lat="44.24075" lon="2.99747">
        <ele>876.86</ele>
        <time>2025-09-20T10:58:30Z</time>
      </trkpt>
      <trkpt lat="44.24075" lon="2.99746">
        <ele>876.38</ele>
        <time>2025-09-20T10:58:45Z</time>
      </trkpt>
      <trkpt lat="44.24079" lon="2.99738">
        <ele>875.9</ele>
        <time>2025-09-20T10:58:59Z</time>
      </trkpt>
      <trkpt lat="44.2409" lon="2.9972">
        <ele>876.38</ele>
        <time>2025-09-20T10:59:15Z</time>
      </trkpt>
      <trkpt lat="44.24093" lon="2.99715">
        <ele>876.38</ele>
        <time>2025-09-20T10:59:19Z</time>
      </trkpt>
      <trkpt lat="44.24102" lon="2.99692">
        <ele>877.82</ele>
        <time>2025-09-20T10:59:38Z</time>
      </trkpt>
      <trkpt lat="44.24104" lon="2.99688">
        <ele>876.38</ele>
        <time>2025-09-20T10:59:51Z</time>
      </trkpt>
      <trkpt lat="44.24105" lon="2.99689">
        <ele>878.3</ele>
        <time>2025-09-20T11:00:22Z</time>
      </trkpt>
      <trkpt lat="44.24108" lon="2.99689">
        <ele>878.78</ele>
        <time>2025-09-20T11:00:37Z</time>
      </trkpt>
      <trkpt lat="44.24106" lon="2.99695">
        <ele>879.26</ele>
        <time>2025-09-20T11:00:44Z</time>
      </trkpt>
      <trkpt lat="44.241" lon="2.9971">
        <ele>880.22</ele>
        <time>2025-09-20T11:00:57Z</time>
      </trkpt>
      <trkpt lat="44.24088" lon="2.99731">
        <ele>883.59</ele>
        <time>2025-09-20T11:01:16Z</time>
      </trkpt>
      <trkpt lat="44.24084" lon="2.99737">
        <ele>882.63</ele>
        <time>2025-09-20T11:01:28Z</time>
      </trkpt>
      <trkpt lat="44.24079" lon="2.99746">
        <ele>881.19</ele>
        <time>2025-09-20T11:01:45Z</time>
      </trkpt>
      <trkpt lat="44.24076" lon="2.99745">
        <ele>880.71</ele>
        <time>2025-09-20T11:01:57Z</time>
      </trkpt>
      <trkpt lat="44.24078" lon="2.99748">
        <ele>880.22</ele>
        <time>2025-09-20T11:02:14Z</time>
      </trkpt>
      <trkpt lat="44.24078" lon="2.9975">
        <ele>882.15</ele>
        <time>2025-09-20T11:02:35Z</time>
      </trkpt>
      <trkpt lat="44.24077" lon="2.99752">
        <ele>879.74</ele>
        <time>2025-09-20T11:02:54Z</time>
      </trkpt>
      <trkpt lat="44.24075" lon="2.99755">
        <ele>878.3</ele>
        <time>2025-09-20T11:03:11Z</time>
      </trkpt>
      <trkpt lat="44.24058" lon="2.99772">
        <ele>875.42</ele>
        <time>2025-09-20T11:03:28Z</time>
      </trkpt>
      <trkpt lat="44.24055" lon="2.99777">
        <ele>874.94</ele>
        <time>2025-09-20T11:03:32Z</time>
      </trkpt>
      <trkpt lat="44.24042" lon="2.99793">
        <ele>877.34</ele>
        <time>2025-09-20T11:03:48Z</time>
      </trkpt>
      <trkpt lat="44.24037" lon="2.99798">
        <ele>879.26</ele>
        <time>2025-09-20T11:03:53Z</time>
      </trkpt>
      <trkpt lat="44.24021" lon="2.99814">
        <ele>878.3</ele>
        <time>2025-09-20T11:04:07Z</time>
      </trkpt>
      <trkpt lat="44.24001" lon="2.99832">
        <ele>878.78</ele>
        <time>2025-09-20T11:04:24Z</time>
      </trkpt>
      <trkpt lat="44.23981" lon="2.9985">
        <ele>877.34</ele>
        <time>2025-09-20T11:04:40Z</time>
      </trkpt>
      <trkpt lat="44.23978" lon="2.99852">
        <ele>878.3</ele>
        <time>2025-09-20T11:04:43Z</time>
      </trkpt>
      <trkpt lat="44.23977" lon="2.99852">
        <ele>878.3</ele>
        <time>2025-09-20T11:04:44Z</time>
      </trkpt>
      <trkpt lat="44.23976" lon="2.99854">
        <ele>878.78</ele>
        <time>2025-09-20T11:04:45Z</time>
      </trkpt>
      <trkpt lat="44.23967" lon="2.99866">
        <ele>876.86</ele>
        <time>2025-09-20T11:05:00Z</time>
      </trkpt>
      <trkpt lat="44.23948" lon="2.99892">
        <ele>876.86</ele>
        <time>2025-09-20T11:05:18Z</time>
      </trkpt>
      <trkpt lat="44.23948" lon="2.99894">
        <ele>876.86</ele>
        <time>2025-09-20T11:05:19Z</time>
      </trkpt>
      <trkpt lat="44.23944" lon="2.99905">
        <ele>877.34</ele>
        <time>2025-09-20T11:05:24Z</time>
      </trkpt>
      <trkpt lat="44.23928" lon="2.99929">
        <ele>877.82</ele>
        <time>2025-09-20T11:05:40Z</time>
      </trkpt>
      <trkpt lat="44.23909" lon="2.99962">
        <ele>879.74</ele>
        <time>2025-09-20T11:06:01Z</time>
      </trkpt>
      <trkpt lat="44.23887" lon="2.99988">
        <ele>879.26</ele>
        <time>2025-09-20T11:06:18Z</time>
      </trkpt>
      <trkpt lat="44.23868" lon="3.00008">
        <ele>878.3</ele>
        <time>2025-09-20T11:06:35Z</time>
      </trkpt>
      <trkpt lat="44.23853" lon="3.00035">
        <ele>879.26</ele>
        <time>2025-09-20T11:06:51Z</time>
      </trkpt>
      <trkpt lat="44.23836" lon="3.00067">
        <ele>879.74</ele>
        <time>2025-09-20T11:07:11Z</time>
      </trkpt>
      <trkpt lat="44.2382" lon="3.00094">
        <ele>882.15</ele>
        <time>2025-09-20T11:07:28Z</time>
      </trkpt>
      <trkpt lat="44.23811" lon="3.00105">
        <ele>881.19</ele>
        <time>2025-09-20T11:07:44Z</time>
      </trkpt>
      <trkpt lat="44.23808" lon="3.00112">
        <ele>881.67</ele>
        <time>2025-09-20T11:07:55Z</time>
      </trkpt>
      <trkpt lat="44.23806" lon="3.0012">
        <ele>881.19</ele>
        <time>2025-09-20T11:08:10Z</time>
      </trkpt>
      <trkpt lat="44.23798" lon="3.00128">
        <ele>876.86</ele>
        <time>2025-09-20T11:08:28Z</time>
      </trkpt>
      <trkpt lat="44.23782" lon="3.00147">
        <ele>880.22</ele>
        <time>2025-09-20T11:08:45Z</time>
      </trkpt>
      <trkpt lat="44.23767" lon="3.0017">
        <ele>882.15</ele>
        <time>2025-09-20T11:09:02Z</time>
      </trkpt>
      <trkpt lat="44.23751" lon="3.00188">
        <ele>879.26</ele>
        <time>2025-09-20T11:09:17Z</time>
      </trkpt>
      <trkpt lat="44.23729" lon="3.00206">
        <ele>876.86</ele>
        <time>2025-09-20T11:09:33Z</time>
      </trkpt>
      <trkpt lat="44.23704" lon="3.00231">
        <ele>874.46</ele>
        <time>2025-09-20T11:09:52Z</time>
      </trkpt>
      <trkpt lat="44.23678" lon="3.00256">
        <ele>872.53</ele>
        <time>2025-09-20T11:10:12Z</time>
      </trkpt>
      <trkpt lat="44.23651" lon="3.00281">
        <ele>870.61</ele>
        <time>2025-09-20T11:10:32Z</time>
      </trkpt>
      <trkpt lat="44.23639" lon="3.00292">
        <ele>870.61</ele>
        <time>2025-09-20T11:10:42Z</time>
      </trkpt>
      <trkpt lat="44.23638" lon="3.00293">
        <ele>870.61</ele>
        <time>2025-09-20T11:10:43Z</time>
      </trkpt>
      <trkpt lat="44.23636" lon="3.00294">
        <ele>870.61</ele>
        <time>2025-09-20T11:10:44Z</time>
      </trkpt>
      <trkpt lat="44.23613" lon="3.00311">
        <ele>870.61</ele>
        <time>2025-09-20T11:11:00Z</time>
      </trkpt>
      <trkpt lat="44.23588" lon="3.00324">
        <ele>868.69</ele>
        <time>2025-09-20T11:11:18Z</time>
      </trkpt>
      <trkpt lat="44.2356" lon="3.0033">
        <ele>869.65</ele>
        <time>2025-09-20T11:11:36Z</time>
      </trkpt>
      <trkpt lat="44.23533" lon="3.00333">
        <ele>870.13</ele>
        <time>2025-09-20T11:11:54Z</time>
      </trkpt>
      <trkpt lat="44.23508" lon="3.00345">
        <ele>869.65</ele>
        <time>2025-09-20T11:12:11Z</time>
      </trkpt>
      <trkpt lat="44.23485" lon="3.00351">
        <ele>870.13</ele>
        <time>2025-09-20T11:12:26Z</time>
      </trkpt>
      <trkpt lat="44.23461" lon="3.00355">
        <ele>872.53</ele>
        <time>2025-09-20T11:12:45Z</time>
      </trkpt>
      <trkpt lat="44.23455" lon="3.00362">
        <ele>872.53</ele>
        <time>2025-09-20T11:12:51Z</time>
      </trkpt>
      <trkpt lat="44.23453" lon="3.00364">
        <ele>872.05</ele>
        <time>2025-09-20T11:13:07Z</time>
      </trkpt>
      <trkpt lat="44.23452" lon="3.00367">
        <ele>873.01</ele>
        <time>2025-09-20T11:13:31Z</time>
      </trkpt>
      <trkpt lat="44.23452" lon="3.00366">
        <ele>872.53</ele>
        <time>2025-09-20T11:13:42Z</time>
      </trkpt>
      <trkpt lat="44.23452" lon="3.00359">
        <ele>871.57</ele>
        <time>2025-09-20T11:13:50Z</time>
      </trkpt>
      <trkpt lat="44.23448" lon="3.00355">
        <ele>870.61</ele>
        <time>2025-09-20T11:14:07Z</time>
      </trkpt>
      <trkpt lat="44.23444" lon="3.00352">
        <ele>870.61</ele>
        <time>2025-09-20T11:14:12Z</time>
      </trkpt>
      <trkpt lat="44.23443" lon="3.00353">
        <ele>870.61</ele>
        <time>2025-09-20T11:14:13Z</time>
      </trkpt>
      <trkpt lat="44.23426" lon="3.00361">
        <ele>871.57</ele>
        <time>2025-09-20T11:14:28Z</time>
      </trkpt>
      <trkpt lat="44.23403" lon="3.00368">
        <ele>870.61</ele>
        <time>2025-09-20T11:14:46Z</time>
      </trkpt>
      <trkpt lat="44.23387" lon="3.00378">
        <ele>869.17</ele>
        <time>2025-09-20T11:15:04Z</time>
      </trkpt>
      <trkpt lat="44.23371" lon="3.00384">
        <ele>869.65</ele>
        <time>2025-09-20T11:15:19Z</time>
      </trkpt>
      <trkpt lat="44.23364" lon="3.00392">
        <ele>870.61</ele>
        <time>2025-09-20T11:15:35Z</time>
      </trkpt>
      <trkpt lat="44.23365" lon="3.0039">
        <ele>875.42</ele>
        <time>2025-09-20T11:15:57Z</time>
      </trkpt>
      <trkpt lat="44.23363" lon="3.00393">
        <ele>873.98</ele>
        <time>2025-09-20T11:16:12Z</time>
      </trkpt>
      <trkpt lat="44.23364" lon="3.00393">
        <ele>873.5</ele>
        <time>2025-09-20T11:16:30Z</time>
      </trkpt>
      <trkpt lat="44.23363" lon="3.00392">
        <ele>874.46</ele>
        <time>2025-09-20T11:16:48Z</time>
      </trkpt>
      <trkpt lat="44.23361" lon="3.00391">
        <ele>873.98</ele>
        <time>2025-09-20T11:17:03Z</time>
      </trkpt>
      <trkpt lat="44.23367" lon="3.00392">
        <ele>875.9</ele>
        <time>2025-09-20T11:17:22Z</time>
      </trkpt>
      <trkpt lat="44.23366" lon="3.00395">
        <ele>875.42</ele>
        <time>2025-09-20T11:17:40Z</time>
      </trkpt>
      <trkpt lat="44.23365" lon="3.00394">
        <ele>876.38</ele>
        <time>2025-09-20T11:18:10Z</time>
      </trkpt>
      <trkpt lat="44.23364" lon="3.00387">
        <ele>877.34</ele>
        <time>2025-09-20T11:18:32Z</time>
      </trkpt>
      <trkpt lat="44.2336" lon="3.00387">
        <ele>875.42</ele>
        <time>2025-09-20T11:18:48Z</time>
      </trkpt>
      <trkpt lat="44.23358" lon="3.00386">
        <ele>875.9</ele>
        <time>2025-09-20T11:19:05Z</time>
      </trkpt>
      <trkpt lat="44.2336" lon="3.00386">
        <ele>874.94</ele>
        <time>2025-09-20T11:19:16Z</time>
      </trkpt>
      <trkpt lat="44.23358" lon="3.00388">
        <ele>873.01</ele>
        <time>2025-09-20T11:19:42Z</time>
      </trkpt>
      <trkpt lat="44.23358" lon="3.0039">
        <ele>872.53</ele>
        <time>2025-09-20T11:20:01Z</time>
      </trkpt>
      <trkpt lat="44.23361" lon="3.00389">
        <ele>872.53</ele>
        <time>2025-09-20T11:20:16Z</time>
      </trkpt>
      <trkpt lat="44.23364" lon="3.00389">
        <ele>872.05</ele>
        <time>2025-09-20T11:20:31Z</time>
      </trkpt>
      <trkpt lat="44.23365" lon="3.00392">
        <ele>871.57</ele>
        <time>2025-09-20T11:20:46Z</time>
      </trkpt>
      <trkpt lat="44.23361" lon="3.00393">
        <ele>870.61</ele>
        <time>2025-09-20T11:20:58Z</time>
      </trkpt>
      <trkpt lat="44.23362" lon="3.00387">
        <ele>871.57</ele>
        <time>2025-09-20T11:21:13Z</time>
      </trkpt>
      <trkpt lat="44.23361" lon="3.0039">
        <ele>871.57</ele>
        <time>2025-09-20T11:21:31Z</time>
      </trkpt>
      <trkpt lat="44.23362" lon="3.00397">
        <ele>873.5</ele>
        <time>2025-09-20T11:21:50Z</time>
      </trkpt>
      <trkpt lat="44.23363" lon="3.00395">
        <ele>875.42</ele>
        <time>2025-09-20T11:22:06Z</time>
      </trkpt>
      <trkpt lat="44.23366" lon="3.00384">
        <ele>874.94</ele>
        <time>2025-09-20T11:22:20Z</time>
      </trkpt>
      <trkpt lat="44.23364" lon="3.00384">
        <ele>872.53</ele>
        <time>2025-09-20T11:22:33Z</time>
      </trkpt>
      <trkpt lat="44.23357" lon="3.00386">
        <ele>870.61</ele>
        <time>2025-09-20T11:22:47Z</time>
      </trkpt>
      <trkpt lat="44.23353" lon="3.00396">
        <ele>869.17</ele>
        <time>2025-09-20T11:23:10Z</time>
      </trkpt>
      <trkpt lat="44.23348" lon="3.00401">
        <ele>869.17</ele>
        <time>2025-09-20T11:23:22Z</time>
      </trkpt>
      <trkpt lat="44.23348" lon="3.00401">
        <ele>869.17</ele>
        <time>2025-09-20T11:23:37Z</time>
      </trkpt>
      <trkpt lat="44.23361" lon="3.00391">
        <ele>870.13</ele>
        <time>2025-09-20T11:23:56Z</time>
      </trkpt>
      <trkpt lat="44.23363" lon="3.00389">
        <ele>872.05</ele>
        <time>2025-09-20T11:24:10Z</time>
      </trkpt>
      <trkpt lat="44.23361" lon="3.00392">
        <ele>873.01</ele>
        <time>2025-09-20T11:24:31Z</time>
      </trkpt>
      <trkpt lat="44.23359" lon="3.00392">
        <ele>873.01</ele>
        <time>2025-09-20T11:24:53Z</time>
      </trkpt>
      <trkpt lat="44.23354" lon="3.00387">
        <ele>876.86</ele>
        <time>2025-09-20T11:25:12Z</time>
      </trkpt>
      <trkpt lat="44.23359" lon="3.00384">
        <ele>874.94</ele>
        <time>2025-09-20T11:25:24Z</time>
      </trkpt>
      <trkpt lat="44.23357" lon="3.00385">
        <ele>873.98</ele>
        <time>2025-09-20T11:25:43Z</time>
      </trkpt>
      <trkpt lat="44.23355" lon="3.00389">
        <ele>874.46</ele>
        <time>2025-09-20T11:26:05Z</time>
      </trkpt>
      <trkpt lat="44.23353" lon="3.00389">
        <ele>873.01</ele>
        <time>2025-09-20T11:26:22Z</time>
      </trkpt>
      <trkpt lat="44.23353" lon="3.00382">
        <ele>873.5</ele>
        <time>2025-09-20T11:26:43Z</time>
      </trkpt>
      <trkpt lat="44.23359" lon="3.00386">
        <ele>875.9</ele>
        <time>2025-09-20T11:27:09Z</time>
      </trkpt>
      <trkpt lat="44.23366" lon="3.00391">
        <ele>878.78</ele>
        <time>2025-09-20T11:27:28Z</time>
      </trkpt>
      <trkpt lat="44.23363" lon="3.00386">
        <ele>879.26</ele>
        <time>2025-09-20T11:27:47Z</time>
      </trkpt>
      <trkpt lat="44.23365" lon="3.0039">
        <ele>879.26</ele>
        <time>2025-09-20T11:28:05Z</time>
      </trkpt>
      <trkpt lat="44.23361" lon="3.00394">
        <ele>880.71</ele>
        <time>2025-09-20T11:28:28Z</time>
      </trkpt>
      <trkpt lat="44.23362" lon="3.00397">
        <ele>879.26</ele>
        <time>2025-09-20T11:28:52Z</time>
      </trkpt>
      <trkpt lat="44.23367" lon="3.00401">
        <ele>878.78</ele>
        <time>2025-09-20T11:29:21Z</time>
      </trkpt>
      <trkpt lat="44.23365" lon="3.00404">
        <ele>875.9</ele>
        <time>2025-09-20T11:29:56Z</time>
      </trkpt>
      <trkpt lat="44.2336" lon="3.00402">
        <ele>873.5</ele>
        <time>2025-09-20T11:30:36Z</time>
      </trkpt>
      <trkpt lat="44.23361" lon="3.00403">
        <ele>868.21</ele>
        <time>2025-09-20T11:31:12Z</time>
      </trkpt>
      <trkpt lat="44.23365" lon="3.00404">
        <ele>871.09</ele>
        <time>2025-09-20T11:31:47Z</time>
      </trkpt>
      <trkpt lat="44.23368" lon="3.00403">
        <ele>873.5</ele>
        <time>2025-09-20T11:32:19Z</time>
      </trkpt>
      <trkpt lat="44.23364" lon="3.004">
        <ele>875.42</ele>
        <time>2025-09-20T11:32:47Z</time>
      </trkpt>
      <trkpt lat="44.23362" lon="3.00391">
        <ele>872.53</ele>
        <time>2025-09-20T11:32:59Z</time>
      </trkpt>
      <trkpt lat="44.23367" lon="3.00391">
        <ele>873.5</ele>
        <time>2025-09-20T11:33:14Z</time>
      </trkpt>
      <trkpt lat="44.23364" lon="3.00393">
        <ele>872.53</ele>
        <time>2025-09-20T11:33:29Z</time>
      </trkpt>
      <trkpt lat="44.23372" lon="3.00389">
        <ele>871.09</ele>
        <time>2025-09-20T11:33:43Z</time>
      </trkpt>
      <trkpt lat="44.23379" lon="3.0039">
        <ele>870.61</ele>
        <time>2025-09-20T11:33:56Z</time>
      </trkpt>
      <trkpt lat="44.23383" lon="3.00384">
        <ele>870.61</ele>
        <time>2025-09-20T11:34:09Z</time>
      </trkpt>
      <trkpt lat="44.23379" lon="3.00385">
        <ele>870.13</ele>
        <time>2025-09-20T11:34:21Z</time>
      </trkpt>
      <trkpt lat="44.23379" lon="3.00388">
        <ele>870.13</ele>
        <time>2025-09-20T11:34:30Z</time>
      </trkpt>
      <trkpt lat="44.23379" lon="3.00389">
        <ele>870.13</ele>
        <time>2025-09-20T11:34:31Z</time>
      </trkpt>
      <trkpt lat="44.23381" lon="3.00392">
        <ele>870.13</ele>
        <time>2025-09-20T11:34:46Z</time>
      </trkpt>
      <trkpt lat="44.23384" lon="3.00393">
        <ele>869.17</ele>
        <time>2025-09-20T11:34:59Z</time>
      </trkpt>
      <trkpt lat="44.23386" lon="3.00399">
        <ele>868.21</ele>
        <time>2025-09-20T11:35:10Z</time>
      </trkpt>
      <trkpt lat="44.23385" lon="3.00406">
        <ele>868.69</ele>
        <time>2025-09-20T11:35:18Z</time>
      </trkpt>
      <trkpt lat="44.23383" lon="3.00416">
        <ele>871.09</ele>
        <time>2025-09-20T11:35:30Z</time>
      </trkpt>
      <trkpt lat="44.23384" lon="3.00413">
        <ele>873.01</ele>
        <time>2025-09-20T11:35:43Z</time>
      </trkpt>
      <trkpt lat="44.23387" lon="3.004">
        <ele>872.53</ele>
        <time>2025-09-20T11:35:58Z</time>
      </trkpt>
      <trkpt lat="44.23379" lon="3.00394">
        <ele>868.21</ele>
        <time>2025-09-20T11:36:12Z</time>
      </trkpt>
      <trkpt lat="44.23371" lon="3.00396">
        <ele>868.69</ele>
        <time>2025-09-20T11:36:25Z</time>
      </trkpt>
      <trkpt lat="44.23362" lon="3.00392">
        <ele>869.65</ele>
        <time>2025-09-20T11:36:39Z</time>
      </trkpt>
      <trkpt lat="44.23363" lon="3.00387">
        <ele>870.13</ele>
        <time>2025-09-20T11:36:56Z</time>
      </trkpt>
      <trkpt lat="44.23365" lon="3.00389">
        <ele>869.65</ele>
        <time>2025-09-20T11:37:08Z</time>
      </trkpt>
      <trkpt lat="44.23368" lon="3.00391">
        <ele>871.09</ele>
        <time>2025-09-20T11:37:22Z</time>
      </trkpt>
      <trkpt lat="44.23369" lon="3.00395">
        <ele>870.61</ele>
        <time>2025-09-20T11:37:47Z</time>
      </trkpt>
      <trkpt lat="44.23364" lon="3.00397">
        <ele>869.65</ele>
        <time>2025-09-20T11:38:11Z</time>
      </trkpt>
      <trkpt lat="44.23363" lon="3.00397">
        <ele>872.05</ele>
        <time>2025-09-20T11:38:26Z</time>
      </trkpt>
      <trkpt lat="44.23359" lon="3.004">
        <ele>874.94</ele>
        <time>2025-09-20T11:38:52Z</time>
      </trkpt>
      <trkpt lat="44.23361" lon="3.00403">
        <ele>874.94</ele>
        <time>2025-09-20T11:39:13Z</time>
      </trkpt>
      <trkpt lat="44.23369" lon="3.00403">
        <ele>881.67</ele>
        <time>2025-09-20T11:39:49Z</time>
      </trkpt>
      <trkpt lat="44.23368" lon="3.004">
        <ele>881.19</ele>
        <time>2025-09-20T11:40:22Z</time>
      </trkpt>
      <trkpt lat="44.23366" lon="3.00397">
        <ele>885.03</ele>
        <time>2025-09-20T11:41:00Z</time>
      </trkpt>
      <trkpt lat="44.23363" lon="3.00399">
        <ele>885.51</ele>
        <time>2025-09-20T11:41:33Z</time>
      </trkpt>
      <trkpt lat="44.23368" lon="3.00403">
        <ele>885.99</ele>
        <time>2025-09-20T11:42:18Z</time>
      </trkpt>
      <trkpt lat="44.23364" lon="3.00404">
        <ele>880.22</ele>
        <time>2025-09-20T11:43:01Z</time>
      </trkpt>
      <trkpt lat="44.23362" lon="3.00406">
        <ele>879.26</ele>
        <time>2025-09-20T11:43:34Z</time>
      </trkpt>
      <trkpt lat="44.23361" lon="3.00399">
        <ele>878.3</ele>
        <time>2025-09-20T11:44:07Z</time>
      </trkpt>
      <trkpt lat="44.2336" lon="3.00405">
        <ele>876.38</ele>
        <time>2025-09-20T11:44:41Z</time>
      </trkpt>
      <trkpt lat="44.23368" lon="3.00399">
        <ele>877.34</ele>
        <time>2025-09-20T11:45:16Z</time>
      </trkpt>
      <trkpt lat="44.23367" lon="3.00399">
        <ele>880.22</ele>
        <time>2025-09-20T11:45:52Z</time>
      </trkpt>
      <trkpt lat="44.23365" lon="3.00403">
        <ele>882.15</ele>
        <time>2025-09-20T11:46:30Z</time>
      </trkpt>
      <trkpt lat="44.23368" lon="3.00396">
        <ele>884.07</ele>
        <time>2025-09-20T11:47:12Z</time>
      </trkpt>
      <trkpt lat="44.2337" lon="3.00404">
        <ele>884.55</ele>
        <time>2025-09-20T11:47:50Z</time>
      </trkpt>
      <trkpt lat="44.23365" lon="3.004">
        <ele>885.03</ele>
        <time>2025-09-20T11:48:30Z</time>
      </trkpt>
      <trkpt lat="44.23367" lon="3.00401">
        <ele>885.51</ele>
        <time>2025-09-20T11:49:01Z</time>
      </trkpt>
      <trkpt lat="44.23372" lon="3.00398">
        <ele>883.11</ele>
        <time>2025-09-20T11:49:31Z</time>
      </trkpt>
      <trkpt lat="44.23363" lon="3.00398">
        <ele>881.67</ele>
        <time>2025-09-20T11:50:08Z</time>
      </trkpt>
      <trkpt lat="44.23363" lon="3.00399">
        <ele>878.78</ele>
        <time>2025-09-20T11:50:36Z</time>
      </trkpt>
      <trkpt lat="44.23364" lon="3.00397">
        <ele>882.15</ele>
        <time>2025-09-20T11:51:06Z</time>
      </trkpt>
      <trkpt lat="44.23363" lon="3.004">
        <ele>883.11</ele>
        <time>2025-09-20T11:51:34Z</time>
      </trkpt>
      <trkpt lat="44.2337" lon="3.00397">
        <ele>882.63</ele>
        <time>2025-09-20T11:52:03Z</time>
      </trkpt>
      <trkpt lat="44.23369" lon="3.00401">
        <ele>879.26</ele>
        <time>2025-09-20T11:52:38Z</time>
      </trkpt>
      <trkpt lat="44.23361" lon="3.00399">
        <ele>876.86</ele>
        <time>2025-09-20T11:53:12Z</time>
      </trkpt>
      <trkpt lat="44.23359" lon="3.004">
        <ele>878.3</ele>
        <time>2025-09-20T11:53:35Z</time>
      </trkpt>
      <trkpt lat="44.2336" lon="3.00397">
        <ele>877.34</ele>
        <time>2025-09-20T11:53:57Z</time>
      </trkpt>
      <trkpt lat="44.2336" lon="3.00399">
        <ele>878.3</ele>
        <time>2025-09-20T11:54:18Z</time>
      </trkpt>
      <trkpt lat="44.23359" lon="3.00397">
        <ele>877.82</ele>
        <time>2025-09-20T11:54:36Z</time>
      </trkpt>
      <trkpt lat="44.2336" lon="3.00396">
        <ele>876.86</ele>
        <time>2025-09-20T11:54:53Z</time>
      </trkpt>
      <trkpt lat="44.23442" lon="3.00342">
        <ele>858.11</ele>
        <time>2025-09-20T13:02:43Z</time>
      </trkpt>
      <trkpt lat="44.23442" lon="3.00356">
        <ele>872.53</ele>
        <time>2025-09-20T13:03:00Z</time>
      </trkpt>
      <trkpt lat="44.23441" lon="3.00358">
        <ele>873.5</ele>
        <time>2025-09-20T13:03:21Z</time>
      </trkpt>
      <trkpt lat="44.2344" lon="3.00358">
        <ele>874.46</ele>
        <time>2025-09-20T13:03:41Z</time>
      </trkpt>
      <trkpt lat="44.2344" lon="3.00358">
        <ele>874.46</ele>
        <time>2025-09-20T13:04:00Z</time>
      </trkpt>
      <trkpt lat="44.23439" lon="3.00357">
        <ele>873.5</ele>
        <time>2025-09-20T13:04:15Z</time>
      </trkpt>
      <trkpt lat="44.23437" lon="3.00358">
        <ele>873.5</ele>
        <time>2025-09-20T13:04:20Z</time>
      </trkpt>
      <trkpt lat="44.23431" lon="3.0036">
        <ele>873.01</ele>
        <time>2025-09-20T13:04:25Z</time>
      </trkpt>
      <trkpt lat="44.23408" lon="3.00364">
        <ele>873.98</ele>
        <time>2025-09-20T13:04:43Z</time>
      </trkpt>
      <trkpt lat="44.23384" lon="3.00371">
        <ele>873.5</ele>
        <time>2025-09-20T13:05:01Z</time>
      </trkpt>
      <trkpt lat="44.23365" lon="3.00381">
        <ele>873.01</ele>
        <time>2025-09-20T13:05:16Z</time>
      </trkpt>
      <trkpt lat="44.23358" lon="3.0039">
        <ele>873.01</ele>
        <time>2025-09-20T13:05:22Z</time>
      </trkpt>
      <trkpt lat="44.23341" lon="3.00403">
        <ele>873.5</ele>
        <time>2025-09-20T13:05:36Z</time>
      </trkpt>
      <trkpt lat="44.23335" lon="3.00405">
        <ele>873.98</ele>
        <time>2025-09-20T13:05:40Z</time>
      </trkpt>
      <trkpt lat="44.23332" lon="3.00408">
        <ele>873.98</ele>
        <time>2025-09-20T13:05:44Z</time>
      </trkpt>
      <trkpt lat="44.23326" lon="3.00407">
        <ele>873.98</ele>
        <time>2025-09-20T13:05:48Z</time>
      </trkpt>
      <trkpt lat="44.23295" lon="3.00414">
        <ele>873.5</ele>
        <time>2025-09-20T13:06:08Z</time>
      </trkpt>
      <trkpt lat="44.23276" lon="3.00414">
        <ele>872.05</ele>
        <time>2025-09-20T13:06:21Z</time>
      </trkpt>
      <trkpt lat="44.2325" lon="3.00421">
        <ele>872.05</ele>
        <time>2025-09-20T13:06:38Z</time>
      </trkpt>
      <trkpt lat="44.23224" lon="3.0043">
        <ele>869.65</ele>
        <time>2025-09-20T13:06:56Z</time>
      </trkpt>
      <trkpt lat="44.23203" lon="3.00441">
        <ele>867.25</ele>
        <time>2025-09-20T13:07:12Z</time>
      </trkpt>
      <trkpt lat="44.23182" lon="3.00449">
        <ele>864.36</ele>
        <time>2025-09-20T13:07:28Z</time>
      </trkpt>
      <trkpt lat="44.23165" lon="3.00456">
        <ele>864.36</ele>
        <time>2025-09-20T13:07:39Z</time>
      </trkpt>
      <trkpt lat="44.23143" lon="3.00466">
        <ele>862.92</ele>
        <time>2025-09-20T13:07:55Z</time>
      </trkpt>
      <trkpt lat="44.23122" lon="3.00477">
        <ele>861.96</ele>
        <time>2025-09-20T13:08:12Z</time>
      </trkpt>
      <trkpt lat="44.231" lon="3.00476">
        <ele>861.48</ele>
        <time>2025-09-20T13:08:29Z</time>
      </trkpt>
      <trkpt lat="44.23097" lon="3.00475">
        <ele>861</ele>
        <time>2025-09-20T13:08:32Z</time>
      </trkpt>
      <trkpt lat="44.2309" lon="3.00475">
        <ele>861.48</ele>
        <time>2025-09-20T13:08:36Z</time>
      </trkpt>
      <trkpt lat="44.23068" lon="3.00481">
        <ele>861</ele>
        <time>2025-09-20T13:08:53Z</time>
      </trkpt>
      <trkpt lat="44.23048" lon="3.00494">
        <ele>859.08</ele>
        <time>2025-09-20T13:09:10Z</time>
      </trkpt>
      <trkpt lat="44.23028" lon="3.00495">
        <ele>858.59</ele>
        <time>2025-09-20T13:09:26Z</time>
      </trkpt>
      <trkpt lat="44.23004" lon="3.00498">
        <ele>856.67</ele>
        <time>2025-09-20T13:09:44Z</time>
      </trkpt>
      <trkpt lat="44.22977" lon="3.00495">
        <ele>856.19</ele>
        <time>2025-09-20T13:10:02Z</time>
      </trkpt>
      <trkpt lat="44.22948" lon="3.00503">
        <ele>855.23</ele>
        <time>2025-09-20T13:10:22Z</time>
      </trkpt>
      <trkpt lat="44.22928" lon="3.00523">
        <ele>852.83</ele>
        <time>2025-09-20T13:10:40Z</time>
      </trkpt>
      <trkpt lat="44.22912" lon="3.00539">
        <ele>851.87</ele>
        <time>2025-09-20T13:10:54Z</time>
      </trkpt>
      <trkpt lat="44.22889" lon="3.00562">
        <ele>850.9</ele>
        <time>2025-09-20T13:11:13Z</time>
      </trkpt>
      <trkpt lat="44.22864" lon="3.00578">
        <ele>850.9</ele>
        <time>2025-09-20T13:11:31Z</time>
      </trkpt>
      <trkpt lat="44.22835" lon="3.00592">
        <ele>850.9</ele>
        <time>2025-09-20T13:11:51Z</time>
      </trkpt>
      <trkpt lat="44.2281" lon="3.006">
        <ele>850.42</ele>
        <time>2025-09-20T13:12:09Z</time>
      </trkpt>
      <trkpt lat="44.22783" lon="3.00614">
        <ele>850.42</ele>
        <time>2025-09-20T13:12:29Z</time>
      </trkpt>
      <trkpt lat="44.22757" lon="3.00631">
        <ele>850.42</ele>
        <time>2025-09-20T13:12:48Z</time>
      </trkpt>
      <trkpt lat="44.22729" lon="3.00648">
        <ele>850.9</ele>
        <time>2025-09-20T13:13:08Z</time>
      </trkpt>
      <trkpt lat="44.22704" lon="3.00665">
        <ele>851.38</ele>
        <time>2025-09-20T13:13:27Z</time>
      </trkpt>
      <trkpt lat="44.2268" lon="3.00678">
        <ele>851.87</ele>
        <time>2025-09-20T13:13:45Z</time>
      </trkpt>
      <trkpt lat="44.22657" lon="3.00687">
        <ele>852.35</ele>
        <time>2025-09-20T13:14:02Z</time>
      </trkpt>
      <trkpt lat="44.22628" lon="3.00693">
        <ele>851.87</ele>
        <time>2025-09-20T13:14:22Z</time>
      </trkpt>
      <trkpt lat="44.22602" lon="3.00694">
        <ele>851.87</ele>
        <time>2025-09-20T13:14:41Z</time>
      </trkpt>
      <trkpt lat="44.22575" lon="3.00692">
        <ele>852.83</ele>
        <time>2025-09-20T13:15:00Z</time>
      </trkpt>
      <trkpt lat="44.22551" lon="3.00697">
        <ele>853.31</ele>
        <time>2025-09-20T13:15:18Z</time>
      </trkpt>
      <trkpt lat="44.2253" lon="3.00699">
        <ele>853.79</ele>
        <time>2025-09-20T13:15:34Z</time>
      </trkpt>
      <trkpt lat="44.22507" lon="3.00704">
        <ele>856.67</ele>
        <time>2025-09-20T13:15:51Z</time>
      </trkpt>
      <trkpt lat="44.22481" lon="3.00707">
        <ele>858.11</ele>
        <time>2025-09-20T13:16:09Z</time>
      </trkpt>
      <trkpt lat="44.22454" lon="3.0071">
        <ele>858.11</ele>
        <time>2025-09-20T13:16:29Z</time>
      </trkpt>
      <trkpt lat="44.22433" lon="3.00712">
        <ele>857.63</ele>
        <time>2025-09-20T13:16:45Z</time>
      </trkpt>
      <trkpt lat="44.22411" lon="3.00719">
        <ele>858.11</ele>
        <time>2025-09-20T13:17:02Z</time>
      </trkpt>
      <trkpt lat="44.22391" lon="3.00727">
        <ele>859.56</ele>
        <time>2025-09-20T13:17:20Z</time>
      </trkpt>
      <trkpt lat="44.22359" lon="3.00737">
        <ele>858.59</ele>
        <time>2025-09-20T13:17:40Z</time>
      </trkpt>
      <trkpt lat="44.22338" lon="3.00748">
        <ele>855.23</ele>
        <time>2025-09-20T13:17:56Z</time>
      </trkpt>
      <trkpt lat="44.22312" lon="3.00757">
        <ele>855.71</ele>
        <time>2025-09-20T13:18:15Z</time>
      </trkpt>
      <trkpt lat="44.22285" lon="3.00765">
        <ele>857.15</ele>
        <time>2025-09-20T13:18:33Z</time>
      </trkpt>
      <trkpt lat="44.22258" lon="3.00772">
        <ele>858.59</ele>
        <time>2025-09-20T13:18:52Z</time>
      </trkpt>
      <trkpt lat="44.22237" lon="3.00776">
        <ele>859.56</ele>
        <time>2025-09-20T13:19:09Z</time>
      </trkpt>
      <trkpt lat="44.22231" lon="3.00777">
        <ele>860.52</ele>
        <time>2025-09-20T13:19:13Z</time>
      </trkpt>
      <trkpt lat="44.22201" lon="3.00787">
        <ele>860.52</ele>
        <time>2025-09-20T13:19:32Z</time>
      </trkpt>
      <trkpt lat="44.22181" lon="3.00797">
        <ele>859.08</ele>
        <time>2025-09-20T13:19:46Z</time>
      </trkpt>
      <trkpt lat="44.22149" lon="3.00814">
        <ele>858.59</ele>
        <time>2025-09-20T13:20:09Z</time>
      </trkpt>
      <trkpt lat="44.22118" lon="3.00825">
        <ele>860.52</ele>
        <time>2025-09-20T13:20:30Z</time>
      </trkpt>
      <trkpt lat="44.22098" lon="3.00832">
        <ele>865.32</ele>
        <time>2025-09-20T13:20:47Z</time>
      </trkpt>
      <trkpt lat="44.22074" lon="3.00838">
        <ele>865.32</ele>
        <time>2025-09-20T13:21:04Z</time>
      </trkpt>
      <trkpt lat="44.22044" lon="3.00849">
        <ele>862.44</ele>
        <time>2025-09-20T13:21:23Z</time>
      </trkpt>
      <trkpt lat="44.22014" lon="3.00861">
        <ele>864.36</ele>
        <time>2025-09-20T13:21:44Z</time>
      </trkpt>
      <trkpt lat="44.21991" lon="3.00869">
        <ele>866.29</ele>
        <time>2025-09-20T13:22:01Z</time>
      </trkpt>
      <trkpt lat="44.21974" lon="3.00875">
        <ele>866.77</ele>
        <time>2025-09-20T13:22:15Z</time>
      </trkpt>
      <trkpt lat="44.21971" lon="3.00875">
        <ele>867.73</ele>
        <time>2025-09-20T13:22:33Z</time>
      </trkpt>
      <trkpt lat="44.21978" lon="3.00871">
        <ele>869.17</ele>
        <time>2025-09-20T13:22:47Z</time>
      </trkpt>
      <trkpt lat="44.2198" lon="3.00871">
        <ele>869.17</ele>
        <time>2025-09-20T13:22:48Z</time>
      </trkpt>
      <trkpt lat="44.22004" lon="3.0086">
        <ele>869.65</ele>
        <time>2025-09-20T13:23:02Z</time>
      </trkpt>
      <trkpt lat="44.22036" lon="3.00849">
        <ele>871.57</ele>
        <time>2025-09-20T13:23:25Z</time>
      </trkpt>
      <trkpt lat="44.22061" lon="3.0084">
        <ele>871.09</ele>
        <time>2025-09-20T13:23:41Z</time>
      </trkpt>
      <trkpt lat="44.22083" lon="3.00833">
        <ele>869.65</ele>
        <time>2025-09-20T13:23:57Z</time>
      </trkpt>
      <trkpt lat="44.22108" lon="3.00825">
        <ele>868.69</ele>
        <time>2025-09-20T13:24:15Z</time>
      </trkpt>
      <trkpt lat="44.22136" lon="3.00818">
        <ele>868.21</ele>
        <time>2025-09-20T13:24:34Z</time>
      </trkpt>
      <trkpt lat="44.22158" lon="3.00804">
        <ele>867.73</ele>
        <time>2025-09-20T13:24:51Z</time>
      </trkpt>
      <trkpt lat="44.22167" lon="3.00783">
        <ele>868.21</ele>
        <time>2025-09-20T13:25:06Z</time>
      </trkpt>
      <trkpt lat="44.22167" lon="3.00782">
        <ele>868.21</ele>
        <time>2025-09-20T13:25:07Z</time>
      </trkpt>
      <trkpt lat="44.22165" lon="3.00779">
        <ele>868.21</ele>
        <time>2025-09-20T13:25:10Z</time>
      </trkpt>
      <trkpt lat="44.22164" lon="3.00758">
        <ele>868.21</ele>
        <time>2025-09-20T13:25:23Z</time>
      </trkpt>
      <trkpt lat="44.22153" lon="3.00737">
        <ele>871.09</ele>
        <time>2025-09-20T13:25:39Z</time>
      </trkpt>
      <trkpt lat="44.22138" lon="3.00718">
        <ele>872.53</ele>
        <time>2025-09-20T13:25:56Z</time>
      </trkpt>
      <trkpt lat="44.22129" lon="3.00693">
        <ele>873.98</ele>
        <time>2025-09-20T13:26:13Z</time>
      </trkpt>
      <trkpt lat="44.22128" lon="3.00666">
        <ele>873.98</ele>
        <time>2025-09-20T13:26:29Z</time>
      </trkpt>
      <trkpt lat="44.22127" lon="3.00662">
        <ele>873.98</ele>
        <time>2025-09-20T13:26:32Z</time>
      </trkpt>
      <trkpt lat="44.22127" lon="3.0066">
        <ele>873.98</ele>
        <time>2025-09-20T13:26:33Z</time>
      </trkpt>
      <trkpt lat="44.22129" lon="3.00638">
        <ele>874.46</ele>
        <time>2025-09-20T13:26:46Z</time>
      </trkpt>
      <trkpt lat="44.22126" lon="3.00607">
        <ele>874.94</ele>
        <time>2025-09-20T13:27:04Z</time>
      </trkpt>
      <trkpt lat="44.22124" lon="3.00603">
        <ele>875.42</ele>
        <time>2025-09-20T13:27:17Z</time>
      </trkpt>
      <trkpt lat="44.22126" lon="3.006">
        <ele>874.94</ele>
        <time>2025-09-20T13:27:26Z</time>
      </trkpt>
      <trkpt lat="44.22127" lon="3.00593">
        <ele>874.94</ele>
        <time>2025-09-20T13:27:38Z</time>
      </trkpt>
      <trkpt lat="44.22127" lon="3.00592">
        <ele>874.94</ele>
        <time>2025-09-20T13:27:39Z</time>
      </trkpt>
      <trkpt lat="44.22127" lon="3.0059">
        <ele>874.94</ele>
        <time>2025-09-20T13:27:40Z</time>
      </trkpt>
      <trkpt lat="44.22128" lon="3.00589">
        <ele>874.94</ele>
        <time>2025-09-20T13:27:41Z</time>
      </trkpt>
      <trkpt lat="44.22128" lon="3.00587">
        <ele>875.42</ele>
        <time>2025-09-20T13:27:42Z</time>
      </trkpt>
      <trkpt lat="44.22128" lon="3.00585">
        <ele>875.42</ele>
        <time>2025-09-20T13:27:43Z</time>
      </trkpt>
      <trkpt lat="44.22128" lon="3.0056">
        <ele>876.38</ele>
        <time>2025-09-20T13:27:57Z</time>
      </trkpt>
      <trkpt lat="44.22126" lon="3.00533">
        <ele>876.38</ele>
        <time>2025-09-20T13:28:12Z</time>
      </trkpt>
      <trkpt lat="44.22123" lon="3.00497">
        <ele>876.38</ele>
        <time>2025-09-20T13:28:30Z</time>
      </trkpt>
      <trkpt lat="44.22122" lon="3.00464">
        <ele>875.9</ele>
        <time>2025-09-20T13:28:46Z</time>
      </trkpt>
      <trkpt lat="44.22119" lon="3.00434">
        <ele>875.42</ele>
        <time>2025-09-20T13:29:01Z</time>
      </trkpt>
      <trkpt lat="44.22099" lon="3.00415">
        <ele>875.42</ele>
        <time>2025-09-20T13:29:18Z</time>
      </trkpt>
      <trkpt lat="44.22072" lon="3.00403">
        <ele>873.98</ele>
        <time>2025-09-20T13:29:37Z</time>
      </trkpt>
      <trkpt lat="44.22044" lon="3.00389">
        <ele>873.5</ele>
        <time>2025-09-20T13:29:56Z</time>
      </trkpt>
      <trkpt lat="44.22013" lon="3.00376">
        <ele>872.05</ele>
        <time>2025-09-20T13:30:17Z</time>
      </trkpt>
      <trkpt lat="44.21987" lon="3.00364">
        <ele>871.09</ele>
        <time>2025-09-20T13:30:36Z</time>
      </trkpt>
      <trkpt lat="44.21963" lon="3.00355">
        <ele>871.09</ele>
        <time>2025-09-20T13:30:54Z</time>
      </trkpt>
      <trkpt lat="44.21936" lon="3.00342">
        <ele>871.09</ele>
        <time>2025-09-20T13:31:13Z</time>
      </trkpt>
      <trkpt lat="44.21916" lon="3.00332">
        <ele>870.13</ele>
        <time>2025-09-20T13:31:28Z</time>
      </trkpt>
      <trkpt lat="44.21894" lon="3.00321">
        <ele>870.13</ele>
        <time>2025-09-20T13:31:44Z</time>
      </trkpt>
      <trkpt lat="44.21866" lon="3.00307">
        <ele>871.09</ele>
        <time>2025-09-20T13:32:05Z</time>
      </trkpt>
      <trkpt lat="44.21841" lon="3.00295">
        <ele>872.53</ele>
        <time>2025-09-20T13:32:25Z</time>
      </trkpt>
      <trkpt lat="44.21828" lon="3.00288">
        <ele>873.01</ele>
        <time>2025-09-20T13:32:38Z</time>
      </trkpt>
      <trkpt lat="44.21828" lon="3.00287">
        <ele>873.5</ele>
        <time>2025-09-20T13:33:07Z</time>
      </trkpt>
      <trkpt lat="44.21823" lon="3.00288">
        <ele>873.98</ele>
        <time>2025-09-20T13:33:20Z</time>
      </trkpt>
      <trkpt lat="44.21822" lon="3.00288">
        <ele>873.98</ele>
        <time>2025-09-20T13:33:22Z</time>
      </trkpt>
      <trkpt lat="44.21821" lon="3.00287">
        <ele>873.98</ele>
        <time>2025-09-20T13:33:23Z</time>
      </trkpt>
      <trkpt lat="44.2181" lon="3.00278">
        <ele>874.94</ele>
        <time>2025-09-20T13:33:35Z</time>
      </trkpt>
      <trkpt lat="44.21809" lon="3.00278">
        <ele>874.94</ele>
        <time>2025-09-20T13:33:36Z</time>
      </trkpt>
      <trkpt lat="44.21808" lon="3.00278">
        <ele>874.94</ele>
        <time>2025-09-20T13:33:37Z</time>
      </trkpt>
      <trkpt lat="44.21806" lon="3.0028">
        <ele>875.42</ele>
        <time>2025-09-20T13:33:52Z</time>
      </trkpt>
      <trkpt lat="44.21802" lon="3.0028">
        <ele>876.86</ele>
        <time>2025-09-20T13:34:11Z</time>
      </trkpt>
      <trkpt lat="44.21802" lon="3.00278">
        <ele>876.86</ele>
        <time>2025-09-20T13:34:32Z</time>
      </trkpt>
      <trkpt lat="44.21805" lon="3.00276">
        <ele>876.38</ele>
        <time>2025-09-20T13:34:52Z</time>
      </trkpt>
      <trkpt lat="44.21805" lon="3.00275">
        <ele>875.9</ele>
        <time>2025-09-20T13:35:13Z</time>
      </trkpt>
      <trkpt lat="44.21802" lon="3.00275">
        <ele>875.9</ele>
        <time>2025-09-20T13:35:16Z</time>
      </trkpt>
      <trkpt lat="44.21792" lon="3.00268">
        <ele>875.9</ele>
        <time>2025-09-20T13:35:25Z</time>
      </trkpt>
      <trkpt lat="44.2179" lon="3.00267">
        <ele>875.9</ele>
        <time>2025-09-20T13:35:26Z</time>
      </trkpt>
      <trkpt lat="44.21768" lon="3.0026">
        <ele>876.38</ele>
        <time>2025-09-20T13:35:44Z</time>
      </trkpt>
      <trkpt lat="44.2175" lon="3.00252">
        <ele>874.46</ele>
        <time>2025-09-20T13:36:00Z</time>
      </trkpt>
      <trkpt lat="44.21724" lon="3.0024">
        <ele>871.09</ele>
        <time>2025-09-20T13:36:20Z</time>
      </trkpt>
      <trkpt lat="44.21698" lon="3.0023">
        <ele>869.65</ele>
        <time>2025-09-20T13:36:40Z</time>
      </trkpt>
      <trkpt lat="44.21671" lon="3.0022">
        <ele>865.8</ele>
        <time>2025-09-20T13:37:01Z</time>
      </trkpt>
      <trkpt lat="44.21652" lon="3.00198">
        <ele>864.36</ele>
        <time>2025-09-20T13:37:18Z</time>
      </trkpt>
      <trkpt lat="44.21636" lon="3.00166">
        <ele>864.36</ele>
        <time>2025-09-20T13:37:38Z</time>
      </trkpt>
      <trkpt lat="44.21622" lon="3.00137">
        <ele>861.96</ele>
        <time>2025-09-20T13:37:57Z</time>
      </trkpt>
      <trkpt lat="44.21618" lon="3.0013">
        <ele>861.48</ele>
        <time>2025-09-20T13:38:02Z</time>
      </trkpt>
      <trkpt lat="44.21616" lon="3.00126">
        <ele>861.48</ele>
        <time>2025-09-20T13:38:05Z</time>
      </trkpt>
      <trkpt lat="44.21615" lon="3.00125">
        <ele>861.48</ele>
        <time>2025-09-20T13:38:06Z</time>
      </trkpt>
      <trkpt lat="44.21614" lon="3.00123">
        <ele>861</ele>
        <time>2025-09-20T13:38:07Z</time>
      </trkpt>
      <trkpt lat="44.21598" lon="3.00095">
        <ele>859.56</ele>
        <time>2025-09-20T13:38:26Z</time>
      </trkpt>
      <trkpt lat="44.21587" lon="3.0007">
        <ele>857.15</ele>
        <time>2025-09-20T13:38:41Z</time>
      </trkpt>
      <trkpt lat="44.21574" lon="3.00041">
        <ele>853.79</ele>
        <time>2025-09-20T13:38:58Z</time>
      </trkpt>
      <trkpt lat="44.21562" lon="3.00017">
        <ele>850.9</ele>
        <time>2025-09-20T13:39:13Z</time>
      </trkpt>
      <trkpt lat="44.21546" lon="2.99988">
        <ele>847.06</ele>
        <time>2025-09-20T13:39:32Z</time>
      </trkpt>
      <trkpt lat="44.21539" lon="2.99964">
        <ele>845.62</ele>
        <time>2025-09-20T13:39:45Z</time>
      </trkpt>
      <trkpt lat="44.21538" lon="2.9996">
        <ele>845.14</ele>
        <time>2025-09-20T13:39:48Z</time>
      </trkpt>
      <trkpt lat="44.21538" lon="2.99957">
        <ele>845.14</ele>
        <time>2025-09-20T13:39:49Z</time>
      </trkpt>
      <trkpt lat="44.21538" lon="2.99956">
        <ele>845.14</ele>
        <time>2025-09-20T13:39:50Z</time>
      </trkpt>
      <trkpt lat="44.21538" lon="2.99954">
        <ele>844.66</ele>
        <time>2025-09-20T13:39:51Z</time>
      </trkpt>
      <trkpt lat="44.21538" lon="2.99952">
        <ele>844.66</ele>
        <time>2025-09-20T13:39:52Z</time>
      </trkpt>
      <trkpt lat="44.21539" lon="2.99949">
        <ele>844.66</ele>
        <time>2025-09-20T13:39:53Z</time>
      </trkpt>
      <trkpt lat="44.21539" lon="2.99948">
        <ele>844.18</ele>
        <time>2025-09-20T13:39:54Z</time>
      </trkpt>
      <trkpt lat="44.21539" lon="2.99946">
        <ele>844.18</ele>
        <time>2025-09-20T13:39:55Z</time>
      </trkpt>
      <trkpt lat="44.2154" lon="2.99944">
        <ele>844.18</ele>
        <time>2025-09-20T13:39:56Z</time>
      </trkpt>
      <trkpt lat="44.2154" lon="2.99942">
        <ele>844.18</ele>
        <time>2025-09-20T13:39:57Z</time>
      </trkpt>
      <trkpt lat="44.21541" lon="2.9994">
        <ele>844.18</ele>
        <time>2025-09-20T13:39:58Z</time>
      </trkpt>
      <trkpt lat="44.21541" lon="2.99938">
        <ele>844.18</ele>
        <time>2025-09-20T13:39:59Z</time>
      </trkpt>
      <trkpt lat="44.21546" lon="2.99905">
        <ele>843.21</ele>
        <time>2025-09-20T13:40:15Z</time>
      </trkpt>
      <trkpt lat="44.21551" lon="2.99872">
        <ele>842.73</ele>
        <time>2025-09-20T13:40:32Z</time>
      </trkpt>
      <trkpt lat="44.2156" lon="2.99839">
        <ele>840.33</ele>
        <time>2025-09-20T13:40:48Z</time>
      </trkpt>
      <trkpt lat="44.21568" lon="2.99813">
        <ele>838.89</ele>
        <time>2025-09-20T13:41:02Z</time>
      </trkpt>
      <trkpt lat="44.21577" lon="2.99782">
        <ele>839.85</ele>
        <time>2025-09-20T13:41:16Z</time>
      </trkpt>
      <trkpt lat="44.21586" lon="2.99756">
        <ele>839.37</ele>
        <time>2025-09-20T13:41:31Z</time>
      </trkpt>
      <trkpt lat="44.21589" lon="2.99726">
        <ele>838.41</ele>
        <time>2025-09-20T13:41:46Z</time>
      </trkpt>
      <trkpt lat="44.21591" lon="2.99705">
        <ele>839.85</ele>
        <time>2025-09-20T13:41:57Z</time>
      </trkpt>
      <trkpt lat="44.21592" lon="2.99703">
        <ele>839.85</ele>
        <time>2025-09-20T13:41:58Z</time>
      </trkpt>
      <trkpt lat="44.21592" lon="2.99697">
        <ele>839.85</ele>
        <time>2025-09-20T13:42:02Z</time>
      </trkpt>
      <trkpt lat="44.21592" lon="2.99695">
        <ele>839.85</ele>
        <time>2025-09-20T13:42:03Z</time>
      </trkpt>
      <trkpt lat="44.21592" lon="2.99693">
        <ele>839.85</ele>
        <time>2025-09-20T13:42:04Z</time>
      </trkpt>
      <trkpt lat="44.21592" lon="2.99692">
        <ele>839.85</ele>
        <time>2025-09-20T13:42:05Z</time>
      </trkpt>
      <trkpt lat="44.21592" lon="2.9969">
        <ele>840.33</ele>
        <time>2025-09-20T13:42:06Z</time>
      </trkpt>
      <trkpt lat="44.21592" lon="2.99688">
        <ele>840.33</ele>
        <time>2025-09-20T13:42:07Z</time>
      </trkpt>
      <trkpt lat="44.21592" lon="2.99686">
        <ele>840.33</ele>
        <time>2025-09-20T13:42:08Z</time>
      </trkpt>
      <trkpt lat="44.21597" lon="2.9965">
        <ele>842.73</ele>
        <time>2025-09-20T13:42:27Z</time>
      </trkpt>
      <trkpt lat="44.21599" lon="2.99625">
        <ele>845.62</ele>
        <time>2025-09-20T13:42:40Z</time>
      </trkpt>
      <trkpt lat="44.21606" lon="2.99592">
        <ele>848.02</ele>
        <time>2025-09-20T13:42:57Z</time>
      </trkpt>
      <trkpt lat="44.21606" lon="2.99566">
        <ele>850.42</ele>
        <time>2025-09-20T13:43:11Z</time>
      </trkpt>
      <trkpt lat="44.21607" lon="2.99564">
        <ele>850.9</ele>
        <time>2025-09-20T13:43:12Z</time>
      </trkpt>
      <trkpt lat="44.21607" lon="2.99562">
        <ele>850.9</ele>
        <time>2025-09-20T13:43:13Z</time>
      </trkpt>
      <trkpt lat="44.21607" lon="2.99561">
        <ele>850.9</ele>
        <time>2025-09-20T13:43:14Z</time>
      </trkpt>
      <trkpt lat="44.21607" lon="2.99559">
        <ele>850.9</ele>
        <time>2025-09-20T13:43:15Z</time>
      </trkpt>
      <trkpt lat="44.21607" lon="2.99556">
        <ele>851.38</ele>
        <time>2025-09-20T13:43:16Z</time>
      </trkpt>
      <trkpt lat="44.21607" lon="2.99554">
        <ele>851.38</ele>
        <time>2025-09-20T13:43:17Z</time>
      </trkpt>
      <trkpt lat="44.21607" lon="2.99552">
        <ele>851.38</ele>
        <time>2025-09-20T13:43:18Z</time>
      </trkpt>
      <trkpt lat="44.21607" lon="2.99543">
        <ele>852.35</ele>
        <time>2025-09-20T13:43:23Z</time>
      </trkpt>
      <trkpt lat="44.21607" lon="2.99541">
        <ele>852.35</ele>
        <time>2025-09-20T13:43:24Z</time>
      </trkpt>
      <trkpt lat="44.21605" lon="2.99515">
        <ele>855.23</ele>
        <time>2025-09-20T13:43:37Z</time>
      </trkpt>
      <trkpt lat="44.21606" lon="2.99486">
        <ele>855.71</ele>
        <time>2025-09-20T13:43:53Z</time>
      </trkpt>
      <trkpt lat="44.21608" lon="2.99455">
        <ele>856.67</ele>
        <time>2025-09-20T13:44:13Z</time>
      </trkpt>
      <trkpt lat="44.21602" lon="2.9945">
        <ele>856.19</ele>
        <time>2025-09-20T13:44:21Z</time>
      </trkpt>
      <trkpt lat="44.21578" lon="2.99442">
        <ele>856.67</ele>
        <time>2025-09-20T13:44:37Z</time>
      </trkpt>
      <trkpt lat="44.21554" lon="2.99424">
        <ele>856.19</ele>
        <time>2025-09-20T13:44:54Z</time>
      </trkpt>
      <trkpt lat="44.21535" lon="2.99408">
        <ele>855.71</ele>
        <time>2025-09-20T13:45:10Z</time>
      </trkpt>
      <trkpt lat="44.21513" lon="2.99392">
        <ele>855.71</ele>
        <time>2025-09-20T13:45:28Z</time>
      </trkpt>
      <trkpt lat="44.2149" lon="2.99379">
        <ele>857.15</ele>
        <time>2025-09-20T13:45:47Z</time>
      </trkpt>
      <trkpt lat="44.21467" lon="2.9936">
        <ele>859.56</ele>
        <time>2025-09-20T13:46:07Z</time>
      </trkpt>
      <trkpt lat="44.21444" lon="2.99345">
        <ele>861.48</ele>
        <time>2025-09-20T13:46:25Z</time>
      </trkpt>
      <trkpt lat="44.21428" lon="2.99338">
        <ele>861.96</ele>
        <time>2025-09-20T13:46:38Z</time>
      </trkpt>
      <trkpt lat="44.21402" lon="2.99324">
        <ele>861.96</ele>
        <time>2025-09-20T13:46:56Z</time>
      </trkpt>
      <trkpt lat="44.2138" lon="2.99307">
        <ele>860.52</ele>
        <time>2025-09-20T13:47:14Z</time>
      </trkpt>
      <trkpt lat="44.21356" lon="2.99293">
        <ele>861</ele>
        <time>2025-09-20T13:47:31Z</time>
      </trkpt>
      <trkpt lat="44.21332" lon="2.99273">
        <ele>861.96</ele>
        <time>2025-09-20T13:47:49Z</time>
      </trkpt>
      <trkpt lat="44.2131" lon="2.99251">
        <ele>859.08</ele>
        <time>2025-09-20T13:48:08Z</time>
      </trkpt>
      <trkpt lat="44.21291" lon="2.9923">
        <ele>857.63</ele>
        <time>2025-09-20T13:48:26Z</time>
      </trkpt>
      <trkpt lat="44.21273" lon="2.99211">
        <ele>857.63</ele>
        <time>2025-09-20T13:48:43Z</time>
      </trkpt>
      <trkpt lat="44.21257" lon="2.9919">
        <ele>857.15</ele>
        <time>2025-09-20T13:49:00Z</time>
      </trkpt>
      <trkpt lat="44.21251" lon="2.99178">
        <ele>856.19</ele>
        <time>2025-09-20T13:49:15Z</time>
      </trkpt>
      <trkpt lat="44.21237" lon="2.99152">
        <ele>855.23</ele>
        <time>2025-09-20T13:49:32Z</time>
      </trkpt>
      <trkpt lat="44.21236" lon="2.99151">
        <ele>854.75</ele>
        <time>2025-09-20T13:49:33Z</time>
      </trkpt>
      <trkpt lat="44.21235" lon="2.9915">
        <ele>854.75</ele>
        <time>2025-09-20T13:49:34Z</time>
      </trkpt>
      <trkpt lat="44.21234" lon="2.99149">
        <ele>854.75</ele>
        <time>2025-09-20T13:49:35Z</time>
      </trkpt>
      <trkpt lat="44.21233" lon="2.99147">
        <ele>854.75</ele>
        <time>2025-09-20T13:49:36Z</time>
      </trkpt>
      <trkpt lat="44.21233" lon="2.99145">
        <ele>854.75</ele>
        <time>2025-09-20T13:49:37Z</time>
      </trkpt>
      <trkpt lat="44.21232" lon="2.99144">
        <ele>854.27</ele>
        <time>2025-09-20T13:49:38Z</time>
      </trkpt>
      <trkpt lat="44.21231" lon="2.99142">
        <ele>854.27</ele>
        <time>2025-09-20T13:49:39Z</time>
      </trkpt>
      <trkpt lat="44.21229" lon="2.99137">
        <ele>853.79</ele>
        <time>2025-09-20T13:49:43Z</time>
      </trkpt>
      <trkpt lat="44.21233" lon="2.99133">
        <ele>852.35</ele>
        <time>2025-09-20T13:49:51Z</time>
      </trkpt>
      <trkpt lat="44.21237" lon="2.9913">
        <ele>852.35</ele>
        <time>2025-09-20T13:49:56Z</time>
      </trkpt>
      <trkpt lat="44.21254" lon="2.99118">
        <ele>850.9</ele>
        <time>2025-09-20T13:50:12Z</time>
      </trkpt>
      <trkpt lat="44.21268" lon="2.99114">
        <ele>848.98</ele>
        <time>2025-09-20T13:50:25Z</time>
      </trkpt>
      <trkpt lat="44.2127" lon="2.99114">
        <ele>848.98</ele>
        <time>2025-09-20T13:50:26Z</time>
      </trkpt>
      <trkpt lat="44.21271" lon="2.99114">
        <ele>848.98</ele>
        <time>2025-09-20T13:50:27Z</time>
      </trkpt>
      <trkpt lat="44.21276" lon="2.99112">
        <ele>848.98</ele>
        <time>2025-09-20T13:50:30Z</time>
      </trkpt>
      <trkpt lat="44.21292" lon="2.99106">
        <ele>846.1</ele>
        <time>2025-09-20T13:50:45Z</time>
      </trkpt>
      <trkpt lat="44.2131" lon="2.99097">
        <ele>841.77</ele>
        <time>2025-09-20T13:51:00Z</time>
      </trkpt>
      <trkpt lat="44.21311" lon="2.99095">
        <ele>841.29</ele>
        <time>2025-09-20T13:51:01Z</time>
      </trkpt>
      <trkpt lat="44.21324" lon="2.99092">
        <ele>840.33</ele>
        <time>2025-09-20T13:51:11Z</time>
      </trkpt>
      <trkpt lat="44.21326" lon="2.99091">
        <ele>840.33</ele>
        <time>2025-09-20T13:51:12Z</time>
      </trkpt>
      <trkpt lat="44.21327" lon="2.99091">
        <ele>839.85</ele>
        <time>2025-09-20T13:51:13Z</time>
      </trkpt>
      <trkpt lat="44.21347" lon="2.99079">
        <ele>837.45</ele>
        <time>2025-09-20T13:51:29Z</time>
      </trkpt>
      <trkpt lat="44.21358" lon="2.99075">
        <ele>835.52</ele>
        <time>2025-09-20T13:51:37Z</time>
      </trkpt>
      <trkpt lat="44.21375" lon="2.99064">
        <ele>830.24</ele>
        <time>2025-09-20T13:51:52Z</time>
      </trkpt>
      <trkpt lat="44.21394" lon="2.9906">
        <ele>826.39</ele>
        <time>2025-09-20T13:52:08Z</time>
      </trkpt>
      <trkpt lat="44.21416" lon="2.99059">
        <ele>823.99</ele>
        <time>2025-09-20T13:52:24Z</time>
      </trkpt>
      <trkpt lat="44.21436" lon="2.99055">
        <ele>820.62</ele>
        <time>2025-09-20T13:52:40Z</time>
      </trkpt>
      <trkpt lat="44.21459" lon="2.99043">
        <ele>822.06</ele>
        <time>2025-09-20T13:52:56Z</time>
      </trkpt>
      <trkpt lat="44.21476" lon="2.9903">
        <ele>823.03</ele>
        <time>2025-09-20T13:53:11Z</time>
      </trkpt>
      <trkpt lat="44.21487" lon="2.99022">
        <ele>822.06</ele>
        <time>2025-09-20T13:53:21Z</time>
      </trkpt>
      <trkpt lat="44.21488" lon="2.99021">
        <ele>822.06</ele>
        <time>2025-09-20T13:53:22Z</time>
      </trkpt>
      <trkpt lat="44.21507" lon="2.99013">
        <ele>817.74</ele>
        <time>2025-09-20T13:53:38Z</time>
      </trkpt>
      <trkpt lat="44.21508" lon="2.99013">
        <ele>817.74</ele>
        <time>2025-09-20T13:53:39Z</time>
      </trkpt>
      <trkpt lat="44.21509" lon="2.99012">
        <ele>817.26</ele>
        <time>2025-09-20T13:53:40Z</time>
      </trkpt>
      <trkpt lat="44.21528" lon="2.99001">
        <ele>814.37</ele>
        <time>2025-09-20T13:53:55Z</time>
      </trkpt>
      <trkpt lat="44.21531" lon="2.99001">
        <ele>814.85</ele>
        <time>2025-09-20T13:53:57Z</time>
      </trkpt>
      <trkpt lat="44.21533" lon="2.99001">
        <ele>814.85</ele>
        <time>2025-09-20T13:53:58Z</time>
      </trkpt>
      <trkpt lat="44.21534" lon="2.99001">
        <ele>814.85</ele>
        <time>2025-09-20T13:53:59Z</time>
      </trkpt>
      <trkpt lat="44.21538" lon="2.98999">
        <ele>814.85</ele>
        <time>2025-09-20T13:54:03Z</time>
      </trkpt>
      <trkpt lat="44.21539" lon="2.98999">
        <ele>814.85</ele>
        <time>2025-09-20T13:54:04Z</time>
      </trkpt>
      <trkpt lat="44.21556" lon="2.98993">
        <ele>811.49</ele>
        <time>2025-09-20T13:54:18Z</time>
      </trkpt>
      <trkpt lat="44.2156" lon="2.98992">
        <ele>811.01</ele>
        <time>2025-09-20T13:54:21Z</time>
      </trkpt>
      <trkpt lat="44.21561" lon="2.98992">
        <ele>811.01</ele>
        <time>2025-09-20T13:54:22Z</time>
      </trkpt>
      <trkpt lat="44.21564" lon="2.98991">
        <ele>810.53</ele>
        <time>2025-09-20T13:54:25Z</time>
      </trkpt>
      <trkpt lat="44.21566" lon="2.98991">
        <ele>810.05</ele>
        <time>2025-09-20T13:54:26Z</time>
      </trkpt>
      <trkpt lat="44.21567" lon="2.98991">
        <ele>809.57</ele>
        <time>2025-09-20T13:54:27Z</time>
      </trkpt>
      <trkpt lat="44.21569" lon="2.9899">
        <ele>809.09</ele>
        <time>2025-09-20T13:54:28Z</time>
      </trkpt>
      <trkpt lat="44.21572" lon="2.98989">
        <ele>809.09</ele>
        <time>2025-09-20T13:54:30Z</time>
      </trkpt>
      <trkpt lat="44.21591" lon="2.98983">
        <ele>811.01</ele>
        <time>2025-09-20T13:54:44Z</time>
      </trkpt>
      <trkpt lat="44.21614" lon="2.98983">
        <ele>811.01</ele>
        <time>2025-09-20T13:55:00Z</time>
      </trkpt>
      <trkpt lat="44.21638" lon="2.98979">
        <ele>810.53</ele>
        <time>2025-09-20T13:55:18Z</time>
      </trkpt>
      <trkpt lat="44.21652" lon="2.98977">
        <ele>809.57</ele>
        <time>2025-09-20T13:55:30Z</time>
      </trkpt>
      <trkpt lat="44.21655" lon="2.98976">
        <ele>809.57</ele>
        <time>2025-09-20T13:55:32Z</time>
      </trkpt>
      <trkpt lat="44.21663" lon="2.98967">
        <ele>808.61</ele>
        <time>2025-09-20T13:55:42Z</time>
      </trkpt>
      <trkpt lat="44.21663" lon="2.98966">
        <ele>808.61</ele>
        <time>2025-09-20T13:55:43Z</time>
      </trkpt>
      <trkpt lat="44.21659" lon="2.98944">
        <ele>806.68</ele>
        <time>2025-09-20T13:55:59Z</time>
      </trkpt>
      <trkpt lat="44.21657" lon="2.98942">
        <ele>806.2</ele>
        <time>2025-09-20T13:56:01Z</time>
      </trkpt>
      <trkpt lat="44.21653" lon="2.98935">
        <ele>805.72</ele>
        <time>2025-09-20T13:56:07Z</time>
      </trkpt>
      <trkpt lat="44.21652" lon="2.98934">
        <ele>805.72</ele>
        <time>2025-09-20T13:56:08Z</time>
      </trkpt>
      <trkpt lat="44.21645" lon="2.98924">
        <ele>805.24</ele>
        <time>2025-09-20T13:56:17Z</time>
      </trkpt>
      <trkpt lat="44.21635" lon="2.98912">
        <ele>803.8</ele>
        <time>2025-09-20T13:56:32Z</time>
      </trkpt>
      <trkpt lat="44.21633" lon="2.98911">
        <ele>801.88</ele>
        <time>2025-09-20T13:56:52Z</time>
      </trkpt>
      <trkpt lat="44.21631" lon="2.98911">
        <ele>801.4</ele>
        <time>2025-09-20T13:56:54Z</time>
      </trkpt>
      <trkpt lat="44.2163" lon="2.98911">
        <ele>801.4</ele>
        <time>2025-09-20T13:56:55Z</time>
      </trkpt>
      <trkpt lat="44.21629" lon="2.9891">
        <ele>801.4</ele>
        <time>2025-09-20T13:56:56Z</time>
      </trkpt>
      <trkpt lat="44.21616" lon="2.98902">
        <ele>800.92</ele>
        <time>2025-09-20T13:57:10Z</time>
      </trkpt>
      <trkpt lat="44.21616" lon="2.98901">
        <ele>801.4</ele>
        <time>2025-09-20T13:57:11Z</time>
      </trkpt>
      <trkpt lat="44.21626" lon="2.98892">
        <ele>802.36</ele>
        <time>2025-09-20T13:57:22Z</time>
      </trkpt>
      <trkpt lat="44.21629" lon="2.98894">
        <ele>802.36</ele>
        <time>2025-09-20T13:57:39Z</time>
      </trkpt>
      <trkpt lat="44.21627" lon="2.98895">
        <ele>805.72</ele>
        <time>2025-09-20T13:58:05Z</time>
      </trkpt>
      <trkpt lat="44.21627" lon="2.98891">
        <ele>805.72</ele>
        <time>2025-09-20T13:58:27Z</time>
      </trkpt>
      <trkpt lat="44.21627" lon="2.98889">
        <ele>805.24</ele>
        <time>2025-09-20T13:58:58Z</time>
      </trkpt>
      <trkpt lat="44.21628" lon="2.98891">
        <ele>803.8</ele>
        <time>2025-09-20T13:59:23Z</time>
      </trkpt>
      <trkpt lat="44.21631" lon="2.98895">
        <ele>803.32</ele>
        <time>2025-09-20T13:59:38Z</time>
      </trkpt>
      <trkpt lat="44.21626" lon="2.989">
        <ele>802.84</ele>
        <time>2025-09-20T13:59:59Z</time>
      </trkpt>
      <trkpt lat="44.21618" lon="2.98899">
        <ele>803.8</ele>
        <time>2025-09-20T14:00:14Z</time>
      </trkpt>
      <trkpt lat="44.21618" lon="2.98899">
        <ele>804.76</ele>
        <time>2025-09-20T14:00:35Z</time>
      </trkpt>
      <trkpt lat="44.21618" lon="2.98898">
        <ele>804.76</ele>
        <time>2025-09-20T14:00:56Z</time>
      </trkpt>
      <trkpt lat="44.21618" lon="2.98897">
        <ele>804.28</ele>
        <time>2025-09-20T14:01:16Z</time>
      </trkpt>
      <trkpt lat="44.2162" lon="2.98903">
        <ele>804.76</ele>
        <time>2025-09-20T14:01:38Z</time>
      </trkpt>
      <trkpt lat="44.21617" lon="2.98905">
        <ele>807.64</ele>
        <time>2025-09-20T14:01:56Z</time>
      </trkpt>
      <trkpt lat="44.21622" lon="2.98899">
        <ele>808.61</ele>
        <time>2025-09-20T14:02:11Z</time>
      </trkpt>
      <trkpt lat="44.21629" lon="2.98895">
        <ele>807.64</ele>
        <time>2025-09-20T14:02:28Z</time>
      </trkpt>
      <trkpt lat="44.2163" lon="2.98894">
        <ele>808.13</ele>
        <time>2025-09-20T14:02:47Z</time>
      </trkpt>
      <trkpt lat="44.2163" lon="2.98896">
        <ele>807.64</ele>
        <time>2025-09-20T14:02:49Z</time>
      </trkpt>
      <trkpt lat="44.2163" lon="2.98897">
        <ele>807.64</ele>
        <time>2025-09-20T14:02:50Z</time>
      </trkpt>
      <trkpt lat="44.21633" lon="2.98912">
        <ele>809.09</ele>
        <time>2025-09-20T14:03:02Z</time>
      </trkpt>
      <trkpt lat="44.21639" lon="2.98923">
        <ele>810.53</ele>
        <time>2025-09-20T14:03:16Z</time>
      </trkpt>
      <trkpt lat="44.21648" lon="2.9894">
        <ele>809.57</ele>
        <time>2025-09-20T14:03:34Z</time>
      </trkpt>
      <trkpt lat="44.21647" lon="2.98942">
        <ele>809.57</ele>
        <time>2025-09-20T14:03:37Z</time>
      </trkpt>
      <trkpt lat="44.21643" lon="2.98938">
        <ele>812.93</ele>
        <time>2025-09-20T14:03:50Z</time>
      </trkpt>
      <trkpt lat="44.21651" lon="2.98945">
        <ele>818.22</ele>
        <time>2025-09-20T14:09:01Z</time>
      </trkpt>
      <trkpt lat="44.21645" lon="2.98938">
        <ele>814.37</ele>
        <time>2025-09-20T14:09:11Z</time>
      </trkpt>
      <trkpt lat="44.21645" lon="2.98928">
        <ele>815.82</ele>
        <time>2025-09-20T14:09:25Z</time>
      </trkpt>
      <trkpt lat="44.21648" lon="2.98917">
        <ele>814.37</ele>
        <time>2025-09-20T14:09:33Z</time>
      </trkpt>
      <trkpt lat="44.21645" lon="2.98894">
        <ele>811.01</ele>
        <time>2025-09-20T14:09:50Z</time>
      </trkpt>
      <trkpt lat="44.21642" lon="2.98887">
        <ele>808.13</ele>
        <time>2025-09-20T14:10:06Z</time>
      </trkpt>
      <trkpt lat="44.21645" lon="2.98885">
        <ele>806.68</ele>
        <time>2025-09-20T14:10:21Z</time>
      </trkpt>
      <trkpt lat="44.21643" lon="2.98888">
        <ele>804.76</ele>
        <time>2025-09-20T14:10:40Z</time>
      </trkpt>
      <trkpt lat="44.21644" lon="2.98886">
        <ele>802.84</ele>
        <time>2025-09-20T14:10:59Z</time>
      </trkpt>
      <trkpt lat="44.21644" lon="2.98883">
        <ele>800.44</ele>
        <time>2025-09-20T14:11:22Z</time>
      </trkpt>
      <trkpt lat="44.21645" lon="2.98884">
        <ele>801.4</ele>
        <time>2025-09-20T14:11:36Z</time>
      </trkpt>
      <trkpt lat="44.21645" lon="2.98886">
        <ele>800.44</ele>
        <time>2025-09-20T14:12:00Z</time>
      </trkpt>
      <trkpt lat="44.21647" lon="2.98885">
        <ele>801.88</ele>
        <time>2025-09-20T14:12:26Z</time>
      </trkpt>
      <trkpt lat="44.21645" lon="2.98885">
        <ele>802.36</ele>
        <time>2025-09-20T14:12:43Z</time>
      </trkpt>
      <trkpt lat="44.21646" lon="2.98881">
        <ele>803.32</ele>
        <time>2025-09-20T14:13:04Z</time>
      </trkpt>
      <trkpt lat="44.21645" lon="2.9888">
        <ele>803.8</ele>
        <time>2025-09-20T14:13:26Z</time>
      </trkpt>
      <trkpt lat="44.21647" lon="2.98881">
        <ele>804.28</ele>
        <time>2025-09-20T14:13:58Z</time>
      </trkpt>
      <trkpt lat="44.21646" lon="2.98885">
        <ele>803.32</ele>
        <time>2025-09-20T14:14:18Z</time>
      </trkpt>
      <trkpt lat="44.21646" lon="2.98883">
        <ele>802.36</ele>
        <time>2025-09-20T14:14:34Z</time>
      </trkpt>
      <trkpt lat="44.21646" lon="2.98881">
        <ele>802.36</ele>
        <time>2025-09-20T14:14:53Z</time>
      </trkpt>
      <trkpt lat="44.21646" lon="2.98881">
        <ele>801.4</ele>
        <time>2025-09-20T14:15:15Z</time>
      </trkpt>
      <trkpt lat="44.21645" lon="2.98886">
        <ele>801.4</ele>
        <time>2025-09-20T14:15:34Z</time>
      </trkpt>
      <trkpt lat="44.21646" lon="2.98884">
        <ele>800.92</ele>
        <time>2025-09-20T14:15:44Z</time>
      </trkpt>
      <trkpt lat="44.21649" lon="2.98886">
        <ele>801.88</ele>
        <time>2025-09-20T14:15:58Z</time>
      </trkpt>
      <trkpt lat="44.21649" lon="2.98885">
        <ele>802.36</ele>
        <time>2025-09-20T14:16:16Z</time>
      </trkpt>
      <trkpt lat="44.21651" lon="2.98884">
        <ele>802.36</ele>
        <time>2025-09-20T14:16:31Z</time>
      </trkpt>
      <trkpt lat="44.21649" lon="2.98883">
        <ele>801.88</ele>
        <time>2025-09-20T14:16:57Z</time>
      </trkpt>
      <trkpt lat="44.21649" lon="2.98881">
        <ele>802.36</ele>
        <time>2025-09-20T14:17:22Z</time>
      </trkpt>
      <trkpt lat="44.21646" lon="2.98883">
        <ele>802.84</ele>
        <time>2025-09-20T14:18:00Z</time>
      </trkpt>
      <trkpt lat="44.21646" lon="2.98882">
        <ele>802.84</ele>
        <time>2025-09-20T14:18:25Z</time>
      </trkpt>
      <trkpt lat="44.21648" lon="2.98883">
        <ele>802.84</ele>
        <time>2025-09-20T14:18:59Z</time>
      </trkpt>
      <trkpt lat="44.2165" lon="2.9888">
        <ele>804.28</ele>
        <time>2025-09-20T14:19:31Z</time>
      </trkpt>
      <trkpt lat="44.21649" lon="2.98885">
        <ele>802.36</ele>
        <time>2025-09-20T14:19:57Z</time>
      </trkpt>
      <trkpt lat="44.2165" lon="2.98887">
        <ele>800.92</ele>
        <time>2025-09-20T14:20:20Z</time>
      </trkpt>
      <trkpt lat="44.21648" lon="2.9889">
        <ele>802.84</ele>
        <time>2025-09-20T14:20:41Z</time>
      </trkpt>
      <trkpt lat="44.21648" lon="2.98887">
        <ele>801.88</ele>
        <time>2025-09-20T14:20:57Z</time>
      </trkpt>
      <trkpt lat="44.21651" lon="2.98886">
        <ele>805.24</ele>
        <time>2025-09-20T14:21:19Z</time>
      </trkpt>
      <trkpt lat="44.21651" lon="2.98885">
        <ele>805.24</ele>
        <time>2025-09-20T14:21:34Z</time>
      </trkpt>
      <trkpt lat="44.21652" lon="2.98893">
        <ele>804.28</ele>
        <time>2025-09-20T14:21:48Z</time>
      </trkpt>
      <trkpt lat="44.21653" lon="2.989">
        <ele>805.72</ele>
        <time>2025-09-20T14:22:02Z</time>
      </trkpt>
      <trkpt lat="44.21643" lon="2.98901">
        <ele>806.2</ele>
        <time>2025-09-20T14:22:14Z</time>
      </trkpt>
      <trkpt lat="44.21623" lon="2.98897">
        <ele>804.28</ele>
        <time>2025-09-20T14:22:33Z</time>
      </trkpt>
      <trkpt lat="44.21603" lon="2.98895">
        <ele>803.32</ele>
        <time>2025-09-20T14:22:50Z</time>
      </trkpt>
      <trkpt lat="44.2158" lon="2.98889">
        <ele>800.92</ele>
        <time>2025-09-20T14:23:07Z</time>
      </trkpt>
      <trkpt lat="44.21564" lon="2.98879">
        <ele>799.95</ele>
        <time>2025-09-20T14:23:23Z</time>
      </trkpt>
      <trkpt lat="44.21564" lon="2.98878">
        <ele>796.59</ele>
        <time>2025-09-20T14:23:47Z</time>
      </trkpt>
      <trkpt lat="44.21555" lon="2.98872">
        <ele>795.63</ele>
        <time>2025-09-20T14:23:57Z</time>
      </trkpt>
      <trkpt lat="44.21537" lon="2.98871">
        <ele>793.71</ele>
        <time>2025-09-20T14:24:13Z</time>
      </trkpt>
      <trkpt lat="44.21523" lon="2.98868">
        <ele>791.78</ele>
        <time>2025-09-20T14:24:27Z</time>
      </trkpt>
      <trkpt lat="44.21503" lon="2.98858">
        <ele>793.71</ele>
        <time>2025-09-20T14:24:43Z</time>
      </trkpt>
      <trkpt lat="44.21487" lon="2.98831">
        <ele>795.15</ele>
        <time>2025-09-20T14:25:01Z</time>
      </trkpt>
      <trkpt lat="44.21473" lon="2.98815">
        <ele>793.71</ele>
        <time>2025-09-20T14:25:17Z</time>
      </trkpt>
      <trkpt lat="44.21463" lon="2.98804">
        <ele>792.26</ele>
        <time>2025-09-20T14:25:33Z</time>
      </trkpt>
      <trkpt lat="44.21465" lon="2.98805">
        <ele>790.82</ele>
        <time>2025-09-20T14:25:52Z</time>
      </trkpt>
      <trkpt lat="44.21473" lon="2.98813">
        <ele>790.82</ele>
        <time>2025-09-20T14:26:06Z</time>
      </trkpt>
      <trkpt lat="44.21471" lon="2.98811">
        <ele>790.82</ele>
        <time>2025-09-20T14:26:14Z</time>
      </trkpt>
      <trkpt lat="44.2147" lon="2.98808">
        <ele>790.82</ele>
        <time>2025-09-20T14:26:16Z</time>
      </trkpt>
      <trkpt lat="44.21455" lon="2.98788">
        <ele>789.38</ele>
        <time>2025-09-20T14:26:33Z</time>
      </trkpt>
      <trkpt lat="44.21454" lon="2.98787">
        <ele>789.38</ele>
        <time>2025-09-20T14:26:34Z</time>
      </trkpt>
      <trkpt lat="44.21445" lon="2.98761">
        <ele>788.9</ele>
        <time>2025-09-20T14:26:50Z</time>
      </trkpt>
      <trkpt lat="44.21435" lon="2.98736">
        <ele>787.46</ele>
        <time>2025-09-20T14:27:05Z</time>
      </trkpt>
      <trkpt lat="44.2142" lon="2.98707">
        <ele>784.57</ele>
        <time>2025-09-20T14:27:24Z</time>
      </trkpt>
      <trkpt lat="44.21399" lon="2.9868">
        <ele>782.17</ele>
        <time>2025-09-20T14:27:45Z</time>
      </trkpt>
      <trkpt lat="44.21375" lon="2.9867">
        <ele>778.81</ele>
        <time>2025-09-20T14:28:04Z</time>
      </trkpt>
      <trkpt lat="44.21369" lon="2.98664">
        <ele>777.36</ele>
        <time>2025-09-20T14:28:11Z</time>
      </trkpt>
      <trkpt lat="44.21375" lon="2.98656">
        <ele>775.92</ele>
        <time>2025-09-20T14:28:19Z</time>
      </trkpt>
      <trkpt lat="44.21397" lon="2.98658">
        <ele>773.04</ele>
        <time>2025-09-20T14:28:37Z</time>
      </trkpt>
      <trkpt lat="44.2142" lon="2.9867">
        <ele>769.67</ele>
        <time>2025-09-20T14:28:56Z</time>
      </trkpt>
      <trkpt lat="44.21442" lon="2.98692">
        <ele>765.35</ele>
        <time>2025-09-20T14:29:14Z</time>
      </trkpt>
      <trkpt lat="44.21459" lon="2.98715">
        <ele>762.46</ele>
        <time>2025-09-20T14:29:32Z</time>
      </trkpt>
      <trkpt lat="44.21477" lon="2.9873">
        <ele>761.5</ele>
        <time>2025-09-20T14:29:48Z</time>
      </trkpt>
      <trkpt lat="44.21489" lon="2.98735">
        <ele>761.02</ele>
        <time>2025-09-20T14:29:57Z</time>
      </trkpt>
      <trkpt lat="44.21493" lon="2.9873">
        <ele>760.54</ele>
        <time>2025-09-20T14:30:04Z</time>
      </trkpt>
      <trkpt lat="44.21488" lon="2.98728">
        <ele>761.02</ele>
        <time>2025-09-20T14:30:09Z</time>
      </trkpt>
      <trkpt lat="44.21475" lon="2.98707">
        <ele>759.1</ele>
        <time>2025-09-20T14:30:25Z</time>
      </trkpt>
      <trkpt lat="44.21469" lon="2.98686">
        <ele>757.18</ele>
        <time>2025-09-20T14:30:38Z</time>
      </trkpt>
      <trkpt lat="44.21466" lon="2.98666">
        <ele>755.25</ele>
        <time>2025-09-20T14:30:52Z</time>
      </trkpt>
      <trkpt lat="44.21464" lon="2.98657">
        <ele>753.81</ele>
        <time>2025-09-20T14:31:07Z</time>
      </trkpt>
      <trkpt lat="44.21464" lon="2.98652">
        <ele>754.29</ele>
        <time>2025-09-20T14:31:22Z</time>
      </trkpt>
      <trkpt lat="44.21464" lon="2.98653">
        <ele>753.33</ele>
        <time>2025-09-20T14:31:36Z</time>
      </trkpt>
      <trkpt lat="44.21464" lon="2.98653">
        <ele>753.81</ele>
        <time>2025-09-20T14:31:51Z</time>
      </trkpt>
      <trkpt lat="44.21463" lon="2.98652">
        <ele>753.81</ele>
        <time>2025-09-20T14:32:04Z</time>
      </trkpt>
      <trkpt lat="44.21462" lon="2.98651">
        <ele>753.81</ele>
        <time>2025-09-20T14:32:23Z</time>
      </trkpt>
      <trkpt lat="44.21459" lon="2.98642">
        <ele>755.25</ele>
        <time>2025-09-20T14:32:38Z</time>
      </trkpt>
      <trkpt lat="44.21449" lon="2.98625">
        <ele>753.81</ele>
        <time>2025-09-20T14:32:53Z</time>
      </trkpt>
      <trkpt lat="44.21432" lon="2.98604">
        <ele>751.89</ele>
        <time>2025-09-20T14:33:11Z</time>
      </trkpt>
      <trkpt lat="44.21414" lon="2.98586">
        <ele>750.45</ele>
        <time>2025-09-20T14:33:27Z</time>
      </trkpt>
      <trkpt lat="44.21392" lon="2.98571">
        <ele>748.52</ele>
        <time>2025-09-20T14:33:45Z</time>
      </trkpt>
      <trkpt lat="44.21367" lon="2.98561">
        <ele>745.64</ele>
        <time>2025-09-20T14:34:02Z</time>
      </trkpt>
      <trkpt lat="44.21345" lon="2.9856">
        <ele>744.2</ele>
        <time>2025-09-20T14:34:16Z</time>
      </trkpt>
      <trkpt lat="44.21315" lon="2.98563">
        <ele>737.95</ele>
        <time>2025-09-20T14:34:35Z</time>
      </trkpt>
      <trkpt lat="44.2129" lon="2.98562">
        <ele>733.62</ele>
        <time>2025-09-20T14:34:51Z</time>
      </trkpt>
      <trkpt lat="44.21265" lon="2.98558">
        <ele>733.62</ele>
        <time>2025-09-20T14:35:07Z</time>
      </trkpt>
      <trkpt lat="44.21236" lon="2.98544">
        <ele>737.47</ele>
        <time>2025-09-20T14:35:25Z</time>
      </trkpt>
      <trkpt lat="44.21209" lon="2.9853">
        <ele>733.62</ele>
        <time>2025-09-20T14:35:43Z</time>
      </trkpt>
      <trkpt lat="44.21185" lon="2.98513">
        <ele>729.3</ele>
        <time>2025-09-20T14:35:59Z</time>
      </trkpt>
      <trkpt lat="44.21168" lon="2.98496">
        <ele>726.89</ele>
        <time>2025-09-20T14:36:13Z</time>
      </trkpt>
      <trkpt lat="44.21158" lon="2.98487">
        <ele>724.01</ele>
        <time>2025-09-20T14:36:21Z</time>
      </trkpt>
      <trkpt lat="44.21138" lon="2.98468">
        <ele>716.8</ele>
        <time>2025-09-20T14:36:38Z</time>
      </trkpt>
      <trkpt lat="44.21114" lon="2.98456">
        <ele>710.55</ele>
        <time>2025-09-20T14:36:53Z</time>
      </trkpt>
      <trkpt lat="44.21083" lon="2.98454">
        <ele>705.26</ele>
        <time>2025-09-20T14:37:12Z</time>
      </trkpt>
      <trkpt lat="44.21058" lon="2.98454">
        <ele>708.63</ele>
        <time>2025-09-20T14:37:28Z</time>
      </trkpt>
      <trkpt lat="44.21046" lon="2.9843">
        <ele>708.63</ele>
        <time>2025-09-20T14:37:42Z</time>
      </trkpt>
      <trkpt lat="44.21035" lon="2.98395">
        <ele>711.99</ele>
        <time>2025-09-20T14:37:59Z</time>
      </trkpt>
      <trkpt lat="44.21019" lon="2.98368">
        <ele>711.99</ele>
        <time>2025-09-20T14:38:14Z</time>
      </trkpt>
      <trkpt lat="44.20999" lon="2.98343">
        <ele>711.51</ele>
        <time>2025-09-20T14:38:31Z</time>
      </trkpt>
      <trkpt lat="44.2098" lon="2.98319">
        <ele>711.99</ele>
        <time>2025-09-20T14:38:46Z</time>
      </trkpt>
      <trkpt lat="44.20965" lon="2.98286">
        <ele>711.03</ele>
        <time>2025-09-20T14:39:03Z</time>
      </trkpt>
      <trkpt lat="44.2096" lon="2.98272">
        <ele>711.51</ele>
        <time>2025-09-20T14:39:11Z</time>
      </trkpt>
      <trkpt lat="44.20958" lon="2.9827">
        <ele>711.99</ele>
        <time>2025-09-20T14:39:12Z</time>
      </trkpt>
      <trkpt lat="44.2095" lon="2.98245">
        <ele>713.92</ele>
        <time>2025-09-20T14:39:24Z</time>
      </trkpt>
      <trkpt lat="44.20938" lon="2.98213">
        <ele>714.88</ele>
        <time>2025-09-20T14:39:41Z</time>
      </trkpt>
      <trkpt lat="44.20945" lon="2.98193">
        <ele>714.88</ele>
        <time>2025-09-20T14:39:54Z</time>
      </trkpt>
      <trkpt lat="44.20956" lon="2.98188">
        <ele>715.84</ele>
        <time>2025-09-20T14:40:03Z</time>
      </trkpt>
      <trkpt lat="44.20958" lon="2.98188">
        <ele>715.84</ele>
        <time>2025-09-20T14:40:04Z</time>
      </trkpt>
      <trkpt lat="44.20958" lon="2.98188">
        <ele>716.32</ele>
        <time>2025-09-20T14:40:05Z</time>
      </trkpt>
      <trkpt lat="44.20959" lon="2.98188">
        <ele>716.32</ele>
        <time>2025-09-20T14:40:06Z</time>
      </trkpt>
      <trkpt lat="44.20961" lon="2.98187">
        <ele>716.32</ele>
        <time>2025-09-20T14:40:07Z</time>
      </trkpt>
      <trkpt lat="44.20986" lon="2.98177">
        <ele>716.32</ele>
        <time>2025-09-20T14:40:25Z</time>
      </trkpt>
      <trkpt lat="44.21006" lon="2.98166">
        <ele>720.65</ele>
        <time>2025-09-20T14:40:43Z</time>
      </trkpt>
      <trkpt lat="44.21027" lon="2.98152">
        <ele>725.93</ele>
        <time>2025-09-20T14:41:00Z</time>
      </trkpt>
      <trkpt lat="44.21045" lon="2.98136">
        <ele>728.34</ele>
        <time>2025-09-20T14:41:15Z</time>
      </trkpt>
      <trkpt lat="44.2105" lon="2.9813">
        <ele>728.34</ele>
        <time>2025-09-20T14:41:20Z</time>
      </trkpt>
      <trkpt lat="44.21051" lon="2.98129">
        <ele>728.34</ele>
        <time>2025-09-20T14:41:21Z</time>
      </trkpt>
      <trkpt lat="44.21053" lon="2.98127">
        <ele>728.34</ele>
        <time>2025-09-20T14:41:22Z</time>
      </trkpt>
      <trkpt lat="44.21054" lon="2.98125">
        <ele>728.34</ele>
        <time>2025-09-20T14:41:23Z</time>
      </trkpt>
      <trkpt lat="44.21055" lon="2.98123">
        <ele>728.34</ele>
        <time>2025-09-20T14:41:24Z</time>
      </trkpt>
      <trkpt lat="44.21057" lon="2.98122">
        <ele>728.82</ele>
        <time>2025-09-20T14:41:25Z</time>
      </trkpt>
      <trkpt lat="44.21078" lon="2.981">
        <ele>733.14</ele>
        <time>2025-09-20T14:41:42Z</time>
      </trkpt>
      <trkpt lat="44.21092" lon="2.98102">
        <ele>734.58</ele>
        <time>2025-09-20T14:41:53Z</time>
      </trkpt>
      <trkpt lat="44.21093" lon="2.98103">
        <ele>734.58</ele>
        <time>2025-09-20T14:41:54Z</time>
      </trkpt>
      <trkpt lat="44.21107" lon="2.98132">
        <ele>737.95</ele>
        <time>2025-09-20T14:42:11Z</time>
      </trkpt>
      <trkpt lat="44.21118" lon="2.98165">
        <ele>742.76</ele>
        <time>2025-09-20T14:42:28Z</time>
      </trkpt>
      <trkpt lat="44.21122" lon="2.98173">
        <ele>743.24</ele>
        <time>2025-09-20T14:42:32Z</time>
      </trkpt>
      <trkpt lat="44.2113" lon="2.98205">
        <ele>745.64</ele>
        <time>2025-09-20T14:42:49Z</time>
      </trkpt>
      <trkpt lat="44.21131" lon="2.98225">
        <ele>749</ele>
        <time>2025-09-20T14:42:58Z</time>
      </trkpt>
      <trkpt lat="44.2113" lon="2.98226">
        <ele>749</ele>
        <time>2025-09-20T14:42:59Z</time>
      </trkpt>
      <trkpt lat="44.21136" lon="2.98263">
        <ele>752.85</ele>
        <time>2025-09-20T14:43:18Z</time>
      </trkpt>
      <trkpt lat="44.2114" lon="2.9827">
        <ele>754.77</ele>
        <time>2025-09-20T14:43:23Z</time>
      </trkpt>
      <trkpt lat="44.21141" lon="2.9827">
        <ele>754.77</ele>
        <time>2025-09-20T14:43:24Z</time>
      </trkpt>
      <trkpt lat="44.21142" lon="2.9827">
        <ele>755.25</ele>
        <time>2025-09-20T14:43:25Z</time>
      </trkpt>
      <trkpt lat="44.21157" lon="2.98255">
        <ele>759.1</ele>
        <time>2025-09-20T14:43:43Z</time>
      </trkpt>
      <trkpt lat="44.21158" lon="2.98254">
        <ele>759.1</ele>
        <time>2025-09-20T14:43:48Z</time>
      </trkpt>
      <trkpt lat="44.21159" lon="2.98255">
        <ele>759.58</ele>
        <time>2025-09-20T14:43:49Z</time>
      </trkpt>
      <trkpt lat="44.21161" lon="2.98255">
        <ele>760.06</ele>
        <time>2025-09-20T14:43:50Z</time>
      </trkpt>
      <trkpt lat="44.21162" lon="2.98256">
        <ele>760.06</ele>
        <time>2025-09-20T14:43:51Z</time>
      </trkpt>
      <trkpt lat="44.21164" lon="2.98257">
        <ele>760.54</ele>
        <time>2025-09-20T14:43:52Z</time>
      </trkpt>
      <trkpt lat="44.21165" lon="2.98258">
        <ele>760.54</ele>
        <time>2025-09-20T14:43:53Z</time>
      </trkpt>
      <trkpt lat="44.21166" lon="2.98259">
        <ele>760.54</ele>
        <time>2025-09-20T14:43:54Z</time>
      </trkpt>
      <trkpt lat="44.21167" lon="2.9826">
        <ele>761.02</ele>
        <time>2025-09-20T14:43:55Z</time>
      </trkpt>
      <trkpt lat="44.21167" lon="2.98261">
        <ele>761.5</ele>
        <time>2025-09-20T14:43:56Z</time>
      </trkpt>
      <trkpt lat="44.2117" lon="2.98265">
        <ele>762.46</ele>
        <time>2025-09-20T14:44:00Z</time>
      </trkpt>
      <trkpt lat="44.21173" lon="2.98267">
        <ele>762.94</ele>
        <time>2025-09-20T14:44:05Z</time>
      </trkpt>
      <trkpt lat="44.21181" lon="2.98255">
        <ele>765.35</ele>
        <time>2025-09-20T14:44:15Z</time>
      </trkpt>
      <trkpt lat="44.21201" lon="2.98258">
        <ele>770.15</ele>
        <time>2025-09-20T14:44:29Z</time>
      </trkpt>
      <trkpt lat="44.21203" lon="2.98255">
        <ele>770.63</ele>
        <time>2025-09-20T14:44:31Z</time>
      </trkpt>
      <trkpt lat="44.21203" lon="2.98254">
        <ele>770.63</ele>
        <time>2025-09-20T14:44:32Z</time>
      </trkpt>
      <trkpt lat="44.21204" lon="2.98252">
        <ele>771.11</ele>
        <time>2025-09-20T14:44:33Z</time>
      </trkpt>
      <trkpt lat="44.21205" lon="2.98251">
        <ele>771.11</ele>
        <time>2025-09-20T14:44:34Z</time>
      </trkpt>
      <trkpt lat="44.21206" lon="2.98249">
        <ele>771.11</ele>
        <time>2025-09-20T14:44:35Z</time>
      </trkpt>
      <trkpt lat="44.21207" lon="2.98247">
        <ele>771.6</ele>
        <time>2025-09-20T14:44:36Z</time>
      </trkpt>
      <trkpt lat="44.21207" lon="2.98245">
        <ele>771.6</ele>
        <time>2025-09-20T14:44:37Z</time>
      </trkpt>
      <trkpt lat="44.2122" lon="2.98224">
        <ele>776.4</ele>
        <time>2025-09-20T14:44:52Z</time>
      </trkpt>
      <trkpt lat="44.21231" lon="2.98199">
        <ele>781.21</ele>
        <time>2025-09-20T14:45:09Z</time>
      </trkpt>
      <trkpt lat="44.21242" lon="2.98167">
        <ele>784.57</ele>
        <time>2025-09-20T14:45:27Z</time>
      </trkpt>
      <trkpt lat="44.21253" lon="2.98132">
        <ele>787.94</ele>
        <time>2025-09-20T14:45:46Z</time>
      </trkpt>
      <trkpt lat="44.21247" lon="2.98104">
        <ele>788.42</ele>
        <time>2025-09-20T14:46:03Z</time>
      </trkpt>
      <trkpt lat="44.21246" lon="2.98103">
        <ele>788.42</ele>
        <time>2025-09-20T14:46:04Z</time>
      </trkpt>
      <trkpt lat="44.21245" lon="2.98102">
        <ele>788.42</ele>
        <time>2025-09-20T14:46:05Z</time>
      </trkpt>
      <trkpt lat="44.21247" lon="2.98102">
        <ele>787.46</ele>
        <time>2025-09-20T14:46:18Z</time>
      </trkpt>
      <trkpt lat="44.21248" lon="2.98104">
        <ele>787.46</ele>
        <time>2025-09-20T14:46:19Z</time>
      </trkpt>
      <trkpt lat="44.21249" lon="2.98105">
        <ele>787.46</ele>
        <time>2025-09-20T14:46:20Z</time>
      </trkpt>
      <trkpt lat="44.21256" lon="2.98131">
        <ele>787.46</ele>
        <time>2025-09-20T14:46:35Z</time>
      </trkpt>
      <trkpt lat="44.21258" lon="2.98158">
        <ele>786.98</ele>
        <time>2025-09-20T14:46:47Z</time>
      </trkpt>
      <trkpt lat="44.21258" lon="2.9816">
        <ele>786.98</ele>
        <time>2025-09-20T14:46:48Z</time>
      </trkpt>
      <trkpt lat="44.21259" lon="2.98176">
        <ele>788.9</ele>
        <time>2025-09-20T14:46:56Z</time>
      </trkpt>
      <trkpt lat="44.2126" lon="2.98178">
        <ele>789.38</ele>
        <time>2025-09-20T14:46:57Z</time>
      </trkpt>
      <trkpt lat="44.2126" lon="2.98179">
        <ele>789.86</ele>
        <time>2025-09-20T14:46:58Z</time>
      </trkpt>
      <trkpt lat="44.21261" lon="2.98181">
        <ele>789.86</ele>
        <time>2025-09-20T14:46:59Z</time>
      </trkpt>
      <trkpt lat="44.21261" lon="2.98183">
        <ele>790.34</ele>
        <time>2025-09-20T14:47:00Z</time>
      </trkpt>
      <trkpt lat="44.21271" lon="2.982">
        <ele>794.19</ele>
        <time>2025-09-20T14:47:12Z</time>
      </trkpt>
      <trkpt lat="44.21272" lon="2.98201">
        <ele>794.19</ele>
        <time>2025-09-20T14:47:13Z</time>
      </trkpt>
      <trkpt lat="44.21273" lon="2.98202">
        <ele>794.67</ele>
        <time>2025-09-20T14:47:14Z</time>
      </trkpt>
      <trkpt lat="44.21275" lon="2.98203">
        <ele>795.15</ele>
        <time>2025-09-20T14:47:16Z</time>
      </trkpt>
      <trkpt lat="44.21276" lon="2.98203">
        <ele>795.63</ele>
        <time>2025-09-20T14:47:17Z</time>
      </trkpt>
      <trkpt lat="44.21277" lon="2.98203">
        <ele>796.11</ele>
        <time>2025-09-20T14:47:18Z</time>
      </trkpt>
      <trkpt lat="44.21278" lon="2.98202">
        <ele>796.11</ele>
        <time>2025-09-20T14:47:19Z</time>
      </trkpt>
      <trkpt lat="44.21279" lon="2.982">
        <ele>796.59</ele>
        <time>2025-09-20T14:47:20Z</time>
      </trkpt>
      <trkpt lat="44.21284" lon="2.98177">
        <ele>799.95</ele>
        <time>2025-09-20T14:47:34Z</time>
      </trkpt>
      <trkpt lat="44.21289" lon="2.98146">
        <ele>802.84</ele>
        <time>2025-09-20T14:47:50Z</time>
      </trkpt>
      <trkpt lat="44.21288" lon="2.98123">
        <ele>803.8</ele>
        <time>2025-09-20T14:48:05Z</time>
      </trkpt>
      <trkpt lat="44.21288" lon="2.98087">
        <ele>807.16</ele>
        <time>2025-09-20T14:48:21Z</time>
      </trkpt>
      <trkpt lat="44.2128" lon="2.98059">
        <ele>809.09</ele>
        <time>2025-09-20T14:48:35Z</time>
      </trkpt>
      <trkpt lat="44.21265" lon="2.98031">
        <ele>810.05</ele>
        <time>2025-09-20T14:48:50Z</time>
      </trkpt>
      <trkpt lat="44.21252" lon="2.98006">
        <ele>810.53</ele>
        <time>2025-09-20T14:49:05Z</time>
      </trkpt>
      <trkpt lat="44.21231" lon="2.97981">
        <ele>811.49</ele>
        <time>2025-09-20T14:49:21Z</time>
      </trkpt>
      <trkpt lat="44.21209" lon="2.97952">
        <ele>811.01</ele>
        <time>2025-09-20T14:49:38Z</time>
      </trkpt>
      <trkpt lat="44.21198" lon="2.97931">
        <ele>812.45</ele>
        <time>2025-09-20T14:49:49Z</time>
      </trkpt>
      <trkpt lat="44.21193" lon="2.97901">
        <ele>812.93</ele>
        <time>2025-09-20T14:50:05Z</time>
      </trkpt>
      <trkpt lat="44.21188" lon="2.97865">
        <ele>815.82</ele>
        <time>2025-09-20T14:50:22Z</time>
      </trkpt>
      <trkpt lat="44.21187" lon="2.97833">
        <ele>817.26</ele>
        <time>2025-09-20T14:50:37Z</time>
      </trkpt>
      <trkpt lat="44.21184" lon="2.97803">
        <ele>818.7</ele>
        <time>2025-09-20T14:50:52Z</time>
      </trkpt>
      <trkpt lat="44.21183" lon="2.97758">
        <ele>823.03</ele>
        <time>2025-09-20T14:51:14Z</time>
      </trkpt>
      <trkpt lat="44.21181" lon="2.9772">
        <ele>825.43</ele>
        <time>2025-09-20T14:51:31Z</time>
      </trkpt>
      <trkpt lat="44.2118" lon="2.97691">
        <ele>829.27</ele>
        <time>2025-09-20T14:51:45Z</time>
      </trkpt>
      <trkpt lat="44.21196" lon="2.97671">
        <ele>827.35</ele>
        <time>2025-09-20T14:52:01Z</time>
      </trkpt>
      <trkpt lat="44.21219" lon="2.97667">
        <ele>824.95</ele>
        <time>2025-09-20T14:52:16Z</time>
      </trkpt>
      <trkpt lat="44.21246" lon="2.97661">
        <ele>823.51</ele>
        <time>2025-09-20T14:52:32Z</time>
      </trkpt>
      <trkpt lat="44.21267" lon="2.97659">
        <ele>822.06</ele>
        <time>2025-09-20T14:52:45Z</time>
      </trkpt>
      <trkpt lat="44.21292" lon="2.97651">
        <ele>822.06</ele>
        <time>2025-09-20T14:53:00Z</time>
      </trkpt>
      <trkpt lat="44.21319" lon="2.97642">
        <ele>825.43</ele>
        <time>2025-09-20T14:53:17Z</time>
      </trkpt>
      <trkpt lat="44.21344" lon="2.97634">
        <ele>828.31</ele>
        <time>2025-09-20T14:53:33Z</time>
      </trkpt>
      <trkpt lat="44.21368" lon="2.97628">
        <ele>829.27</ele>
        <time>2025-09-20T14:53:50Z</time>
      </trkpt>
      <trkpt lat="44.21399" lon="2.97621">
        <ele>829.27</ele>
        <time>2025-09-20T14:54:10Z</time>
      </trkpt>
      <trkpt lat="44.21414" lon="2.97596">
        <ele>828.79</ele>
        <time>2025-09-20T14:54:24Z</time>
      </trkpt>
      <trkpt lat="44.21425" lon="2.97564">
        <ele>828.31</ele>
        <time>2025-09-20T14:54:42Z</time>
      </trkpt>
      <trkpt lat="44.2143" lon="2.97535">
        <ele>829.27</ele>
        <time>2025-09-20T14:54:55Z</time>
      </trkpt>
      <trkpt lat="44.21427" lon="2.97519">
        <ele>828.79</ele>
        <time>2025-09-20T14:55:05Z</time>
      </trkpt>
      <trkpt lat="44.21423" lon="2.97514">
        <ele>828.79</ele>
        <time>2025-09-20T14:55:13Z</time>
      </trkpt>
      <trkpt lat="44.21424" lon="2.97509">
        <ele>828.79</ele>
        <time>2025-09-20T14:55:25Z</time>
      </trkpt>
      <trkpt lat="44.21423" lon="2.97507">
        <ele>828.31</ele>
        <time>2025-09-20T14:55:53Z</time>
      </trkpt>
      <trkpt lat="44.21423" lon="2.97508">
        <ele>828.31</ele>
        <time>2025-09-20T14:56:14Z</time>
      </trkpt>
      <trkpt lat="44.21424" lon="2.97512">
        <ele>829.27</ele>
        <time>2025-09-20T14:56:30Z</time>
      </trkpt>
      <trkpt lat="44.21425" lon="2.97505">
        <ele>828.79</ele>
        <time>2025-09-20T14:56:40Z</time>
      </trkpt>
      <trkpt lat="44.21425" lon="2.97503">
        <ele>828.79</ele>
        <time>2025-09-20T14:56:41Z</time>
      </trkpt>
      <trkpt lat="44.21426" lon="2.97503">
        <ele>828.79</ele>
        <time>2025-09-20T14:56:42Z</time>
      </trkpt>
      <trkpt lat="44.21427" lon="2.97502">
        <ele>828.79</ele>
        <time>2025-09-20T14:56:43Z</time>
      </trkpt>
      <trkpt lat="44.21446" lon="2.97491">
        <ele>829.76</ele>
        <time>2025-09-20T14:56:58Z</time>
      </trkpt>
      <trkpt lat="44.21468" lon="2.97474">
        <ele>828.79</ele>
        <time>2025-09-20T14:57:14Z</time>
      </trkpt>
      <trkpt lat="44.21486" lon="2.97449">
        <ele>831.2</ele>
        <time>2025-09-20T14:57:30Z</time>
      </trkpt>
      <trkpt lat="44.21497" lon="2.97427">
        <ele>833.6</ele>
        <time>2025-09-20T14:57:45Z</time>
      </trkpt>
      <trkpt lat="44.21498" lon="2.97425">
        <ele>833.6</ele>
        <time>2025-09-20T14:57:46Z</time>
      </trkpt>
      <trkpt lat="44.21519" lon="2.97403">
        <ele>835.52</ele>
        <time>2025-09-20T14:58:04Z</time>
      </trkpt>
      <trkpt lat="44.21544" lon="2.97388">
        <ele>834.56</ele>
        <time>2025-09-20T14:58:21Z</time>
      </trkpt>
      <trkpt lat="44.21565" lon="2.97374">
        <ele>833.6</ele>
        <time>2025-09-20T14:58:37Z</time>
      </trkpt>
      <trkpt lat="44.21584" lon="2.97357">
        <ele>833.6</ele>
        <time>2025-09-20T14:58:54Z</time>
      </trkpt>
      <trkpt lat="44.21608" lon="2.97337">
        <ele>833.12</ele>
        <time>2025-09-20T14:59:13Z</time>
      </trkpt>
      <trkpt lat="44.21632" lon="2.97313">
        <ele>832.64</ele>
        <time>2025-09-20T14:59:32Z</time>
      </trkpt>
      <trkpt lat="44.21652" lon="2.97292">
        <ele>834.08</ele>
        <time>2025-09-20T14:59:49Z</time>
      </trkpt>
      <trkpt lat="44.21674" lon="2.97287">
        <ele>833.6</ele>
        <time>2025-09-20T15:00:04Z</time>
      </trkpt>
      <trkpt lat="44.21702" lon="2.97279">
        <ele>833.12</ele>
        <time>2025-09-20T15:00:23Z</time>
      </trkpt>
      <trkpt lat="44.21724" lon="2.97265">
        <ele>830.24</ele>
        <time>2025-09-20T15:00:40Z</time>
      </trkpt>
      <trkpt lat="44.21745" lon="2.97257">
        <ele>829.76</ele>
        <time>2025-09-20T15:00:53Z</time>
      </trkpt>
      <trkpt lat="44.21781" lon="2.9725">
        <ele>832.16</ele>
        <time>2025-09-20T15:01:16Z</time>
      </trkpt>
      <trkpt lat="44.21809" lon="2.97252">
        <ele>833.12</ele>
        <time>2025-09-20T15:01:34Z</time>
      </trkpt>
      <trkpt lat="44.21828" lon="2.97264">
        <ele>834.08</ele>
        <time>2025-09-20T15:01:50Z</time>
      </trkpt>
      <trkpt lat="44.21848" lon="2.97281">
        <ele>831.2</ele>
        <time>2025-09-20T15:02:07Z</time>
      </trkpt>
      <trkpt lat="44.21876" lon="2.97284">
        <ele>830.24</ele>
        <time>2025-09-20T15:02:24Z</time>
      </trkpt>
      <trkpt lat="44.21903" lon="2.97283">
        <ele>831.68</ele>
        <time>2025-09-20T15:02:40Z</time>
      </trkpt>
      <trkpt lat="44.21924" lon="2.9727">
        <ele>833.12</ele>
        <time>2025-09-20T15:02:54Z</time>
      </trkpt>
      <trkpt lat="44.2195" lon="2.97258">
        <ele>835.52</ele>
        <time>2025-09-20T15:03:10Z</time>
      </trkpt>
      <trkpt lat="44.21953" lon="2.97257">
        <ele>836</ele>
        <time>2025-09-20T15:03:12Z</time>
      </trkpt>
      <trkpt lat="44.21955" lon="2.97257">
        <ele>836.48</ele>
        <time>2025-09-20T15:03:13Z</time>
      </trkpt>
      <trkpt lat="44.21956" lon="2.97257">
        <ele>836.96</ele>
        <time>2025-09-20T15:03:14Z</time>
      </trkpt>
      <trkpt lat="44.21957" lon="2.97257">
        <ele>836.96</ele>
        <time>2025-09-20T15:03:15Z</time>
      </trkpt>
      <trkpt lat="44.21959" lon="2.97257">
        <ele>837.45</ele>
        <time>2025-09-20T15:03:16Z</time>
      </trkpt>
      <trkpt lat="44.21989" lon="2.97262">
        <ele>837.93</ele>
        <time>2025-09-20T15:03:37Z</time>
      </trkpt>
      <trkpt lat="44.22017" lon="2.97263">
        <ele>835.52</ele>
        <time>2025-09-20T15:03:56Z</time>
      </trkpt>
      <trkpt lat="44.22039" lon="2.97238">
        <ele>834.56</ele>
        <time>2025-09-20T15:04:14Z</time>
      </trkpt>
      <trkpt lat="44.22048" lon="2.97198">
        <ele>833.12</ele>
        <time>2025-09-20T15:04:33Z</time>
      </trkpt>
      <trkpt lat="44.22052" lon="2.97157">
        <ele>833.12</ele>
        <time>2025-09-20T15:04:52Z</time>
      </trkpt>
      <trkpt lat="44.22062" lon="2.97124">
        <ele>829.76</ele>
        <time>2025-09-20T15:05:08Z</time>
      </trkpt>
      <trkpt lat="44.22077" lon="2.97094">
        <ele>828.79</ele>
        <time>2025-09-20T15:05:25Z</time>
      </trkpt>
      <trkpt lat="44.22092" lon="2.97057">
        <ele>826.39</ele>
        <time>2025-09-20T15:05:44Z</time>
      </trkpt>
      <trkpt lat="44.22099" lon="2.97034">
        <ele>823.99</ele>
        <time>2025-09-20T15:05:56Z</time>
      </trkpt>
      <trkpt lat="44.22099" lon="2.97032">
        <ele>823.51</ele>
        <time>2025-09-20T15:05:57Z</time>
      </trkpt>
      <trkpt lat="44.22105" lon="2.96999">
        <ele>826.39</ele>
        <time>2025-09-20T15:06:12Z</time>
      </trkpt>
      <trkpt lat="44.22108" lon="2.96955">
        <ele>825.91</ele>
        <time>2025-09-20T15:06:32Z</time>
      </trkpt>
      <trkpt lat="44.22123" lon="2.96924">
        <ele>823.51</ele>
        <time>2025-09-20T15:06:49Z</time>
      </trkpt>
      <trkpt lat="44.22141" lon="2.96895">
        <ele>823.51</ele>
        <time>2025-09-20T15:07:06Z</time>
      </trkpt>
      <trkpt lat="44.22154" lon="2.96865">
        <ele>825.91</ele>
        <time>2025-09-20T15:07:22Z</time>
      </trkpt>
      <trkpt lat="44.22164" lon="2.96834">
        <ele>828.31</ele>
        <time>2025-09-20T15:07:38Z</time>
      </trkpt>
      <trkpt lat="44.22168" lon="2.96801">
        <ele>829.27</ele>
        <time>2025-09-20T15:07:53Z</time>
      </trkpt>
      <trkpt lat="44.22167" lon="2.96765">
        <ele>832.16</ele>
        <time>2025-09-20T15:08:10Z</time>
      </trkpt>
      <trkpt lat="44.22167" lon="2.96763">
        <ele>832.16</ele>
        <time>2025-09-20T15:08:11Z</time>
      </trkpt>
      <trkpt lat="44.22167" lon="2.96761">
        <ele>832.16</ele>
        <time>2025-09-20T15:08:12Z</time>
      </trkpt>
      <trkpt lat="44.22167" lon="2.96759">
        <ele>832.16</ele>
        <time>2025-09-20T15:08:13Z</time>
      </trkpt>
      <trkpt lat="44.22166" lon="2.96757">
        <ele>832.16</ele>
        <time>2025-09-20T15:08:14Z</time>
      </trkpt>
      <trkpt lat="44.22166" lon="2.96755">
        <ele>832.16</ele>
        <time>2025-09-20T15:08:15Z</time>
      </trkpt>
      <trkpt lat="44.22158" lon="2.96727">
        <ele>831.68</ele>
        <time>2025-09-20T15:08:30Z</time>
      </trkpt>
      <trkpt lat="44.22142" lon="2.96704">
        <ele>831.68</ele>
        <time>2025-09-20T15:08:44Z</time>
      </trkpt>
      <trkpt lat="44.22121" lon="2.96685">
        <ele>831.68</ele>
        <time>2025-09-20T15:09:00Z</time>
      </trkpt>
      <trkpt lat="44.22102" lon="2.96665">
        <ele>833.6</ele>
        <time>2025-09-20T15:09:16Z</time>
      </trkpt>
      <trkpt lat="44.22089" lon="2.96632">
        <ele>834.56</ele>
        <time>2025-09-20T15:09:34Z</time>
      </trkpt>
      <trkpt lat="44.22087" lon="2.96603">
        <ele>834.56</ele>
        <time>2025-09-20T15:09:47Z</time>
      </trkpt>
      <trkpt lat="44.22093" lon="2.96566">
        <ele>836</ele>
        <time>2025-09-20T15:10:04Z</time>
      </trkpt>
      <trkpt lat="44.22102" lon="2.96535">
        <ele>836.96</ele>
        <time>2025-09-20T15:10:22Z</time>
      </trkpt>
      <trkpt lat="44.22113" lon="2.96511">
        <ele>837.93</ele>
        <time>2025-09-20T15:10:38Z</time>
      </trkpt>
      <trkpt lat="44.22125" lon="2.96483">
        <ele>836.96</ele>
        <time>2025-09-20T15:10:56Z</time>
      </trkpt>
      <trkpt lat="44.2214" lon="2.96455">
        <ele>838.89</ele>
        <time>2025-09-20T15:11:13Z</time>
      </trkpt>
      <trkpt lat="44.22148" lon="2.96439">
        <ele>839.85</ele>
        <time>2025-09-20T15:11:23Z</time>
      </trkpt>
      <trkpt lat="44.22166" lon="2.96409">
        <ele>840.81</ele>
        <time>2025-09-20T15:11:43Z</time>
      </trkpt>
      <trkpt lat="44.2217" lon="2.96404">
        <ele>841.29</ele>
        <time>2025-09-20T15:11:48Z</time>
      </trkpt>
      <trkpt lat="44.22171" lon="2.96402">
        <ele>841.29</ele>
        <time>2025-09-20T15:11:49Z</time>
      </trkpt>
      <trkpt lat="44.22172" lon="2.96401">
        <ele>841.29</ele>
        <time>2025-09-20T15:11:50Z</time>
      </trkpt>
      <trkpt lat="44.22173" lon="2.96399">
        <ele>841.29</ele>
        <time>2025-09-20T15:11:51Z</time>
      </trkpt>
      <trkpt lat="44.22174" lon="2.96398">
        <ele>841.29</ele>
        <time>2025-09-20T15:11:52Z</time>
      </trkpt>
      <trkpt lat="44.22191" lon="2.96374">
        <ele>839.85</ele>
        <time>2025-09-20T15:12:10Z</time>
      </trkpt>
      <trkpt lat="44.22209" lon="2.96355">
        <ele>839.85</ele>
        <time>2025-09-20T15:12:27Z</time>
      </trkpt>
      <trkpt lat="44.22228" lon="2.96336">
        <ele>839.85</ele>
        <time>2025-09-20T15:12:43Z</time>
      </trkpt>
      <trkpt lat="44.22231" lon="2.96333">
        <ele>839.37</ele>
        <time>2025-09-20T15:12:46Z</time>
      </trkpt>
      <trkpt lat="44.22232" lon="2.96331">
        <ele>839.37</ele>
        <time>2025-09-20T15:12:47Z</time>
      </trkpt>
      <trkpt lat="44.22232" lon="2.9633">
        <ele>838.89</ele>
        <time>2025-09-20T15:12:48Z</time>
      </trkpt>
      <trkpt lat="44.22233" lon="2.96329">
        <ele>838.89</ele>
        <time>2025-09-20T15:12:49Z</time>
      </trkpt>
      <trkpt lat="44.22234" lon="2.96327">
        <ele>838.89</ele>
        <time>2025-09-20T15:12:50Z</time>
      </trkpt>
      <trkpt lat="44.22235" lon="2.96326">
        <ele>838.41</ele>
        <time>2025-09-20T15:12:51Z</time>
      </trkpt>
      <trkpt lat="44.22254" lon="2.96309">
        <ele>837.45</ele>
        <time>2025-09-20T15:13:07Z</time>
      </trkpt>
      <trkpt lat="44.22274" lon="2.96293">
        <ele>837.45</ele>
        <time>2025-09-20T15:13:23Z</time>
      </trkpt>
      <trkpt lat="44.22295" lon="2.9627">
        <ele>837.45</ele>
        <time>2025-09-20T15:13:42Z</time>
      </trkpt>
      <trkpt lat="44.22308" lon="2.96249">
        <ele>836.96</ele>
        <time>2025-09-20T15:13:57Z</time>
      </trkpt>
      <trkpt lat="44.22316" lon="2.96238">
        <ele>836</ele>
        <time>2025-09-20T15:14:07Z</time>
      </trkpt>
      <trkpt lat="44.22317" lon="2.96236">
        <ele>836</ele>
        <time>2025-09-20T15:14:09Z</time>
      </trkpt>
      <trkpt lat="44.22318" lon="2.96234">
        <ele>836</ele>
        <time>2025-09-20T15:14:10Z</time>
      </trkpt>
      <trkpt lat="44.2233" lon="2.96212">
        <ele>836.48</ele>
        <time>2025-09-20T15:14:26Z</time>
      </trkpt>
      <trkpt lat="44.22339" lon="2.96192">
        <ele>838.89</ele>
        <time>2025-09-20T15:14:40Z</time>
      </trkpt>
      <trkpt lat="44.22349" lon="2.96176">
        <ele>840.33</ele>
        <time>2025-09-20T15:14:55Z</time>
      </trkpt>
      <trkpt lat="44.22364" lon="2.96148">
        <ele>841.77</ele>
        <time>2025-09-20T15:15:12Z</time>
      </trkpt>
      <trkpt lat="44.22374" lon="2.9613">
        <ele>844.66</ele>
        <time>2025-09-20T15:15:27Z</time>
      </trkpt>
      <trkpt lat="44.22379" lon="2.96126">
        <ele>846.1</ele>
        <time>2025-09-20T15:15:33Z</time>
      </trkpt>
      <trkpt lat="44.22381" lon="2.96129">
        <ele>846.58</ele>
        <time>2025-09-20T15:15:36Z</time>
      </trkpt>
      <trkpt lat="44.22397" lon="2.96135">
        <ele>848.5</ele>
        <time>2025-09-20T15:15:53Z</time>
      </trkpt>
      <trkpt lat="44.22416" lon="2.96142">
        <ele>850.9</ele>
        <time>2025-09-20T15:16:09Z</time>
      </trkpt>
      <trkpt lat="44.22419" lon="2.96145">
        <ele>850.9</ele>
        <time>2025-09-20T15:16:12Z</time>
      </trkpt>
      <trkpt lat="44.22423" lon="2.96143">
        <ele>850.9</ele>
        <time>2025-09-20T15:16:16Z</time>
      </trkpt>
      <trkpt lat="44.22445" lon="2.96125">
        <ele>852.35</ele>
        <time>2025-09-20T15:16:33Z</time>
      </trkpt>
      <trkpt lat="44.22463" lon="2.96134">
        <ele>850.9</ele>
        <time>2025-09-20T15:16:47Z</time>
      </trkpt>
      <trkpt lat="44.22484" lon="2.96146">
        <ele>848.02</ele>
        <time>2025-09-20T15:17:04Z</time>
      </trkpt>
      <trkpt lat="44.22488" lon="2.9615">
        <ele>848.5</ele>
        <time>2025-09-20T15:17:19Z</time>
      </trkpt>
      <trkpt lat="44.22491" lon="2.96154">
        <ele>847.06</ele>
        <time>2025-09-20T15:17:34Z</time>
      </trkpt>
      <trkpt lat="44.2249" lon="2.96153">
        <ele>847.54</ele>
        <time>2025-09-20T15:17:56Z</time>
      </trkpt>
      <trkpt lat="44.22492" lon="2.96153">
        <ele>849.94</ele>
        <time>2025-09-20T15:18:14Z</time>
      </trkpt>
      <trkpt lat="44.22492" lon="2.96152">
        <ele>849.94</ele>
        <time>2025-09-20T15:18:26Z</time>
      </trkpt>
      <trkpt lat="44.22491" lon="2.96152">
        <ele>849.46</ele>
        <time>2025-09-20T15:18:38Z</time>
      </trkpt>
      <trkpt lat="44.2249" lon="2.96149">
        <ele>850.9</ele>
        <time>2025-09-20T15:18:49Z</time>
      </trkpt>
      <trkpt lat="44.22494" lon="2.96159">
        <ele>852.83</ele>
        <time>2025-09-20T15:19:03Z</time>
      </trkpt>
      <trkpt lat="44.22497" lon="2.96161">
        <ele>852.83</ele>
        <time>2025-09-20T15:19:06Z</time>
      </trkpt>
      <trkpt lat="44.22506" lon="2.96177">
        <ele>851.38</ele>
        <time>2025-09-20T15:19:18Z</time>
      </trkpt>
      <trkpt lat="44.22523" lon="2.96197">
        <ele>851.38</ele>
        <time>2025-09-20T15:19:37Z</time>
      </trkpt>
      <trkpt lat="44.2253" lon="2.96206">
        <ele>850.42</ele>
        <time>2025-09-20T15:19:46Z</time>
      </trkpt>
      <trkpt lat="44.22527" lon="2.96215">
        <ele>848.5</ele>
        <time>2025-09-20T15:19:58Z</time>
      </trkpt>
      <trkpt lat="44.22527" lon="2.96214">
        <ele>846.58</ele>
        <time>2025-09-20T15:20:08Z</time>
      </trkpt>
      <trkpt lat="44.22527" lon="2.96212">
        <ele>845.62</ele>
        <time>2025-09-20T15:20:45Z</time>
      </trkpt>
      <trkpt lat="44.2253" lon="2.96212">
        <ele>847.54</ele>
        <time>2025-09-20T15:20:58Z</time>
      </trkpt>
      <trkpt lat="44.22528" lon="2.96205">
        <ele>847.54</ele>
        <time>2025-09-20T15:21:08Z</time>
      </trkpt>
      <trkpt lat="44.22515" lon="2.96192">
        <ele>851.38</ele>
        <time>2025-09-20T15:21:24Z</time>
      </trkpt>
      <trkpt lat="44.22506" lon="2.96178">
        <ele>854.75</ele>
        <time>2025-09-20T15:21:37Z</time>
      </trkpt>
      <trkpt lat="44.22504" lon="2.9617">
        <ele>854.27</ele>
        <time>2025-09-20T15:21:44Z</time>
      </trkpt>
      <trkpt lat="44.22496" lon="2.96157">
        <ele>851.38</ele>
        <time>2025-09-20T15:22:01Z</time>
      </trkpt>
      <trkpt lat="44.22494" lon="2.96155">
        <ele>851.87</ele>
        <time>2025-09-20T15:22:17Z</time>
      </trkpt>
      <trkpt lat="44.22489" lon="2.9615">
        <ele>853.79</ele>
        <time>2025-09-20T15:22:33Z</time>
      </trkpt>
      <trkpt lat="44.22489" lon="2.96151">
        <ele>853.31</ele>
        <time>2025-09-20T15:22:47Z</time>
      </trkpt>
      <trkpt lat="44.22489" lon="2.96149">
        <ele>852.83</ele>
        <time>2025-09-20T15:23:04Z</time>
      </trkpt>
      <trkpt lat="44.22492" lon="2.96153">
        <ele>850.9</ele>
        <time>2025-09-20T15:23:16Z</time>
      </trkpt>
      <trkpt lat="44.22495" lon="2.96156">
        <ele>849.46</ele>
        <time>2025-09-20T15:23:31Z</time>
      </trkpt>
      <trkpt lat="44.22494" lon="2.96154">
        <ele>852.35</ele>
        <time>2025-09-20T15:23:45Z</time>
      </trkpt>
      <trkpt lat="44.22492" lon="2.96153">
        <ele>852.83</ele>
        <time>2025-09-20T15:24:03Z</time>
      </trkpt>
      <trkpt lat="44.22494" lon="2.9615">
        <ele>853.31</ele>
        <time>2025-09-20T15:24:17Z</time>
      </trkpt>
      <trkpt lat="44.22492" lon="2.96151">
        <ele>853.31</ele>
        <time>2025-09-20T15:24:30Z</time>
      </trkpt>
      <trkpt lat="44.22491" lon="2.96152">
        <ele>851.87</ele>
        <time>2025-09-20T15:24:48Z</time>
      </trkpt>
      <trkpt lat="44.22488" lon="2.96149">
        <ele>851.87</ele>
        <time>2025-09-20T15:25:06Z</time>
      </trkpt>
      <trkpt lat="44.22492" lon="2.96151">
        <ele>850.42</ele>
        <time>2025-09-20T15:25:17Z</time>
      </trkpt>
      <trkpt lat="44.22494" lon="2.96155">
        <ele>850.42</ele>
        <time>2025-09-20T15:25:31Z</time>
      </trkpt>
      <trkpt lat="44.22493" lon="2.96155">
        <ele>849.94</ele>
        <time>2025-09-20T15:25:44Z</time>
      </trkpt>
      <trkpt lat="44.22491" lon="2.96153">
        <ele>848.5</ele>
        <time>2025-09-20T15:26:04Z</time>
      </trkpt>
      <trkpt lat="44.2249" lon="2.96152">
        <ele>848.98</ele>
        <time>2025-09-20T15:26:20Z</time>
      </trkpt>
      <trkpt lat="44.2249" lon="2.9615">
        <ele>848.98</ele>
        <time>2025-09-20T15:26:35Z</time>
      </trkpt>
      <trkpt lat="44.22492" lon="2.96151">
        <ele>849.94</ele>
        <time>2025-09-20T15:26:52Z</time>
      </trkpt>
      <trkpt lat="44.22495" lon="2.96155">
        <ele>849.46</ele>
        <time>2025-09-20T15:27:11Z</time>
      </trkpt>
      <trkpt lat="44.22494" lon="2.96155">
        <ele>848.02</ele>
        <time>2025-09-20T15:27:27Z</time>
      </trkpt>
      <trkpt lat="44.22493" lon="2.96156">
        <ele>847.06</ele>
        <time>2025-09-20T15:27:45Z</time>
      </trkpt>
      <trkpt lat="44.22494" lon="2.96155">
        <ele>847.06</ele>
        <time>2025-09-20T15:27:59Z</time>
      </trkpt>
      <trkpt lat="44.22491" lon="2.96154">
        <ele>846.1</ele>
        <time>2025-09-20T15:28:10Z</time>
      </trkpt>
      <trkpt lat="44.2249" lon="2.96153">
        <ele>846.58</ele>
        <time>2025-09-20T15:28:25Z</time>
      </trkpt>
      <trkpt lat="44.22492" lon="2.96151">
        <ele>848.02</ele>
        <time>2025-09-20T15:28:36Z</time>
      </trkpt>
      <trkpt lat="44.22491" lon="2.96153">
        <ele>848.98</ele>
        <time>2025-09-20T15:28:49Z</time>
      </trkpt>
      <trkpt lat="44.22492" lon="2.96155">
        <ele>848.02</ele>
        <time>2025-09-20T15:28:59Z</time>
      </trkpt>
      <trkpt lat="44.22491" lon="2.96154">
        <ele>848.02</ele>
        <time>2025-09-20T15:29:12Z</time>
      </trkpt>
      <trkpt lat="44.2249" lon="2.96153">
        <ele>849.46</ele>
        <time>2025-09-20T15:29:25Z</time>
      </trkpt>
      <trkpt lat="44.22488" lon="2.96151">
        <ele>850.42</ele>
        <time>2025-09-20T15:29:36Z</time>
      </trkpt>
      <trkpt lat="44.22492" lon="2.96154">
        <ele>851.38</ele>
        <time>2025-09-20T15:29:49Z</time>
      </trkpt>
      <trkpt lat="44.22489" lon="2.96153">
        <ele>849.94</ele>
        <time>2025-09-20T15:30:03Z</time>
      </trkpt>
      <trkpt lat="44.2249" lon="2.96153">
        <ele>849.94</ele>
        <time>2025-09-20T15:30:15Z</time>
      </trkpt>
      <trkpt lat="44.22487" lon="2.96158">
        <ele>849.94</ele>
        <time>2025-09-20T15:30:27Z</time>
      </trkpt>
      <trkpt lat="44.22488" lon="2.96153">
        <ele>849.94</ele>
        <time>2025-09-20T15:30:46Z</time>
      </trkpt>
      <trkpt lat="44.22492" lon="2.96153">
        <ele>850.9</ele>
        <time>2025-09-20T15:30:58Z</time>
      </trkpt>
      <trkpt lat="44.22491" lon="2.96153">
        <ele>849.46</ele>
        <time>2025-09-20T15:31:12Z</time>
      </trkpt>
      <trkpt lat="44.22488" lon="2.96158">
        <ele>847.06</ele>
        <time>2025-09-20T15:31:25Z</time>
      </trkpt>
      <trkpt lat="44.22486" lon="2.96158">
        <ele>848.5</ele>
        <time>2025-09-20T15:31:40Z</time>
      </trkpt>
      <trkpt lat="44.22485" lon="2.96159">
        <ele>849.46</ele>
        <time>2025-09-20T15:32:02Z</time>
      </trkpt>
      <trkpt lat="44.22484" lon="2.96159">
        <ele>849.46</ele>
        <time>2025-09-20T15:32:05Z</time>
      </trkpt>
      <trkpt lat="44.2247" lon="2.96147">
        <ele>849.94</ele>
        <time>2025-09-20T15:32:22Z</time>
      </trkpt>
      <trkpt lat="44.22461" lon="2.96136">
        <ele>848.5</ele>
        <time>2025-09-20T15:32:37Z</time>
      </trkpt>
      <trkpt lat="44.22457" lon="2.96132">
        <ele>848.02</ele>
        <time>2025-09-20T15:32:51Z</time>
        <extensions>
          <visugpx:TrkExtension xmlns:visugpx="https://www.visugpx.com/editgpx/">
            <visugpx:node>1</visugpx:node>
            </visugpx:TrkExtension>
        </extensions>
      </trkpt>
    </trkseg>
  </trk>
</gpx>